Provisional Data: Grays Run near Gray, PA


Please select a monitoring station.
Please select start date.
Please select start date.

Toggle Unit: C/F Toggle Unit: C/F
Sample Time Temperature (C) Temperature (F) Specific Conductivity (mS/cm) pH   Turbidity (NTU+) DO (mg/L)
8/1/2022 12:00:00 AM 15.21 59.378 0.02 6.8 5.34 9.2
8/1/2022 12:15:00 AM 15.21 59.378 0.019 6.8 5.34 9.2
8/1/2022 12:30:00 AM 15.19 59.342 0.019 6.79 5.37 9.2
8/1/2022 12:45:00 AM 15.18 59.324 0.02 6.81 5.37 9.2
8/1/2022 1:00:00 AM 15.16 59.288 0.021 6.79 5.38 9.2
8/1/2022 1:15:00 AM 15.15 59.27 0.022 6.79 5.43 9.21
8/1/2022 1:30:00 AM 15.13 59.234 0.022 6.79 5.35 9.2
8/1/2022 1:45:00 AM 15.12 59.216 0.022 6.78 5.36 9.21
8/1/2022 2:00:00 AM 15.1 59.18 0.022 6.8 5.43 9.21
8/1/2022 2:15:00 AM 15.09 59.162 0.022 6.76 5.37 9.22
8/1/2022 2:30:00 AM 15.08 59.144 0.022 6.79 5.31 9.22
8/1/2022 2:45:00 AM 15.07 59.126 0.023 6.79 5.34 9.23
8/1/2022 3:00:00 AM 15.06 59.108 0.023 6.79 5.4 9.23
8/1/2022 3:15:00 AM 15.06 59.108 0.023 6.8 5.31 9.24
8/1/2022 3:30:00 AM 15.04 59.072 0.024 6.76 5.34 9.23
8/1/2022 3:45:00 AM 15.03 59.054 0.025 6.77 5.31 9.23
8/1/2022 4:00:00 AM 15.02 59.036 0.026 6.77 5.34 9.23
8/1/2022 4:15:00 AM 15.01 59.018 0.027 6.78 5.28 9.23
8/1/2022 4:30:00 AM 15.01 59.018 0.027 6.78 5.31 9.24
8/1/2022 4:45:00 AM 15 59 0.028 6.76 5.34 9.25
8/1/2022 5:00:00 AM 14.99 58.982 0.028 6.77 5.27 9.24
8/1/2022 5:15:00 AM 14.98 58.964 0.028 6.77 5.26 9.26
8/1/2022 5:30:00 AM 14.95 58.91 0.028 6.79 5.28 9.25
8/1/2022 5:45:00 AM 14.93 58.874 0.028 6.74 5.27 9.27
8/1/2022 6:00:00 AM 14.92 58.856 0.029 6.78 5.28 9.27
8/1/2022 6:15:00 AM 14.92 58.856 0.029 6.78 5.27 9.28
8/1/2022 6:30:00 AM 14.92 58.856 0.029 6.79 5.27 9.31
8/1/2022 6:45:00 AM 14.92 58.856 0.03 6.77 5.26 9.32
8/1/2022 7:00:00 AM 14.92 58.856 0.03 6.78 5.22 9.34
8/1/2022 7:15:00 AM 14.92 58.856 0.03 6.78 5.26 9.36
8/1/2022 7:30:00 AM 14.95 58.91 0.03 6.79 5.26 9.45
8/1/2022 7:45:00 AM 14.99 58.982 0.03 6.8 5.24 9.52
8/1/2022 8:00:00 AM 15 59 0.031 6.81 5.26 9.54
8/1/2022 8:15:00 AM 15.01 59.018 0.031 6.81 5.27 9.56
8/1/2022 8:30:00 AM 15.05 59.09 0.031 6.82 5.3 9.6
8/1/2022 8:45:00 AM 15.07 59.126 0.032 6.83 5.27 9.61
8/1/2022 9:00:00 AM 15.11 59.198 0.031 6.85 5.19 9.64
8/1/2022 9:15:00 AM 15.12 59.216 0.032 6.85 5.22 9.59
8/1/2022 9:30:00 AM 15.12 59.216 0.032 6.87 5.24 9.58
8/1/2022 9:45:00 AM 15.15 59.27 0.032 6.85 5.2 9.55
8/1/2022 10:00:00 AM 15.15 59.27 0.032 6.88 5.26 9.56
8/1/2022 10:15:00 AM 15.22 59.396 0.032 6.9 5.22 9.61
8/1/2022 10:30:00 AM 15.25 59.45 0.032 6.88 5.2 9.64
8/1/2022 10:45:00 AM 15.34 59.612 0.032 6.92 5.21 9.65
8/1/2022 11:00:00 AM 15.34 59.612 0.032 6.91 5.24 9.6
8/1/2022 11:15:00 AM 15.61 60.098 0.031 6.92 5.15 9.66
8/1/2022 11:30:00 AM 15.96 60.728 0.027 6.96 4.99 9.63
8/1/2022 11:45:00 AM 16.19 61.142 0.026 6.93 4.93 9.53
8/1/2022 12:00:00 PM 16.41 61.538 0.025 6.95 4.97 9.56
8/1/2022 12:15:00 PM 16.75 62.15 0.025 6.95 4.97 9.5
8/1/2022 12:30:00 PM 16.96 62.528 0.026 6.97 5.01 9.53
8/1/2022 12:45:00 PM 16.77 62.186 0.029 6.95 5.14 9.54
8/1/2022 1:00:00 PM 16.91 62.438 0.029 6.98 5.11 9.53
8/1/2022 1:15:00 PM 17.35 63.23 0.026 6.97 4.99 9.47
8/1/2022 1:30:00 PM 17.14 62.852 0.028 6.98 5.03 9.48
8/1/2022 1:45:00 PM 17.67 63.806 0.028 6.99 4.99 9.44
8/1/2022 2:00:00 PM 17.89 64.202 0.029 7 5.1 9.47
8/1/2022 2:15:00 PM 18.16 64.688 0.029 7.01 5.04 9.47
8/1/2022 2:30:00 PM 18.19 64.742 0.029 7.01 5.1 9.41
8/1/2022 2:45:00 PM 18.18 64.724 0.029 7.02 5.12 9.38
8/1/2022 3:00:00 PM 18.1 64.58 0.029 6.99 5.09 9.32
8/1/2022 3:15:00 PM 18.03 64.454 0.028 7.01 5.12 9.32
8/1/2022 3:30:00 PM 17.75 63.95 0.028 7 5.16 9.27
8/1/2022 3:45:00 PM 17.75 63.95 0.027 6.98 5.12 9.24
8/1/2022 4:00:00 PM 17.64 63.752 0.026 6.99 5.17 9.21
8/1/2022 4:15:00 PM 17.61 63.698 0.026 7 5.14 9.21
8/1/2022 4:30:00 PM 17.5 63.5 0.025 6.99 5.18 9.2
8/1/2022 4:45:00 PM 17.43 63.374 0.024 6.96 5.17 9.15
8/1/2022 5:00:00 PM 17.21 62.978 0.024 6.96 5.14 9.09
8/1/2022 5:15:00 PM 17.14 62.852 0.024 6.96 5.14 9.06
8/1/2022 5:30:00 PM 17.06 62.708 0.023 6.95 5.21 9.02
8/1/2022 5:45:00 PM 17.02 62.636 0.023 6.94 5.2 9.02
8/1/2022 6:00:00 PM 17 62.6 0.022 6.91 5.17 9
8/1/2022 6:15:00 PM 17.01 62.618 0.021 6.93 5.21 9.05
8/1/2022 6:30:00 PM 17 62.6 0.021 6.91 5.18 9.01
8/1/2022 6:45:00 PM 16.96 62.528 0.021 6.93 5.25 9.01
8/1/2022 7:00:00 PM 16.96 62.528 0.02 6.92 5.2 9.01
8/1/2022 7:15:00 PM 16.92 62.456 0.02 6.91 5.25 8.98
8/1/2022 7:30:00 PM 16.87 62.366 0.02 6.89 5.2 8.96
8/1/2022 7:45:00 PM 16.81 62.258 0.019 6.9 5.29 8.94
8/1/2022 8:00:00 PM 16.75 62.15 0.019 6.89 5.26 8.9
8/1/2022 8:15:00 PM 16.72 62.096 0.018 6.87 5.28 8.89
8/1/2022 8:30:00 PM 16.69 62.042 0.018 6.86 5.27 8.87
8/1/2022 8:45:00 PM 16.66 61.988 0.017 6.86 5.26 8.86
8/1/2022 9:00:00 PM 16.61 61.898 0.017 6.87 5.29 8.85
8/1/2022 9:15:00 PM 16.56 61.808 0.016 6.86 5.32 8.85
8/1/2022 9:30:00 PM 16.5 61.7 0.016 6.85 5.28 8.86
8/1/2022 9:45:00 PM 16.45 61.61 0.015 6.84 5.32 8.86
8/1/2022 10:00:00 PM 16.4 61.52 0.015 6.84 5.29 8.87
8/1/2022 10:15:00 PM 16.35 61.43 0.014 6.86 5.33 8.88
8/1/2022 10:30:00 PM 16.31 61.358 0.014 6.82 5.31 8.89
8/1/2022 10:45:00 PM 16.27 61.286 0.013 6.83 5.33 8.9
8/1/2022 11:00:00 PM 16.22 61.196 0.013 6.84 5.34 8.91
8/1/2022 11:15:00 PM 16.19 61.142 0.012 6.83 5.34 8.92
8/1/2022 11:30:00 PM 16.15 61.07 0.012 6.84 5.37 8.92
8/1/2022 11:45:00 PM 16.1 60.98 0.012 6.83 5.35 8.93
8/2/2022 12:00:00 AM 16.05 60.89 0.011 6.84 5.35 8.95
8/2/2022 12:15:00 AM 16 60.8 0.01 6.85 5.33 8.96
8/2/2022 12:30:00 AM 15.97 60.746 0.01 6.83 5.31 8.95
8/2/2022 12:45:00 AM 15.93 60.674 0.01 6.83 5.33 8.96
8/2/2022 1:00:00 AM 15.88 60.584 0.01 6.82 5.41 8.96
8/2/2022 1:15:00 AM 15.85 60.53 0.01 6.84 5.35 8.98
8/2/2022 1:30:00 AM 15.82 60.476 0.01 6.82 5.35 8.98
8/2/2022 1:45:00 AM 15.8 60.44 0.009 6.84 5.35 8.99
8/2/2022 2:00:00 AM 15.78 60.404 0.009 6.83 5.37 8.99
8/2/2022 2:15:00 AM 15.76 60.368 0.009 6.82 5.29 9
8/2/2022 2:30:00 AM 15.72 60.296 0.009 6.83 5.34 9
8/2/2022 2:45:00 AM 15.71 60.278 0.009 6.84 5.33 9
8/2/2022 3:00:00 AM 15.7 60.26 0.01 6.8 5.33 9
8/2/2022 3:15:00 AM 15.66 60.188 0.01 6.81 5.29 9
8/2/2022 3:30:00 AM 15.64 60.152 0.01 6.81 5.29 9.02
8/2/2022 3:45:00 AM 15.61 60.098 0.009 6.83 5.44 9.01
8/2/2022 4:00:00 AM 15.58 60.044 0.009 6.83 5.27 9.03
8/2/2022 4:15:00 AM 15.56 60.008 0.009 6.81 5.26 9.03
8/2/2022 4:30:00 AM 15.54 59.972 0.009 6.81 5.25 9.04
8/2/2022 4:45:00 AM 15.51 59.918 0.009 6.82 5.25 9.04
8/2/2022 5:00:00 AM 15.5 59.9 0.009 6.83 5.19 9.04
8/2/2022 5:15:00 AM 15.49 59.882 0.008 6.82 5.29 9.05
8/2/2022 5:30:00 AM 15.47 59.846 0.009 6.8 5.22 9.05
8/2/2022 5:45:00 AM 15.45 59.81 0.01 6.81 5.24 9.06
8/2/2022 6:00:00 AM 15.43 59.774 0.01 6.83 5.28 9.07
8/2/2022 6:15:00 AM 15.4 59.72 0.011 6.8 5.23 9.09
8/2/2022 6:30:00 AM 15.38 59.684 0.011 6.81 5.32 9.11
8/2/2022 6:45:00 AM 15.35 59.63 0.012 6.81 5.3 9.14
8/2/2022 7:00:00 AM 15.34 59.612 0.013 6.84 5.3 9.17
8/2/2022 7:15:00 AM 15.33 59.594 0.013 6.81 5.28 9.2
8/2/2022 7:30:00 AM 15.32 59.576 0.014 6.83 5.23 9.22
8/2/2022 7:45:00 AM 15.32 59.576 0.014 6.83 5.23 9.25
8/2/2022 8:00:00 AM 15.32 59.576 0.015 6.85 5.2 9.28
8/2/2022 8:15:00 AM 15.33 59.594 0.015 6.83 5.25 9.28
8/2/2022 8:30:00 AM 15.35 59.63 0.016 6.84 5.25 9.3
8/2/2022 8:45:00 AM 15.4 59.72 0.017 6.87 5.16 9.33
8/2/2022 9:00:00 AM 15.56 60.008 0.017 6.87 5.13 9.39
8/2/2022 9:15:00 AM 15.59 60.062 0.018 6.88 5.12 9.44
8/2/2022 9:30:00 AM 15.59 60.062 0.018 6.87 5.18 9.41
8/2/2022 9:45:00 AM 15.8 60.44 0.018 6.91 5.15 9.47
8/2/2022 10:00:00 AM 15.83 60.494 0.018 6.89 5.13 9.4
8/2/2022 10:15:00 AM 15.96 60.728 0.018 6.91 5.15 9.42
8/2/2022 10:30:00 AM 15.98 60.764 0.019 6.92 5.13 9.4
8/2/2022 10:45:00 AM 16.14 61.052 0.019 6.93 5.09 9.45
8/2/2022 11:00:00 AM 16.26 61.268 0.019 6.94 5.09 9.45
8/2/2022 11:15:00 AM 16.4 61.52 0.017 6.95 5.05 9.44
8/2/2022 11:30:00 AM 16.58 61.844 0.018 6.96 5.01 9.46
8/2/2022 11:45:00 AM 16.62 61.916 0.018 6.98 5.09 9.42
8/2/2022 12:00:00 PM 17.03 62.654 0.015 6.99 4.93 9.41
8/2/2022 12:15:00 PM 17.26 63.068 0.012 6.99 4.92 9.37
8/2/2022 12:30:00 PM 17.04 62.672 0.015 6.97 5.04 9.4
8/2/2022 12:45:00 PM 16.99 62.582 0.017 6.98 5.02 9.39
8/2/2022 1:00:00 PM 17.02 62.636 0.016 6.99 4.99 9.34
8/2/2022 1:15:00 PM 17.44 63.392 0.015 6.97 4.94 9.4
8/2/2022 1:30:00 PM 17.89 64.202 0.013 7.01 4.92 9.36
8/2/2022 1:45:00 PM 18.3 64.94 0.012 7 4.81 9.31
8/2/2022 2:00:00 PM 17.65 63.77 0.015 7 4.89 9.29
8/2/2022 2:15:00 PM 18.16 64.688 0.015 7.01 4.91 9.39
8/2/2022 2:30:00 PM 17.92 64.256 0.015 6.99 4.95 9.24
8/2/2022 2:45:00 PM 18.39 65.102 0.015 7.02 4.91 9.34
8/2/2022 3:00:00 PM 18.27 64.886 0.016 7 4.99 9.29
8/2/2022 3:15:00 PM 18.15 64.67 0.015 6.98 5 9.27
8/2/2022 3:30:00 PM 17.8 64.04 0.015 6.99 4.96 9.12
8/2/2022 3:45:00 PM 17.95 64.31 0.014 6.99 5 9.21
8/2/2022 4:00:00 PM 17.97 64.346 0.013 6.97 5.02 9.17
8/2/2022 4:15:00 PM 17.92 64.256 0.011 6.99 5.24 9.15
8/2/2022 4:30:00 PM 17.85 64.13 0.011 7 5.09 9.14
8/2/2022 4:45:00 PM 17.68 63.824 0.01 6.98 5.12 9.09
8/2/2022 5:00:00 PM 17.49 63.482 0.009 6.97 5.06 9.01
8/2/2022 5:15:00 PM 17.4 63.32 0.008 6.96 5.07 8.96
8/2/2022 5:30:00 PM 17.4 63.32 0.005 6.94 5.05 8.93
8/2/2022 5:45:00 PM 17.34 63.212 0.004 6.95 5.07 8.91
8/2/2022 6:00:00 PM 17.31 63.158 0.004 6.93 5.22 8.87
8/2/2022 6:15:00 PM 17.27 63.086 0.004 6.93 5.25 8.87
8/2/2022 6:30:00 PM 17.23 63.014 0.003 6.9 5.12 8.87
8/2/2022 6:45:00 PM 17.2 62.96 0.003 6.91 5.07 8.88
8/2/2022 7:00:00 PM 17.14 62.852 0.003 6.92 5.07 8.86
8/2/2022 7:15:00 PM 17.12 62.816 0.003 6.88 5.11 8.84
8/2/2022 7:30:00 PM 17.08 62.744 0.003 6.89 5.15 8.82
8/2/2022 7:45:00 PM 17 62.6 0.002 6.88 5.14 8.82
8/2/2022 8:00:00 PM 16.93 62.474 0.002 6.88 5.09 8.83
8/2/2022 8:15:00 PM 16.86 62.348 0.002 6.87 5.13 8.84
8/2/2022 8:30:00 PM 16.79 62.222 0.002 6.87 5.11 8.83
8/2/2022 8:45:00 PM 16.73 62.114 0.002 6.86 5.1 8.82
8/2/2022 9:00:00 PM 16.67 62.006 0.002 6.85 5.14 8.82
8/2/2022 9:15:00 PM 16.6 61.88 0.002 6.86 5.15 8.83
8/2/2022 9:30:00 PM 16.54 61.772 0.002 6.85 5.17 8.85
8/2/2022 9:45:00 PM 16.47 61.646 0.002 6.84 5.14 8.87
8/2/2022 10:00:00 PM 16.41 61.538 0.001 6.86 5.22 8.86
8/2/2022 10:15:00 PM 16.34 61.412 0.001 6.86 5.16 8.87
8/2/2022 10:30:00 PM 16.28 61.304 0.001 6.82 5.2 8.92
8/2/2022 10:45:00 PM 16.21 61.178 0.001 6.84 5.16 8.94
8/2/2022 11:00:00 PM 16.14 61.052 0.001 6.84 5.29 8.94
8/2/2022 11:15:00 PM 16.07 60.926 0.001 6.85 5.21 8.96
8/2/2022 11:30:00 PM 16.01 60.818 0.001 6.85 5.19 8.98
8/2/2022 11:45:00 PM 15.94 60.692 0.001 6.84 5.23 8.99
8/3/2022 12:00:00 AM 15.87 60.566 0.001 6.84 5.28 9
8/3/2022 12:15:00 AM 15.8 60.44 0.001 6.85 5.26 9.01
8/3/2022 12:30:00 AM 15.75 60.35 0.001 6.81 5.29 9.03
8/3/2022 12:45:00 AM 15.68 60.224 0.001 6.83 5.35 9.07
8/3/2022 1:00:00 AM 15.62 60.116 0.001 6.83 5.31 9.07
8/3/2022 1:15:00 AM 15.57 60.026 0.001 6.83 5.3 9.06
8/3/2022 1:30:00 AM 15.5 59.9 0 6.84 5.3 9.09
8/3/2022 1:45:00 AM 15.43 59.774 0.001 6.83 5.29 9.13
8/3/2022 2:00:00 AM 15.37 59.666 0 6.83 5.29 9.15
8/3/2022 2:15:00 AM 15.3 59.54 0 6.84 5.29 9.15
8/3/2022 2:30:00 AM 15.25 59.45 0 6.8 5.21 9.16
8/3/2022 2:45:00 AM 15.19 59.342 0 6.83 5.32 9.18
8/3/2022 3:00:00 AM 15.09 59.162 0.001 6.82 5.34 9.2
8/3/2022 3:15:00 AM 15.08 59.144 0.001 6.83 5.31 9.19
8/3/2022 3:30:00 AM 15.04 59.072 0.001 6.83 5.3 9.2
8/3/2022 3:45:00 AM 14.96 58.928 0.001 6.81 5.31 9.22
8/3/2022 4:00:00 AM 14.93 58.874 0.001 6.83 5.28 9.23
8/3/2022 4:15:00 AM 14.87 58.766 0.001 6.83 5.31 9.25
8/3/2022 4:30:00 AM 14.8 58.64 0.001 6.8 5.27 9.28
8/3/2022 4:45:00 AM 14.76 58.568 0.001 6.82 5.27 9.28
8/3/2022 5:00:00 AM 14.72 58.496 0.001 6.82 5.24 9.29
8/3/2022 5:15:00 AM 14.67 58.406 0.001 6.82 5.23 9.31
8/3/2022 5:30:00 AM 14.64 58.352 0.001 6.83 5.2 9.32
8/3/2022 5:45:00 AM 14.57 58.226 0.001 6.81 5.19 9.34
8/3/2022 6:00:00 AM 14.54 58.172 0.001 6.83 5.26 9.35
8/3/2022 6:15:00 AM 14.51 58.118 0.001 6.83 5.17 9.37
8/3/2022 6:30:00 AM 14.46 58.028 0.001 6.8 5.19 9.39
8/3/2022 6:45:00 AM 14.42 57.956 0.001 6.81 5.26 9.44
8/3/2022 7:00:00 AM 14.43 57.974 0.001 6.82 5.25 9.45
8/3/2022 7:15:00 AM 14.41 57.938 0.002 6.83 5.28 9.47
8/3/2022 7:30:00 AM 14.39 57.902 0.002 6.84 5.3 9.5
8/3/2022 7:45:00 AM 14.38 57.884 0.002 6.83 5.24 9.52
8/3/2022 8:00:00 AM 14.39 57.902 0.002 6.86 5.27 9.55
8/3/2022 8:15:00 AM 14.4 57.92 0.002 6.86 5.25 9.56
8/3/2022 8:30:00 AM 14.43 57.974 0.002 6.85 5.28 9.57
8/3/2022 8:45:00 AM 14.47 58.046 0.003 6.84 5.22 9.59
8/3/2022 9:00:00 AM 14.52 58.136 0.003 6.85 5.26 9.59
8/3/2022 9:15:00 AM 14.58 58.244 0.003 6.85 5.22 9.61
8/3/2022 9:30:00 AM 14.65 58.37 0.003 6.87 5.2 9.62
8/3/2022 9:45:00 AM 14.73 58.514 0.003 6.87 5.15 9.63
8/3/2022 10:00:00 AM 14.81 58.658 0.004 6.87 5.17 9.64
8/3/2022 10:15:00 AM 14.93 58.874 0.004 6.87 5.21 9.64
8/3/2022 10:30:00 AM 15.04 59.072 0.004 6.9 5.17 9.65
8/3/2022 10:45:00 AM 15.16 59.288 0.004 6.89 5.18 9.63
8/3/2022 11:00:00 AM 15.27 59.486 0.004 6.9 5.15 9.62
8/3/2022 11:15:00 AM 15.48 59.864 0.003 6.92 5.04 9.59
8/3/2022 11:30:00 AM 16.01 60.818 0.002 6.93 4.96 9.5
8/3/2022 11:45:00 AM 16.37 61.466 0.002 6.94 4.93 9.43
8/3/2022 12:00:00 PM 16.64 61.952 0.002 6.96 4.92 9.41
8/3/2022 12:15:00 PM 16.92 62.456 0.002 6.95 4.9 9.41
8/3/2022 12:30:00 PM 17.34 63.212 0.001 6.97 4.97 9.35
8/3/2022 12:45:00 PM 17.54 63.572 0.001 6.98 4.89 9.37
8/3/2022 1:00:00 PM 17.88 64.184 0.001 6.98 4.9 9.35
8/3/2022 1:15:00 PM 18.29 64.922 0.001 6.99 4.97 9.31
8/3/2022 1:30:00 PM 18.51 65.318 0.001 7 4.93 9.32
8/3/2022 1:45:00 PM 18.74 65.732 0.001 7.01 4.93 9.32
8/3/2022 2:00:00 PM 18.86 65.948 0.002 7 4.93 9.37
8/3/2022 2:15:00 PM 18.91 66.038 0.002 7.03 4.95 9.37
8/3/2022 2:30:00 PM 18.87 65.966 0.002 7.03 5.02 9.35
8/3/2022 2:45:00 PM 18.77 65.786 0.002 7.03 5.02 9.32
8/3/2022 3:00:00 PM 18.66 65.588 0.002 6.99 5.05 9.29
8/3/2022 3:15:00 PM 18.5 65.3 0.002 7.02 5.06 9.25
8/3/2022 3:30:00 PM 18.32 64.976 0.002 7.01 5.06 9.22
8/3/2022 3:45:00 PM 18.19 64.742 0.002 7 5.06 9.2
8/3/2022 4:00:00 PM 18.03 64.454 0.002 6.99 5.1 9.17
8/3/2022 4:15:00 PM 17.88 64.184 0.001 6.98 5.07 9.16
8/3/2022 4:30:00 PM 17.8 64.04 0.001 6.99 5.09 9.16
8/3/2022 4:45:00 PM 17.63 63.734 0.001 6.99 5.05 9.09
8/3/2022 5:00:00 PM 17.41 63.338 0.001 6.96 5.11 9.04
8/3/2022 5:15:00 PM 17.34 63.212 0.001 6.95 5.05 9
8/3/2022 5:30:00 PM 17.29 63.122 0.001 6.93 5.06 9
8/3/2022 5:45:00 PM 17.24 63.032 0.001 6.92 5.11 8.98
8/3/2022 6:00:00 PM 17.2 62.96 0.001 6.92 5.11 8.96
8/3/2022 6:15:00 PM 17.16 62.888 0.001 6.92 5.1 8.94
8/3/2022 6:30:00 PM 17.11 62.798 0.001 6.89 5.14 8.99
8/3/2022 6:45:00 PM 17.08 62.744 0.001 6.91 5.11 8.92
8/3/2022 7:00:00 PM 17.03 62.654 0.001 6.86 5.12 8.91
8/3/2022 7:15:00 PM 16.96 62.528 0.001 6.87 5.12 8.9
8/3/2022 7:30:00 PM 16.91 62.438 0 6.88 5.15 8.9
8/3/2022 7:45:00 PM 16.85 62.33 0 6.85 5.16 8.87
8/3/2022 8:00:00 PM 16.8 62.24 0 6.84 5.17 8.86
8/3/2022 8:15:00 PM 16.74 62.132 0 6.84 5.15 8.86
8/3/2022 8:30:00 PM 16.67 62.006 0 6.83 5.2 8.85
8/3/2022 8:45:00 PM 16.62 61.916 0 6.84 5.22 8.85
8/3/2022 9:00:00 PM 16.56 61.808 0 6.84 5.22 8.84
8/3/2022 9:15:00 PM 16.5 61.7 0 6.83 5.18 8.85
8/3/2022 9:30:00 PM 16.45 61.61 0 6.83 5.25 8.86
8/3/2022 9:45:00 PM 16.39 61.502 0 6.83 5.21 8.88
8/3/2022 10:00:00 PM 16.34 61.412 0 6.82 5.23 8.89
8/3/2022 10:15:00 PM 16.29 61.322 0 6.84 5.2 8.91
8/3/2022 10:30:00 PM 16.24 61.232 0 6.83 5.21 8.91
8/3/2022 10:45:00 PM 16.19 61.142 0 6.81 5.3 8.92
8/3/2022 11:00:00 PM 16.15 61.07 0 6.82 5.17 8.93
8/3/2022 11:15:00 PM 16.11 60.998 0 6.83 5.17 8.95
8/3/2022 11:30:00 PM 16.06 60.908 0 6.83 5.22 8.95
8/3/2022 11:45:00 PM 16.01 60.818 0 6.8 5.17 8.97
8/4/2022 12:00:00 AM 15.96 60.728 0 6.83 5.21 8.96
8/4/2022 12:15:00 AM 15.92 60.656 0 6.79 5.18 8.97
8/4/2022 12:30:00 AM 15.87 60.566 0 6.83 5.16 8.99
8/4/2022 12:45:00 AM 15.84 60.512 0 6.81 5.23 9
8/4/2022 1:00:00 AM 15.79 60.422 0 6.83 5.15 9.02
8/4/2022 1:15:00 AM 15.76 60.368 0 6.78 5.17 9.03
8/4/2022 1:30:00 AM 15.72 60.296 0 6.81 5.19 9.03
8/4/2022 1:45:00 AM 15.69 60.242 0 6.82 5.2 9.04
8/4/2022 2:00:00 AM 15.66 60.188 0 6.79 5.19 9.05
8/4/2022 2:15:00 AM 15.62 60.116 0 6.8 5.23 9.06
8/4/2022 2:30:00 AM 15.59 60.062 0 6.8 5.18 9.06
8/4/2022 2:45:00 AM 15.56 60.008 0 6.81 5.17 9.06
8/4/2022 3:00:00 AM 15.53 59.954 0 6.82 5.2 9.07
8/4/2022 3:15:00 AM 15.5 59.9 0 6.82 5.18 9.09
8/4/2022 3:30:00 AM 15.46 59.828 0 6.79 5.19 9.1
8/4/2022 3:45:00 AM 15.44 59.792 0 6.82 5.18 9.09
8/4/2022 4:00:00 AM 15.41 59.738 0 6.8 5.21 9.11
8/4/2022 4:15:00 AM 15.38 59.684 0 6.82 5.2 9.11
8/4/2022 4:30:00 AM 15.36 59.648 0 6.8 5.22 9.12
8/4/2022 4:45:00 AM 15.33 59.594 0 6.81 5.19 9.14
8/4/2022 5:00:00 AM 15.3 59.54 0 6.8 5.23 9.14
8/4/2022 5:15:00 AM 15.28 59.504 0 6.81 5.28 9.15
8/4/2022 5:30:00 AM 15.26 59.468 0 6.79 5.31 9.15
8/4/2022 5:45:00 AM 15.23 59.414 0 6.8 5.21 9.16
8/4/2022 6:00:00 AM 15.21 59.378 0 6.8 5.23 9.17
8/4/2022 6:15:00 AM 15.2 59.36 0 6.8 5.2 9.19
8/4/2022 6:30:00 AM 15.19 59.342 0 6.8 5.24 9.21
8/4/2022 6:45:00 AM 15.17 59.306 0.001 6.81 5.17 9.23
8/4/2022 7:00:00 AM 15.16 59.288 0.001 6.81 5.2 9.26
8/4/2022 7:15:00 AM 15.14 59.252 0.001 6.81 5.18 9.29
8/4/2022 7:30:00 AM 15.14 59.252 0.001 6.81 5.16 9.32
8/4/2022 7:45:00 AM 15.14 59.252 0.001 6.82 5.16 9.35
8/4/2022 8:00:00 AM 15.15 59.27 0.001 6.82 5.16 9.37
8/4/2022 8:15:00 AM 15.17 59.306 0.001 6.83 5.15 9.39
8/4/2022 8:30:00 AM 15.2 59.36 0.001 6.84 5.15 9.42
8/4/2022 8:45:00 AM 15.23 59.414 0.001 6.83 5.17 9.42
8/4/2022 9:00:00 AM 15.27 59.486 0.001 6.82 5.17 9.44
8/4/2022 9:15:00 AM 15.31 59.558 0.002 6.82 5.15 9.44
8/4/2022 9:30:00 AM 15.38 59.684 0.002 6.83 5.17 9.44
8/4/2022 9:45:00 AM 15.47 59.846 0.002 6.84 5.18 9.44
8/4/2022 10:00:00 AM 15.58 60.044 0.002 6.85 5.15 9.45
8/4/2022 10:15:00 AM 15.7 60.26 0.002 6.86 5.09 9.46
8/4/2022 10:30:00 AM 15.86 60.548 0.002 6.87 5.11 9.44
8/4/2022 10:45:00 AM 15.95 60.71 0.002 6.89 5.08 9.44
8/4/2022 11:00:00 AM 16.13 61.034 0.002 6.92 5.03 9.44
8/4/2022 11:15:00 AM 16.48 61.664 0.001 6.91 4.97 9.39
8/4/2022 11:30:00 AM 17.08 62.744 0.001 6.93 4.87 9.3
8/4/2022 11:45:00 AM 17.34 63.212 0.001 6.93 4.8 9.29
8/4/2022 12:00:00 PM 17.84 64.112 0.001 6.96 4.85 9.21
8/4/2022 12:15:00 PM 18.19 64.742 0.001 6.95 4.82 9.19
8/4/2022 12:30:00 PM 18.36 65.048 0.001 6.97 4.9 9.25
8/4/2022 12:45:00 PM 18.74 65.732 0.001 6.99 4.86 9.23
8/4/2022 1:00:00 PM 17.86 64.148 0.001 6.97 4.99 9.23
8/4/2022 1:15:00 PM 17.51 63.518 0.002 6.94 5.03 9.26
8/4/2022 1:30:00 PM 18.11 64.598 0.001 6.97 4.92 9.24
8/4/2022 1:45:00 PM 18.28 64.904 0.001 6.97 4.96 9.18
8/4/2022 2:00:00 PM 18.18 64.724 0.013 6.96 15.65 9.22
8/4/2022 2:15:00 PM 17.68 63.824 0.026 6.95 5.61 9.11
8/4/2022 2:30:00 PM 17.4 63.32 0.028 6.9 5.67 8.99
8/4/2022 2:45:00 PM 17.21 62.978 0.023 6.88 5.55 8.95
8/4/2022 3:00:00 PM 17.15 62.87 0.023 6.89 5.45 8.98
8/4/2022 3:15:00 PM 17.1 62.78 0.019 6.86 5.34 8.98
8/4/2022 3:30:00 PM 17.06 62.708 0.015 6.88 5.26 9.06
8/4/2022 3:45:00 PM 17 62.6 0.013 6.89 5.23 9.1
8/4/2022 4:00:00 PM 16.97 62.546 0.011 6.9 5.2 9.17
8/4/2022 4:15:00 PM 16.92 62.456 0.009 6.89 5.2 9.17
8/4/2022 4:30:00 PM 16.94 62.492 0.008 6.9 5.15 9.24
8/4/2022 4:45:00 PM 16.97 62.546 0.006 6.92 5.19 9.29
8/4/2022 5:00:00 PM 16.95 62.51 0.005 6.9 5.14 9.28
8/4/2022 5:15:00 PM 16.95 62.51 0.005 6.92 5.15 9.3
8/4/2022 5:30:00 PM 16.93 62.474 0.004 6.93 5.11 9.3
8/4/2022 5:45:00 PM 16.93 62.474 0.004 6.9 5.11 9.28
8/4/2022 6:00:00 PM 16.95 62.51 0.004 6.93 5.11 9.24
8/4/2022 6:15:00 PM 16.91 62.438 0.003 6.91 5.11 9.19
8/4/2022 6:30:00 PM 16.84 62.312 0.002 6.91 5.16 9.15
8/4/2022 6:45:00 PM 16.79 62.222 0.002 6.87 5.1 9.14
8/4/2022 7:00:00 PM 16.75 62.15 0.002 6.89 5.1 9.11
8/4/2022 7:15:00 PM 16.74 62.132 0.002 6.88 5.13 9.07
8/4/2022 7:30:00 PM 16.67 62.006 0.002 6.87 5.14 9.06
8/4/2022 7:45:00 PM 16.64 61.952 0.002 6.86 5.15 9.02
8/4/2022 8:00:00 PM 16.61 61.898 0.002 6.84 5.14 8.98
8/4/2022 8:15:00 PM 16.57 61.826 0.003 6.86 5.16 8.94
8/4/2022 8:30:00 PM 16.5 61.7 0.002 6.83 5.18 8.92
8/4/2022 8:45:00 PM 16.45 61.61 0.001 6.81 5.15 8.91
8/4/2022 9:00:00 PM 16.39 61.502 0.001 6.79 5.2 8.9
8/4/2022 9:15:00 PM 16.35 61.43 0.001 6.78 5.27 8.91
8/4/2022 9:30:00 PM 16.31 61.358 0.001 6.78 5.17 8.91
8/4/2022 9:45:00 PM 16.28 61.304 0.001 6.77 5.21 8.91
8/4/2022 10:00:00 PM 16.26 61.268 0.001 6.78 5.24 8.92
8/4/2022 10:15:00 PM 16.21 61.178 0.001 6.78 5.21 8.93
8/4/2022 10:30:00 PM 16.17 61.106 0.001 6.77 5.17 8.95
8/4/2022 10:45:00 PM 16.14 61.052 0.001 6.78 5.22 8.96
8/4/2022 11:00:00 PM 16.11 60.998 0 6.74 5.19 8.96
8/4/2022 11:15:00 PM 16.08 60.944 0 6.76 5.17 8.98
8/4/2022 11:30:00 PM 16.05 60.89 0 6.78 5.17 8.99
8/4/2022 11:45:00 PM 16.04 60.872 0 6.73 5.19 8.99
8/5/2022 12:00:00 AM 16.02 60.836 0 6.76 5.2 8.99
8/5/2022 12:15:00 AM 16 60.8 0 6.77 5.19 9
8/5/2022 12:30:00 AM 15.97 60.746 0 6.74 5.19 9.01
8/5/2022 12:45:00 AM 15.95 60.71 0 6.77 5.18 9
8/5/2022 1:00:00 AM 15.93 60.674 0 6.77 5.18 9.01
8/5/2022 1:15:00 AM 15.91 60.638 0 6.74 5.19 9.01
8/5/2022 1:30:00 AM 15.89 60.602 0 6.75 5.22 9.02
8/5/2022 1:45:00 AM 15.88 60.584 0 6.74 5.23 9.02
8/5/2022 2:00:00 AM 15.85 60.53 0 6.74 5.25 9.06
8/5/2022 2:15:00 AM 15.82 60.476 0 6.74 5.22 9.1
8/5/2022 2:30:00 AM 15.81 60.458 0 6.74 5.23 9.07
8/5/2022 2:45:00 AM 15.8 60.44 0 6.74 5.23 9.06
8/5/2022 3:00:00 AM 15.78 60.404 0 6.76 5.28 9.09
8/5/2022 3:15:00 AM 15.75 60.35 0 6.76 5.21 9.11
8/5/2022 3:30:00 AM 15.74 60.332 0 6.72 5.23 9.12
8/5/2022 3:45:00 AM 15.73 60.314 0 6.74 5.24 9.07
8/5/2022 4:00:00 AM 15.72 60.296 0 6.74 5.18 9.09
8/5/2022 4:15:00 AM 15.69 60.242 0 6.74 5.18 9.08
8/5/2022 4:30:00 AM 15.66 60.188 0 6.74 5.23 9.12
8/5/2022 4:45:00 AM 15.64 60.152 0 6.73 5.27 9.1
8/5/2022 5:00:00 AM 15.63 60.134 0 6.75 5.24 9.12
8/5/2022 5:15:00 AM 15.6 60.08 0.001 6.76 5.22 9.1
8/5/2022 5:30:00 AM 15.58 60.044 0.001 6.76 5.27 9.1
8/5/2022 5:45:00 AM 15.57 60.026 0.001 6.76 5.25 9.11
8/5/2022 6:00:00 AM 15.56 60.008 0.001 6.77 5.27 9.13
8/5/2022 6:15:00 AM 15.54 59.972 0.001 6.77 5.3 9.13
8/5/2022 6:30:00 AM 15.53 59.954 0.001 6.73 5.24 9.16
8/5/2022 6:45:00 AM 15.52 59.936 0.001 6.76 5.24 9.18
8/5/2022 7:00:00 AM 15.51 59.918 0.001 6.77 5.25 9.22
8/5/2022 7:15:00 AM 15.51 59.918 0.001 6.77 5.26 9.25
8/5/2022 7:30:00 AM 15.51 59.918 0.001 6.77 5.24 9.27
8/5/2022 7:45:00 AM 15.53 59.954 0.001 6.79 5.25 9.34
8/5/2022 8:00:00 AM 15.52 59.936 0.002 6.78 5.22 9.32
8/5/2022 8:15:00 AM 15.54 59.972 0.002 6.79 5.23 9.4
8/5/2022 8:30:00 AM 15.59 60.062 0.002 6.8 5.21 9.46
8/5/2022 8:45:00 AM 15.65 60.17 0.002 6.81 5.24 9.51
8/5/2022 9:00:00 AM 15.69 60.242 0.002 6.82 5.19 9.55
8/5/2022 9:15:00 AM 15.74 60.332 0.002 6.82 5.21 9.56
8/5/2022 9:30:00 AM 15.85 60.53 0.002 6.86 5.2 9.61
8/5/2022 9:45:00 AM 15.92 60.656 0.002 6.84 5.19 9.63
8/5/2022 10:00:00 AM 16.01 60.818 0.004 6.89 5.21 9.64
8/5/2022 10:15:00 AM 16.09 60.962 0.004 6.9 5.19 9.63
8/5/2022 10:30:00 AM 16.17 61.106 0.004 6.91 5.21 9.64
8/5/2022 10:45:00 AM 16.18 61.124 0.004 6.89 5.17 9.62
8/5/2022 11:00:00 AM 16.16 61.088 0.005 6.91 5.2 9.6
8/5/2022 11:15:00 AM 16.15 61.07 0.003 6.89 5.2 9.58
8/5/2022 11:30:00 AM 16.16 61.088 0.005 6.9 5.23 9.59
8/5/2022 11:45:00 AM 16.23 61.214 0.005 6.91 5.22 9.56
8/5/2022 12:00:00 PM 16.24 61.232 0.005 6.93 5.22 9.59
8/5/2022 12:15:00 PM 16.26 61.268 0.005 6.92 5.2 9.62
8/5/2022 12:30:00 PM 16.31 61.358 0.005 6.93 5.25 9.64
8/5/2022 12:45:00 PM 16.37 61.466 0.005 6.93 5.22 9.63
8/5/2022 1:00:00 PM 16.45 61.61 0.004 6.95 5.19 9.63
8/5/2022 1:15:00 PM 16.5 61.7 0.005 6.91 5.2 9.61
8/5/2022 1:30:00 PM 16.55 61.79 0.005 6.95 5.18 9.58
8/5/2022 1:45:00 PM 16.99 62.582 0.005 6.95 5.18 9.62
8/5/2022 2:00:00 PM 17.5 63.5 0.005 6.97 5.12 9.62
8/5/2022 2:15:00 PM 18.05 64.49 0.005 6.96 5.14 9.58
8/5/2022 2:30:00 PM 18.23 64.814 0.003 6.99 5.13 9.53
8/5/2022 2:45:00 PM 18.31 64.958 0.005 6.99 5.15 9.49
8/5/2022 3:00:00 PM 18.28 64.904 0.005 6.99 5.11 9.43
8/5/2022 3:15:00 PM 18.18 64.724 0.004 6.98 5.18 9.39
8/5/2022 3:30:00 PM 18.03 64.454 0.005 6.99 5.15 9.37
8/5/2022 3:45:00 PM 18.09 64.562 0.003 6.96 5.15 9.31
8/5/2022 4:00:00 PM 17.96 64.328 0.003 6.98 5.16 9.26
8/5/2022 4:15:00 PM 17.84 64.112 0.003 6.97 5.16 9.24
8/5/2022 4:30:00 PM 17.83 64.094 0.003 6.96 5.18 9.23
8/5/2022 4:45:00 PM 17.75 63.95 0.002 6.97 5.14 9.14
8/5/2022 5:00:00 PM 17.49 63.482 0.002 6.93 5.2 9.11
8/5/2022 5:15:00 PM 17.44 63.392 0.002 6.91 5.21 9.08
8/5/2022 5:30:00 PM 17.4 63.32 0.002 6.92 5.16 9.05
8/5/2022 5:45:00 PM 17.35 63.23 0.002 6.91 5.21 9.09
8/5/2022 6:00:00 PM 17.36 63.248 0.002 6.93 5.23 9.12
8/5/2022 6:15:00 PM 17.29 63.122 0.002 6.92 5.23 9.07
8/5/2022 6:30:00 PM 17.35 63.23 0.001 6.91 5.18 9.04
8/5/2022 6:45:00 PM 17.27 63.086 0.001 6.88 5.27 8.94
8/5/2022 7:00:00 PM 17.38 63.284 0.001 6.87 5.22 8.86
8/5/2022 7:15:00 PM 17.84 64.112 0.029 6.89 6.92 9.08
8/5/2022 7:30:00 PM 17.89 64.202 0.03 6.74 13.26 8.9
8/5/2022 7:45:00 PM 18.06 64.508 0.029 6.67 14.89 8.77
8/5/2022 8:00:00 PM 18.22 64.796 0.029 6.7 12.36 8.73
8/5/2022 8:15:00 PM 18.15 64.67 0.03 6.65 11.39 8.72
8/5/2022 8:30:00 PM 18.05 64.49 0.031 6.71 10.57 8.75
8/5/2022 8:45:00 PM 17.97 64.346 0.032 6.69 15.37 8.79
8/5/2022 9:00:00 PM 17.91 64.238 0.032 6.77 14.28 8.82
8/5/2022 9:15:00 PM 17.76 63.968 0.034 6.73 14.05 8.83
8/5/2022 9:30:00 PM 17.63 63.734 0.035 6.77 14.94 8.83
8/5/2022 9:45:00 PM 17.52 63.536 0.036 6.75 14.91 8.83
8/5/2022 10:00:00 PM 17.46 63.428 0.036 6.77 14.09 8.84
8/5/2022 10:15:00 PM 17.4 63.32 0.036 6.71 12.65 8.85
8/5/2022 10:30:00 PM 17.34 63.212 0.036 6.75 11.21 8.87
8/5/2022 10:45:00 PM 17.26 63.068 0.037 6.8 10.02 8.89
8/5/2022 11:00:00 PM 17.17 62.906 0.037 6.79 9.27 8.92
8/5/2022 11:15:00 PM 17.07 62.726 0.037 6.8 8.73 8.94
8/5/2022 11:30:00 PM 16.98 62.564 0.038 6.75 8.41 8.97
8/5/2022 11:45:00 PM 16.9 62.42 0.038 6.8 8.2 9
8/6/2022 12:00:00 AM 16.82 62.276 0.038 6.8 8.05 9.01
8/6/2022 12:15:00 AM 16.75 62.15 0.038 6.77 7.95 9.03
8/6/2022 12:30:00 AM 16.7 62.06 0.038 6.82 7.74 9.05
8/6/2022 12:45:00 AM 16.64 61.952 0.038 6.81 7.46 9.06
8/6/2022 1:00:00 AM 16.59 61.862 0.038 6.83 7.35 9.07
8/6/2022 1:15:00 AM 16.56 61.808 0.038 6.85 7.25 9.08
8/6/2022 1:30:00 AM 16.52 61.736 0.038 6.85 7.13 9.08
8/6/2022 1:45:00 AM 16.48 61.664 0.038 6.8 7.04 9.09
8/6/2022 2:00:00 AM 16.44 61.592 0.038 6.79 7.02 9.09
8/6/2022 2:15:00 AM 16.42 61.556 0.038 6.8 6.93 9.09
8/6/2022 2:30:00 AM 16.39 61.502 0.038 6.8 6.92 9.09
8/6/2022 2:45:00 AM 16.36 61.448 0.038 6.79 6.94 9.09
8/6/2022 3:00:00 AM 16.33 61.394 0.038 6.78 6.87 9.09
8/6/2022 3:15:00 AM 16.3 61.34 0.038 6.78 6.81 9.09
8/6/2022 3:30:00 AM 16.29 61.322 0.038 6.8 6.81 9.1
8/6/2022 3:45:00 AM 16.27 61.286 0.038 6.78 6.75 9.1
8/6/2022 4:00:00 AM 16.25 61.25 0.038 6.8 6.74 9.1
8/6/2022 4:15:00 AM 16.23 61.214 0.038 6.81 6.67 9.11
8/6/2022 4:30:00 AM 16.2 61.16 0.038 6.8 6.75 9.11
8/6/2022 4:45:00 AM 16.18 61.124 0.038 6.82 6.6 9.12
8/6/2022 5:00:00 AM 16.16 61.088 0.038 6.82 6.68 9.12
8/6/2022 5:15:00 AM 16.16 61.088 0.038 6.81 6.65 9.12
8/6/2022 5:30:00 AM 16.13 61.034 0.038 6.84 6.59 9.12
8/6/2022 5:45:00 AM 16.11 60.998 0.038 6.81 6.58 9.12
8/6/2022 6:00:00 AM 16.09 60.962 0.038 6.81 6.61 9.13
8/6/2022 6:15:00 AM 16.08 60.944 0.038 6.8 6.65 9.14
8/6/2022 6:30:00 AM 16.07 60.926 0.038 6.79 6.59 9.16
8/6/2022 6:45:00 AM 16.06 60.908 0.038 6.84 6.57 9.18
8/6/2022 7:00:00 AM 16.05 60.89 0.038 6.84 6.55 9.21
8/6/2022 7:15:00 AM 16.05 60.89 0.038 6.85 6.52 9.25
8/6/2022 7:30:00 AM 16.05 60.89 0.038 6.83 12.56 9.3
8/6/2022 7:45:00 AM 16.05 60.89 0.038 6.84 21.66 9.34
8/6/2022 8:00:00 AM 16.05 60.89 0.038 6.85 3.33 9.35
8/6/2022 8:15:00 AM 16.05 60.89 0.038 6.87 3.35 9.37
8/6/2022 8:30:00 AM 16.07 60.926 0.038 6.79 3.35 9.42
8/6/2022 8:45:00 AM 16.07 60.926 0.038 6.83 3.32 9.45
8/6/2022 9:00:00 AM 16.12 61.016 0.038 6.87 3.26 9.51
8/6/2022 9:15:00 AM 16.15 61.07 0.038 6.84 3.23 9.55
8/6/2022 9:30:00 AM 16.18 61.124 0.037 6.88 3.23 9.57
8/6/2022 9:45:00 AM 16.2 61.16 0.037 6.88 3.26 9.59
8/6/2022 10:00:00 AM 16.24 61.232 0.037 6.92 3.21 9.61
8/6/2022 10:15:00 AM 16.3 61.34 0.037 6.93 3.25 9.63
8/6/2022 10:30:00 AM 16.32 61.376 0.037 6.94 3.16 9.63
8/6/2022 10:45:00 AM 16.44 61.592 0.037 6.96 3.19 9.67
8/6/2022 11:00:00 AM 16.47 61.646 0.037 6.96 3.17 9.67
8/6/2022 11:15:00 AM 16.62 61.916 0.037 6.99 3.29 9.7
8/6/2022 11:30:00 AM 16.67 62.006 0.037 6.96 3.14 9.68
8/6/2022 11:45:00 AM 16.94 62.492 0.037 7 3.08 9.7
8/6/2022 12:00:00 PM 17.09 62.762 0.037 6.99 3.09 9.68
8/6/2022 12:15:00 PM 17.2 62.96 0.037 7 3.12 9.65
8/6/2022 12:30:00 PM 17.19 62.942 0.037 7 3.06 9.63
8/6/2022 12:45:00 PM 17.44 63.392 0.037 7 3.04 9.6
8/6/2022 1:00:00 PM 17.6 63.68 0.037 6.99 2.96 9.51
8/6/2022 1:15:00 PM 18 64.4 0.037 7.01 2.96 9.52
8/6/2022 1:30:00 PM 18.3 64.94 0.037 7.02 2.94 9.49
8/6/2022 1:45:00 PM 18.11 64.598 0.037 7.01 2.95 9.44
8/6/2022 2:00:00 PM 18.19 64.742 0.037 7.02 2.96 9.4
8/6/2022 2:15:00 PM 18.38 65.084 0.037 7.02 2.94 9.43
8/6/2022 2:30:00 PM 18.34 65.012 0.037 7.02 2.98 9.43
8/6/2022 2:45:00 PM 18.18 64.724 0.037 7 3.04 9.39
8/6/2022 3:00:00 PM 18.04 64.472 0.037 7.01 3 9.39
8/6/2022 3:15:00 PM 18.36 65.048 0.037 7.03 2.99 9.4
8/6/2022 3:30:00 PM 18.25 64.85 0.037 7.02 2.99 9.4
8/6/2022 3:45:00 PM 18.17 64.706 0.037 7.01 3.02 9.36
8/6/2022 4:00:00 PM 17.93 64.274 0.037 7 3 9.25
8/6/2022 4:15:00 PM 17.88 64.184 0.037 7 3 9.25
8/6/2022 4:30:00 PM 17.86 64.148 0.037 6.99 3 9.23
8/6/2022 4:45:00 PM 17.79 64.022 0.037 6.97 3.21 9.14
8/6/2022 5:00:00 PM 17.76 63.968 0.037 6.96 3.05 9.14
8/6/2022 5:15:00 PM 17.76 63.968 0.037 6.95 3.11 9.09
8/6/2022 5:30:00 PM 17.76 63.968 0.037 6.96 3.13 9.1
8/6/2022 5:45:00 PM 17.73 63.914 0.037 6.96 3.05 9.19
8/6/2022 6:00:00 PM 17.74 63.932 0.037 6.96 3.11 9.21
8/6/2022 6:15:00 PM 17.71 63.878 0.037 6.95 3.04 9.2
8/6/2022 6:30:00 PM 17.65 63.77 0.037 6.96 3.04 9.19
8/6/2022 6:45:00 PM 17.6 63.68 0.037 6.95 3.04 9.15
8/6/2022 7:00:00 PM 17.56 63.608 0.037 6.95 3.07 9.11
8/6/2022 7:15:00 PM 17.48 63.464 0.037 6.89 3.08 9.05
8/6/2022 7:30:00 PM 17.41 63.338 0.037 6.91 3.1 8.99
8/6/2022 7:45:00 PM 17.34 63.212 0.037 6.87 3.08 8.94
8/6/2022 8:00:00 PM 17.27 63.086 0.037 6.84 3.03 8.93
8/6/2022 8:15:00 PM 17.2 62.96 0.037 6.84 3.13 8.9
8/6/2022 8:30:00 PM 17.14 62.852 0.037 6.84 3.09 8.89
8/6/2022 8:45:00 PM 17.1 62.78 0.037 6.81 3.08 8.88
8/6/2022 9:00:00 PM 17.05 62.69 0.037 6.82 3.22 8.88
8/6/2022 9:15:00 PM 17.36 63.248 0.035 6.86 4.11 8.99
8/6/2022 9:30:00 PM 17.17 62.906 0.036 6.83 3.42 8.89
8/6/2022 9:45:00 PM 17.14 62.852 0.036 6.8 3.79 8.82
8/6/2022 10:00:00 PM 17.1 62.78 0.036 6.79 3.53 8.8
8/6/2022 10:15:00 PM 17.07 62.726 0.036 6.78 3.39 8.8
8/6/2022 10:30:00 PM 17.04 62.672 0.037 6.77 3.35 8.82
8/6/2022 10:45:00 PM 16.99 62.582 0.037 6.77 3.36 8.84
8/6/2022 11:00:00 PM 16.93 62.474 0.037 6.77 3.21 8.87
8/6/2022 11:15:00 PM 16.89 62.402 0.037 6.76 3.19 8.87
8/6/2022 11:30:00 PM 16.85 62.33 0.037 6.77 3.13 8.89
8/6/2022 11:45:00 PM 16.81 62.258 0.037 6.77 3.21 8.9
8/7/2022 12:00:00 AM 16.77 62.186 0.037 6.76 3.22 8.91
8/7/2022 12:15:00 AM 16.74 62.132 0.037 6.75 3.17 8.93
8/7/2022 12:30:00 AM 16.69 62.042 0.037 6.75 3.13 8.93
8/7/2022 12:45:00 AM 16.66 61.988 0.038 6.76 3.18 8.94
8/7/2022 1:00:00 AM 16.64 61.952 0.038 6.77 3.27 8.95
8/7/2022 1:15:00 AM 16.61 61.898 0.038 6.74 3.19 8.97
8/7/2022 1:30:00 AM 16.59 61.862 0.038 6.76 3.15 8.98
8/7/2022 1:45:00 AM 16.56 61.808 0.038 6.75 3.11 8.99
8/7/2022 2:00:00 AM 16.53 61.754 0.038 6.76 3.13 9
8/7/2022 2:15:00 AM 16.49 61.682 0.038 6.77 3.25 9.01
8/7/2022 2:30:00 AM 16.46 61.628 0.038 6.74 3.15 9.01
8/7/2022 2:45:00 AM 16.44 61.592 0.038 6.75 3.15 9.02
8/7/2022 3:00:00 AM 16.42 61.556 0.038 6.77 3.09 9.03
8/7/2022 3:15:00 AM 16.39 61.502 0.038 6.76 3.12 9.03
8/7/2022 3:30:00 AM 16.38 61.484 0.038 6.77 3.11 9.05
8/7/2022 3:45:00 AM 16.35 61.43 0.038 6.76 3.19 9.04
8/7/2022 4:00:00 AM 16.32 61.376 0.038 6.77 3.14 9.05
8/7/2022 4:15:00 AM 16.31 61.358 0.038 6.77 3.12 9.05
8/7/2022 4:30:00 AM 16.29 61.322 0.038 6.79 3.14 9.06
8/7/2022 4:45:00 AM 16.26 61.268 0.038 6.79 3.23 9.06
8/7/2022 5:00:00 AM 16.24 61.232 0.038 6.75 3.15 9.06
8/7/2022 5:15:00 AM 16.22 61.196 0.038 6.77 3.18 9.08
8/7/2022 5:30:00 AM 16.21 61.178 0.038 6.78 3.19 9.08
8/7/2022 5:45:00 AM 16.19 61.142 0.038 6.77 3.18 9.09
8/7/2022 6:00:00 AM 16.17 61.106 0.038 6.78 3.13 9.09
8/7/2022 6:15:00 AM 16.16 61.088 0.038 6.8 3.16 9.11
8/7/2022 6:30:00 AM 16.15 61.07 0.038 6.76 3.22 9.12
8/7/2022 6:45:00 AM 16.13 61.034 0.038 6.8 3.2 9.15
8/7/2022 7:00:00 AM 16.11 60.998 0.038 6.81 3.17 9.18
8/7/2022 7:15:00 AM 16.11 60.998 0.038 6.81 3.1 9.23
8/7/2022 7:30:00 AM 16.12 61.016 0.038 6.82 3.18 9.26
8/7/2022 7:45:00 AM 16.12 61.016 0.038 6.84 3.13 9.31
8/7/2022 8:00:00 AM 16.14 61.052 0.037 6.83 3.09 9.36
8/7/2022 8:15:00 AM 16.16 61.088 0.037 6.83 3.05 9.39
8/7/2022 8:30:00 AM 16.18 61.124 0.037 6.86 3.09 9.41
8/7/2022 8:45:00 AM 16.22 61.196 0.037 6.84 3.08 9.46
8/7/2022 9:00:00 AM 16.24 61.232 0.037 6.87 3.1 9.47
8/7/2022 9:15:00 AM 16.3 61.34 0.037 6.87 3.09 9.52
8/7/2022 9:30:00 AM 16.34 61.412 0.037 6.89 3.14 9.52
8/7/2022 9:45:00 AM 16.39 61.502 0.037 6.91 3.1 9.55
8/7/2022 10:00:00 AM 16.43 61.574 0.037 6.9 3.14 9.55
8/7/2022 10:15:00 AM 16.42 61.556 0.037 6.9 3.13 9.51
8/7/2022 10:30:00 AM 16.44 61.592 0.037 6.92 3.16 9.56
8/7/2022 10:45:00 AM 16.49 61.682 0.037 6.9 3.15 9.56
8/7/2022 11:00:00 AM 16.53 61.754 0.037 6.92 3.07 9.54
8/7/2022 11:15:00 AM 16.55 61.79 0.037 6.93 3.06 9.58
8/7/2022 11:30:00 AM 16.69 62.042 0.037 6.96 3.04 9.6
8/7/2022 11:45:00 AM 16.63 61.934 0.037 6.95 3.12 9.44
8/7/2022 12:00:00 PM 16.99 62.582 0.035 6.9 4.12 9.4
8/7/2022 12:15:00 PM 17.05 62.69 0.035 6.88 4.18 9.28
8/7/2022 12:30:00 PM 17.12 62.816 0.034 6.85 5.01 9.22
8/7/2022 12:45:00 PM 17.17 62.906 0.034 6.82 5.07 9.19
8/7/2022 1:00:00 PM 17.16 62.888 0.035 6.79 5.54 9.19
8/7/2022 1:15:00 PM 17.16 62.888 0.035 6.73 5.59 9.29
8/7/2022 1:30:00 PM 17.21 62.978 0.035 6.83 5.03 9.38
8/7/2022 1:45:00 PM 17.28 63.104 0.035 6.84 5.38 9.42
8/7/2022 2:00:00 PM 17.35 63.23 0.038 6.87 10.92 9.36
8/7/2022 2:15:00 PM 17.46 63.428 0.04 6.85 11.19 9.3
8/7/2022 2:30:00 PM 17.55 63.59 0.04 6.87 10.18 9.31
8/7/2022 2:45:00 PM 17.6 63.68 0.039 6.92 9.07 9.32
8/7/2022 3:00:00 PM 17.9 64.22 0.039 6.93 7.84 9.38
8/7/2022 3:15:00 PM 17.64 63.752 0.039 6.94 6.89 9.31
8/7/2022 3:30:00 PM 17.64 63.752 0.039 6.92 6.06 9.33
8/7/2022 3:45:00 PM 17.63 63.734 0.038 6.93 5.44 9.33
8/7/2022 4:00:00 PM 17.63 63.734 0.038 6.96 4.99 9.35
8/7/2022 4:15:00 PM 17.6 63.68 0.038 6.93 4.62 9.33
8/7/2022 4:30:00 PM 17.55 63.59 0.038 6.94 4.39 9.29
8/7/2022 4:45:00 PM 17.57 63.626 0.038 6.94 4.33 9.25
8/7/2022 5:00:00 PM 17.51 63.518 0.038 6.93 4.17 9.2
8/7/2022 5:15:00 PM 17.5 63.5 0.038 6.92 4.04 9.16
8/7/2022 5:30:00 PM 17.47 63.446 0.039 6.92 3.96 9.12
8/7/2022 5:45:00 PM 17.46 63.428 0.039 6.89 3.85 9.11
8/7/2022 6:00:00 PM 17.46 63.428 0.039 6.92 3.73 9.11
8/7/2022 6:15:00 PM 17.43 63.374 0.039 6.9 3.74 9.11
8/7/2022 6:30:00 PM 17.39 63.302 0.039 6.87 3.7 9.11
8/7/2022 6:45:00 PM 17.34 63.212 0.039 6.87 3.64 9.07
8/7/2022 7:00:00 PM 17.29 63.122 0.039 6.87 3.64 9.03
8/7/2022 7:15:00 PM 17.24 63.032 0.039 6.84 3.6 9
8/7/2022 7:30:00 PM 17.19 62.942 0.039 6.83 3.61 8.98
8/7/2022 7:45:00 PM 17.15 62.87 0.039 6.83 3.53 8.97
8/7/2022 8:00:00 PM 17.11 62.798 0.039 6.82 3.49 8.96
8/7/2022 8:15:00 PM 17.06 62.708 0.039 6.81 3.56 8.94
8/7/2022 8:30:00 PM 17.02 62.636 0.039 6.8 3.51 8.94
8/7/2022 8:45:00 PM 16.97 62.546 0.039 6.8 3.53 8.95
8/7/2022 9:00:00 PM 16.93 62.474 0.039 6.82 3.56 8.94
8/7/2022 9:15:00 PM 16.89 62.402 0.039 6.81 3.52 8.95
8/7/2022 9:30:00 PM 16.85 62.33 0.039 6.82 3.5 8.96
8/7/2022 9:45:00 PM 16.81 62.258 0.039 6.84 3.5 8.97
8/7/2022 10:00:00 PM 16.78 62.204 0.039 6.82 3.48 8.97
8/7/2022 10:15:00 PM 16.74 62.132 0.039 6.85 3.46 8.98
8/7/2022 10:30:00 PM 16.71 62.078 0.039 6.78 3.43 8.98
8/7/2022 10:45:00 PM 16.67 62.006 0.039 6.85 3.48 8.99
8/7/2022 11:00:00 PM 16.64 61.952 0.039 6.84 3.43 9
8/7/2022 11:15:00 PM 16.61 61.898 0.039 6.84 3.45 9
8/7/2022 11:30:00 PM 16.58 61.844 0.039 6.85 3.41 9
8/7/2022 11:45:00 PM 16.55 61.79 0.039 6.78 3.44 9.01
8/8/2022 12:00:00 AM 16.52 61.736 0.039 6.85 3.37 9.01
8/8/2022 12:15:00 AM 16.49 61.682 0.039 6.81 3.4 9.01
8/8/2022 12:30:00 AM 16.46 61.628 0.039 6.85 3.4 9.02
8/8/2022 12:45:00 AM 16.43 61.574 0.039 6.85 3.41 9.03
8/8/2022 1:00:00 AM 16.41 61.538 0.039 6.83 3.42 9.03
8/8/2022 1:15:00 AM 16.39 61.502 0.039 6.85 3.4 9.04
8/8/2022 1:30:00 AM 16.36 61.448 0.039 6.85 3.35 9.05
8/8/2022 1:45:00 AM 16.34 61.412 0.039 6.77 3.48 9.05
8/8/2022 2:00:00 AM 16.31 61.358 0.039 6.82 3.4 9.05
8/8/2022 2:15:00 AM 16.3 61.34 0.039 6.84 3.37 9.06
8/8/2022 2:30:00 AM 16.27 61.286 0.039 6.83 3.37 9.06
8/8/2022 2:45:00 AM 16.25 61.25 0.039 6.83 3.52 9.07
8/8/2022 3:00:00 AM 16.23 61.214 0.039 6.83 3.42 9.07
8/8/2022 3:15:00 AM 16.2 61.16 0.038 6.81 3.37 9.07
8/8/2022 3:30:00 AM 16.18 61.124 0.038 6.82 3.38 9.08
8/8/2022 3:45:00 AM 16.16 61.088 0.038 6.82 3.39 9.08
8/8/2022 4:00:00 AM 16.13 61.034 0.038 6.84 3.42 9.08
8/8/2022 4:15:00 AM 16.11 60.998 0.038 6.85 3.41 9.09
8/8/2022 4:30:00 AM 16.09 60.962 0.038 6.8 3.43 9.09
8/8/2022 4:45:00 AM 16.07 60.926 0.038 6.84 3.42 9.1
8/8/2022 5:00:00 AM 16.04 60.872 0.038 6.81 3.39 9.11
8/8/2022 5:15:00 AM 16.02 60.836 0.038 6.84 3.35 9.1
8/8/2022 5:30:00 AM 16 60.8 0.038 6.8 3.42 9.11
8/8/2022 5:45:00 AM 15.99 60.782 0.038 6.82 3.51 9.11
8/8/2022 6:00:00 AM 15.98 60.764 0.038 6.81 3.49 9.12
8/8/2022 6:15:00 AM 15.97 60.746 0.038 6.83 3.4 9.13
8/8/2022 6:30:00 AM 15.96 60.728 0.038 6.8 3.35 9.15
8/8/2022 6:45:00 AM 15.95 60.71 0.038 6.83 3.43 9.17
8/8/2022 7:00:00 AM 15.94 60.692 0.038 6.83 3.35 9.19
8/8/2022 7:15:00 AM 15.94 60.692 0.038 6.81 3.39 9.22
8/8/2022 7:30:00 AM 15.93 60.674 0.038 6.81 3.39 9.26
8/8/2022 7:45:00 AM 15.94 60.692 0.038 6.84 3.44 9.29
8/8/2022 8:00:00 AM 15.94 60.692 0.038 6.78 3.4 9.32
8/8/2022 8:15:00 AM 15.96 60.728 0.038 6.82 3.33 9.37
8/8/2022 8:30:00 AM 15.98 60.764 0.038 6.86 3.38 9.41
8/8/2022 8:45:00 AM 16 60.8 0.038 6.83 3.35 9.45
8/8/2022 9:00:00 AM 16.03 60.854 0.038 6.85 3.34 9.49
8/8/2022 9:15:00 AM 16.07 60.926 0.038 6.88 3.3 9.51
8/8/2022 9:30:00 AM 16.12 61.016 0.038 6.87 3.33 9.56
8/8/2022 9:45:00 AM 16.15 61.07 0.038 6.88 3.31 9.55
8/8/2022 10:00:00 AM 16.22 61.196 0.038 6.91 3.28 9.55
8/8/2022 10:15:00 AM 16.32 61.376 0.038 6.89 3.27 9.56
8/8/2022 10:30:00 AM 16.43 61.574 0.038 6.93 3.31 9.58
8/8/2022 10:45:00 AM 16.49 61.682 0.038 6.93 3.3 9.56
8/8/2022 11:00:00 AM 16.59 61.862 0.038 6.94 3.28 9.58
8/8/2022 11:15:00 AM 16.7 62.06 0.038 6.96 3.47 9.56
8/8/2022 11:30:00 AM 16.91 62.438 0.038 6.97 3.19 9.57
8/8/2022 11:45:00 AM 17.21 62.978 0.038 6.98 3.17 9.57
8/8/2022 12:00:00 PM 17.31 63.158 0.037 6.99 3.21 9.59
8/8/2022 12:15:00 PM 17.44 63.392 0.037 7 3.21 9.52
8/8/2022 12:30:00 PM 17.74 63.932 0.037 7.02 3.19 9.51
8/8/2022 12:45:00 PM 17.85 64.13 0.037 7.03 3.17 9.5
8/8/2022 1:00:00 PM 17.77 63.986 0.037 7 3.3 9.44
8/8/2022 1:15:00 PM 18.04 64.472 0.037 7.03 3.22 9.41
8/8/2022 1:30:00 PM 18.18 64.724 0.037 7.03 3.17 9.37
8/8/2022 1:45:00 PM 18.62 65.516 0.037 7.04 3.16 9.38
8/8/2022 2:00:00 PM 18.75 65.75 0.037 7.03 3.19 9.36
8/8/2022 2:15:00 PM 18.79 65.82201 0.037 7.04 3.25 9.32
8/8/2022 2:30:00 PM 18.66 65.588 0.037 7.03 3.23 9.29
8/8/2022 2:45:00 PM 18.4 65.12 0.037 7.04 3.26 9.26
8/8/2022 3:00:00 PM 18.24 64.832 0.037 7.01 3.23 9.27
8/8/2022 3:15:00 PM 18.09 64.562 0.037 6.99 3.21 9.15
8/8/2022 3:30:00 PM 18.03 64.454 0.037 6.99 3.73 9.05
8/8/2022 3:45:00 PM 18.07 64.526 0.037 7.01 3.23 9.18
8/8/2022 4:00:00 PM 18.19 64.742 0.037 7.02 3.29 9.22
8/8/2022 4:15:00 PM 18.03 64.454 0.037 7.02 3.29 9.19
8/8/2022 4:30:00 PM 17.96 64.328 0.037 6.97 3.27 9.21
8/8/2022 4:45:00 PM 17.91 64.238 0.037 6.99 3.23 9.16
8/8/2022 5:00:00 PM 17.86 64.148 0.037 6.97 3.18 9.13
8/8/2022 5:15:00 PM 17.8 64.04 0.037 6.98 3.43 9.05
8/8/2022 5:30:00 PM 17.8 64.04 0.037 6.96 3.2 9.12
8/8/2022 5:45:00 PM 17.81 64.058 0.037 6.99 3.16 9.11
8/8/2022 6:00:00 PM 17.79 64.022 0.037 6.96 3.23 9.09
8/8/2022 6:15:00 PM 17.77 63.986 0.038 6.95 3.21 9.09
8/8/2022 6:30:00 PM 17.74 63.932 0.038 6.97 3.3 9.09
8/8/2022 6:45:00 PM 17.69 63.842 0.038 6.94 3.25 9.01
8/8/2022 7:00:00 PM 17.64 63.752 0.038 6.93 3.23 8.97
8/8/2022 7:15:00 PM 17.61 63.698 0.038 6.94 3.24 8.97
8/8/2022 7:30:00 PM 17.57 63.626 0.038 6.92 3.28 8.94
8/8/2022 7:45:00 PM 17.52 63.536 0.038 6.9 3.21 8.92
8/8/2022 8:00:00 PM 17.47 63.446 0.038 6.9 3.22 8.88
8/8/2022 8:15:00 PM 17.4 63.32 0.038 6.89 3.33 8.84
8/8/2022 8:30:00 PM 17.35 63.23 0.038 6.88 3.27 8.83
8/8/2022 8:45:00 PM 17.28 63.104 0.038 6.87 3.34 8.81
8/8/2022 9:00:00 PM 17.24 63.032 0.038 6.83 3.32 8.82
8/8/2022 9:15:00 PM 17.2 62.96 0.038 6.86 3.32 8.8
8/8/2022 9:30:00 PM 17.16 62.888 0.038 6.85 3.27 8.81
8/8/2022 9:45:00 PM 17.11 62.798 0.038 6.87 3.35 8.81
8/8/2022 10:00:00 PM 17.07 62.726 0.038 6.83 3.27 8.82
8/8/2022 10:15:00 PM 17.03 62.654 0.038 6.87 3.23 8.83
8/8/2022 10:30:00 PM 16.99 62.582 0.038 6.81 3.25 8.84
8/8/2022 10:45:00 PM 16.96 62.528 0.038 6.86 3.29 8.83
8/8/2022 11:00:00 PM 16.93 62.474 0.038 6.85 3.33 8.84
8/8/2022 11:15:00 PM 16.89 62.402 0.038 6.86 3.3 8.86
8/8/2022 11:30:00 PM 16.86 62.348 0.038 6.87 3.27 8.86
8/8/2022 11:45:00 PM 16.83 62.294 0.038 6.87 3.27 8.87
8/9/2022 12:00:00 AM 16.79 62.222 0.038 6.86 3.21 8.88
8/9/2022 12:15:00 AM 16.75 62.15 0.038 6.86 3.29 8.89
8/9/2022 12:30:00 AM 16.72 62.096 0.038 6.83 3.22 8.9
8/9/2022 12:45:00 AM 16.69 62.042 0.038 6.87 3.28 8.9
8/9/2022 1:00:00 AM 16.66 61.988 0.038 6.83 3.23 8.91
8/9/2022 1:15:00 AM 16.63 61.934 0.038 6.85 3.33 8.91
8/9/2022 1:30:00 AM 16.59 61.862 0.038 6.84 3.27 8.91
8/9/2022 1:45:00 AM 16.57 61.826 0.038 6.84 3.3 8.92
8/9/2022 2:00:00 AM 16.54 61.772 0.038 6.83 3.42 8.92
8/9/2022 2:15:00 AM 16.51 61.718 0.038 6.85 3.32 8.93
8/9/2022 2:30:00 AM 16.5 61.7 0.038 6.84 3.28 8.93
8/9/2022 2:45:00 AM 16.47 61.646 0.038 6.82 3.27 8.94
8/9/2022 3:00:00 AM 16.46 61.628 0.038 6.84 3.28 8.95
8/9/2022 3:15:00 AM 16.44 61.592 0.038 6.83 3.34 8.95
8/9/2022 3:30:00 AM 16.44 61.592 0.038 6.85 3.33 8.95
8/9/2022 3:45:00 AM 16.41 61.538 0.038 6.82 3.32 8.95
8/9/2022 4:00:00 AM 16.41 61.538 0.038 6.85 3.36 8.95
8/9/2022 4:15:00 AM 16.38 61.484 0.038 6.83 3.25 8.97
8/9/2022 4:30:00 AM 16.37 61.466 0.038 6.8 3.33 8.97
8/9/2022 4:45:00 AM 16.35 61.43 0.038 6.82 3.32 8.96
8/9/2022 5:00:00 AM 16.34 61.412 0.038 6.84 3.32 8.96
8/9/2022 5:15:00 AM 16.33 61.394 0.038 6.83 3.36 8.96
8/9/2022 5:30:00 AM 16.32 61.376 0.038 6.81 3.31 8.97
8/9/2022 5:45:00 AM 16.32 61.376 0.038 6.81 3.27 8.97
8/9/2022 6:00:00 AM 16.29 61.322 0.038 6.81 3.31 8.98
8/9/2022 6:15:00 AM 16.28 61.304 0.038 6.83 3.29 8.98
8/9/2022 6:30:00 AM 16.27 61.286 0.038 6.77 3.26 9
8/9/2022 6:45:00 AM 16.26 61.268 0.038 6.81 3.33 9.01
8/9/2022 7:00:00 AM 16.27 61.286 0.038 6.83 3.27 9.04
8/9/2022 7:15:00 AM 16.28 61.304 0.038 6.82 3.32 9.11
8/9/2022 7:30:00 AM 16.29 61.322 0.038 6.83 3.31 9.17
8/9/2022 7:45:00 AM 16.29 61.322 0.038 6.82 3.31 9.17
8/9/2022 8:00:00 AM 16.28 61.304 0.038 6.85 3.3 9.15
8/9/2022 8:15:00 AM 16.29 61.322 0.038 6.81 3.31 9.22
8/9/2022 8:30:00 AM 16.33 61.394 0.038 6.85 3.26 9.26
8/9/2022 8:45:00 AM 16.37 61.466 0.038 6.86 3.19 9.33
8/9/2022 9:00:00 AM 16.4 61.52 0.038 6.84 3.32 9.32
8/9/2022 9:15:00 AM 16.38 61.484 0.038 6.85 3.3 9.29
8/9/2022 9:30:00 AM 16.49 61.682 0.038 6.88 3.29 9.37
8/9/2022 9:45:00 AM 16.53 61.754 0.038 6.84 3.27 9.37
8/9/2022 10:00:00 AM 16.63 61.934 0.037 6.9 3.34 9.45
8/9/2022 10:15:00 AM 16.81 62.258 0.037 6.94 3.26 9.51
8/9/2022 10:30:00 AM 16.88 62.384 0.037 6.96 3.25 9.51
8/9/2022 10:45:00 AM 17.05 62.69 0.037 6.96 3.21 9.54
8/9/2022 11:00:00 AM 17.23 63.014 0.037 7 3.21 9.52
8/9/2022 11:15:00 AM 17.18 62.924 0.037 6.98 3.3 9.39
8/9/2022 11:30:00 AM 17.22 62.996 0.037 7 3.27 9.46
8/9/2022 11:45:00 AM 17.26 63.068 0.037 6.99 3.27 9.49
8/9/2022 12:00:00 PM 17.36 63.248 0.037 7.01 3.22 9.47
8/9/2022 12:15:00 PM 17.55 63.59 0.037 7.02 3.23 9.52
8/9/2022 12:30:00 PM 17.69 63.842 0.037 7.02 3.17 9.48
8/9/2022 12:45:00 PM 18.06 64.508 0.036 7.04 3.2 9.47
8/9/2022 1:00:00 PM 18.51 65.318 0.036 7.05 3.23 9.4
8/9/2022 1:15:00 PM 18.4 65.12 0.036 7.06 3.14 9.37
8/9/2022 1:30:00 PM 18.33 64.994 0.036 7.06 3.22 9.43
8/9/2022 1:45:00 PM 18.44 65.192 0.036 7.05 3.2 9.43
8/9/2022 2:00:00 PM 18.45 65.21 0.037 7.07 3.18 9.39
8/9/2022 2:15:00 PM 18.52 65.336 0.036 7.05 3.16 9.4
8/9/2022 2:30:00 PM 18.52 65.336 0.036 7.08 3.3 9.41
8/9/2022 2:45:00 PM 18.43 65.174 0.037 7.06 5.48 9.35
8/9/2022 3:00:00 PM 18.34 65.012 0.036 7.08 3.47 9.37
8/9/2022 3:15:00 PM 18.32 64.976 0.036 7.07 3.36 9.34
8/9/2022 3:30:00 PM 18.29 64.922 0.036 7.07 3.32 9.32
8/9/2022 3:45:00 PM 18.21 64.778 0.036 7.05 3.25 9.29
8/9/2022 4:00:00 PM 18.16 64.688 0.036 7.05 3.55 9.26
8/9/2022 4:15:00 PM 18.18 64.724 0.036 7.03 3.26 9.28
8/9/2022 4:30:00 PM 18.11 64.598 0.036 7.03 3.3 9.27
8/9/2022 4:45:00 PM 18.09 64.562 0.036 7.04 3.3 9.22
8/9/2022 5:00:00 PM 18.05 64.49 0.036 7.03 3.27 9.18
8/9/2022 5:15:00 PM 17.97 64.346 0.036 7 3.24 9.09
8/9/2022 5:30:00 PM 17.96 64.328 0.036 7 3.29 9.15
8/9/2022 5:45:00 PM 17.87 64.166 0.036 6.97 3.27 9.04
8/9/2022 6:00:00 PM 17.86 64.148 0.036 6.98 3.32 9.01
8/9/2022 6:15:00 PM 17.77 63.986 0.036 6.95 3.29 8.98
8/9/2022 6:30:00 PM 17.73 63.914 0.036 6.96 3.39 9.01
8/9/2022 6:45:00 PM 17.69 63.842 0.036 6.94 3.29 8.96
8/9/2022 7:00:00 PM 17.63 63.734 0.036 6.94 3.3 8.92
8/9/2022 7:15:00 PM 17.55 63.59 0.036 6.89 3.27 8.86
8/9/2022 7:30:00 PM 17.48 63.464 0.036 6.91 3.29 8.84
8/9/2022 7:45:00 PM 17.43 63.374 0.036 6.89 3.31 8.82
8/9/2022 8:00:00 PM 17.36 63.248 0.035 6.88 3.3 8.8
8/9/2022 8:15:00 PM 17.32 63.176 0.035 6.85 3.29 8.79
8/9/2022 8:30:00 PM 17.28 63.104 0.037 6.88 3.26 8.77
8/9/2022 8:45:00 PM 17.26 63.068 0.035 6.88 3.32 8.77
8/9/2022 9:00:00 PM 17.21 62.978 0.035 6.89 3.32 8.78
8/9/2022 9:15:00 PM 17.18 62.924 0.035 6.86 3.39 8.78
8/9/2022 9:30:00 PM 17.13 62.834 0.034 6.88 3.4 8.8
8/9/2022 9:45:00 PM 17.08 62.744 0.034 6.87 3.46 8.8
8/9/2022 10:00:00 PM 17.03 62.654 0.033 6.85 3.36 8.81
8/9/2022 10:15:00 PM 16.99 62.582 0.033 6.85 3.36 8.81
8/9/2022 10:30:00 PM 16.94 62.492 0.033 6.88 3.35 8.83
8/9/2022 10:45:00 PM 16.89 62.402 0.033 6.87 3.37 8.83
8/9/2022 11:00:00 PM 16.84 62.312 0.033 6.87 3.41 8.85
8/9/2022 11:15:00 PM 16.79 62.222 0.032 6.88 3.39 8.86
8/9/2022 11:30:00 PM 16.75 62.15 0.032 6.88 3.38 8.87
8/9/2022 11:45:00 PM 16.69 62.042 0.032 6.85 3.31 8.88
8/10/2022 12:00:00 AM 16.65 61.97 0.031 6.85 3.4 8.89
8/10/2022 12:15:00 AM 16.62 61.916 0.031 6.86 3.35 8.9
8/10/2022 12:30:00 AM 16.59 61.862 0.03 6.87 3.39 8.91
8/10/2022 12:45:00 AM 16.55 61.79 0.03 6.86 3.36 8.92
8/10/2022 1:00:00 AM 16.51 61.718 0.029 6.87 3.4 8.93
8/10/2022 1:15:00 AM 16.47 61.646 0.029 6.84 3.35 8.93
8/10/2022 1:30:00 AM 16.43 61.574 0.029 6.88 3.39 8.94
8/10/2022 1:45:00 AM 16.39 61.502 0.029 6.81 3.37 8.95
8/10/2022 2:00:00 AM 16.36 61.448 0.028 6.85 3.35 8.96
8/10/2022 2:15:00 AM 16.32 61.376 0.028 6.86 3.35 8.96
8/10/2022 2:30:00 AM 16.29 61.322 0.028 6.86 3.36 8.97
8/10/2022 2:45:00 AM 16.26 61.268 0.028 6.86 15.26 8.98
8/10/2022 3:00:00 AM 16.23 61.214 0.028 6.85 15.33 8.98
8/10/2022 3:15:00 AM 16.21 61.178 0.028 6.84 15.34 9
8/10/2022 3:30:00 AM 16.19 61.142 0.027 6.84 20.08 8.99
8/10/2022 3:45:00 AM 16.16 61.088 0.027 6.84 20.08 9
8/10/2022 4:00:00 AM 16.14 61.052 0.027 6.84 20.12 9.01
8/10/2022 4:15:00 AM 16.12 61.016 0.027 6.84 20.04 9.02
8/10/2022 4:30:00 AM 16.09 60.962 0.026 6.84 20.03 9.02
8/10/2022 4:45:00 AM 16.07 60.926 0.026 6.84 20.07 9.03
8/10/2022 5:00:00 AM 16.05 60.89 0.026 6.84 19.99 9.03
8/10/2022 5:15:00 AM 16.02 60.836 0.026 6.86 19.99 9.03
8/10/2022 5:30:00 AM 16.01 60.818 0.026 6.81 19.99 9.04
8/10/2022 5:45:00 AM 15.98 60.764 0.026 6.83 19.96 9.05
8/10/2022 6:00:00 AM 15.97 60.746 0.026 6.84 19.95 9.05
8/10/2022 6:15:00 AM 15.94 60.692 0.027 6.84 19.84 9.07
8/10/2022 6:30:00 AM 15.92 60.656 0.027 6.85 19.91 9.08
8/10/2022 6:45:00 AM 15.91 60.638 0.027 6.83 19.82 9.11
8/10/2022 7:00:00 AM 15.9 60.62 0.027 6.86 19.8 9.14
8/10/2022 7:15:00 AM 15.89 60.602 0.027 6.83 19.76 9.19
8/10/2022 7:30:00 AM 15.9 60.62 0.027 6.86 19.78 9.24
8/10/2022 7:45:00 AM 15.91 60.638 0.027 6.87 19.71 9.31
8/10/2022 8:00:00 AM 15.89 60.602 0.027 6.87 19.77 9.31
8/10/2022 8:15:00 AM 15.92 60.656 0.028 6.89 19.64 9.36
8/10/2022 8:30:00 AM 15.9 60.62 0.028 6.89 20.02 9.35
8/10/2022 8:45:00 AM 15.9 60.62 0.028 6.86 19.89 9.38
8/10/2022 9:00:00 AM 15.95 60.71 0.028 6.9 19.82 9.4
8/10/2022 9:15:00 AM 16.01 60.818 0.028 6.93 19.76 9.51
8/10/2022 9:30:00 AM 16.07 60.926 0.028 6.9 19.72 9.53
8/10/2022 9:45:00 AM 16.13 61.034 0.028 6.94 19.62 9.58
8/10/2022 10:00:00 AM 16.13 61.034 0.028 6.95 19.63 9.56
8/10/2022 10:15:00 AM 16.2 61.16 0.028 6.97 19.52 9.61
8/10/2022 10:30:00 AM 16.21 61.178 0.028 6.97 19.57 9.6
8/10/2022 10:45:00 AM 16.31 61.358 0.029 6.95 19.4 9.56
8/10/2022 11:00:00 AM 16.31 61.358 0.03 6.94 19.45 9.57
8/10/2022 11:15:00 AM 16.39 61.502 0.029 6.96 19.32 9.56
8/10/2022 11:30:00 AM 16.48 61.664 0.028 6.96 19.09 9.61
8/10/2022 11:45:00 AM 16.67 62.006 0.026 6.97 18.41 9.53
8/10/2022 12:00:00 PM 16.79 62.222 0.024 7 17.92 9.56
8/10/2022 12:15:00 PM 17.01 62.618 0.024 6.98 17.89 9.51
8/10/2022 12:30:00 PM 17.15 62.87 0.022 7.01 17.65 9.51
8/10/2022 12:45:00 PM 17.47 63.446 0.022 7.02 17.51 9.56
8/10/2022 1:00:00 PM 17.93 64.274 0.02 7.03 17.38 9.47
8/10/2022 1:15:00 PM 18.21 64.778 0.02 7.04 17.29 9.44
8/10/2022 1:30:00 PM 18.51 65.318 0.02 7.03 17.2 9.43
8/10/2022 1:45:00 PM 18.47 65.246 0.024 7.02 17.66 9.44
8/10/2022 2:00:00 PM 18.69 65.642 0.026 7.02 18.43 9.43
8/10/2022 2:15:00 PM 18.86 65.948 0.026 7 18.86 9.41
8/10/2022 2:30:00 PM 18.72 65.696 0.027 7 18.82 9.34
8/10/2022 2:45:00 PM 18.74 65.732 0.026 7 18.88 9.34
8/10/2022 3:00:00 PM 18.6 65.48 0.026 6.99 18.94 9.31
8/10/2022 3:15:00 PM 18.44 65.192 0.026 6.98 18.99 9.27
8/10/2022 3:30:00 PM 18.32 64.976 0.025 6.98 18.98 9.24
8/10/2022 3:45:00 PM 18.17 64.706 0.024 6.98 18.89 9.21
8/10/2022 4:00:00 PM 17.98 64.364 0.024 6.96 18.82 9.13
8/10/2022 4:15:00 PM 17.83 64.094 0.023 6.96 18.93 9.1
8/10/2022 4:30:00 PM 17.83 64.094 0.023 6.96 18.82 9.13
8/10/2022 4:45:00 PM 17.61 63.698 0.023 6.94 18.74 9.04
8/10/2022 5:00:00 PM 17.44 63.392 0.022 6.93 18.74 8.96
8/10/2022 5:15:00 PM 17.39 63.302 0.022 6.92 18.74 8.95
8/10/2022 5:30:00 PM 17.38 63.284 0.022 6.91 18.77 8.92
8/10/2022 5:45:00 PM 17.32 63.176 0.021 6.9 18.86 8.9
8/10/2022 6:00:00 PM 17.28 63.104 0.021 6.89 18.84 8.89
8/10/2022 6:15:00 PM 17.25 63.05 0.02 6.89 18.81 8.88
8/10/2022 6:30:00 PM 17.21 62.978 0.02 6.88 18.98 8.86
8/10/2022 6:45:00 PM 17.18 62.924 0.019 6.87 18.97 8.85
8/10/2022 7:00:00 PM 17.17 62.906 0.019 6.86 18.88 8.9
8/10/2022 7:15:00 PM 17.13 62.834 0.019 6.86 20.26 8.88
8/10/2022 7:30:00 PM 17.09 62.762 0.018 6.84 17.94 8.85
8/10/2022 7:45:00 PM 17.03 62.654 0.018 6.85 17.82 8.84
8/10/2022 8:00:00 PM 16.97 62.546 0.017 6.84 17.9 8.81
8/10/2022 8:15:00 PM 16.92 62.456 0.017 6.83 17.87 8.78
8/10/2022 8:30:00 PM 16.88 62.384 0.017 6.84 17.92 8.75
8/10/2022 8:45:00 PM 16.84 62.312 0.016 6.84 18.11 8.75
8/10/2022 9:00:00 PM 16.79 62.222 0.015 6.81 18.11 8.75
8/10/2022 9:15:00 PM 16.74 62.132 0.014 6.84 18.15 8.77
8/10/2022 9:30:00 PM 16.67 62.006 0.014 6.82 18.2 8.78
8/10/2022 9:45:00 PM 16.62 61.916 0.014 6.84 18.14 8.79
8/10/2022 10:00:00 PM 16.56 61.808 0.013 6.83 18.16 8.8
8/10/2022 10:15:00 PM 16.51 61.718 0.013 6.84 18.2 8.81
8/10/2022 10:30:00 PM 16.46 61.628 0.012 6.83 18.17 8.82
8/10/2022 10:45:00 PM 16.4 61.52 0.012 6.83 18.2 8.83
8/10/2022 11:00:00 PM 16.36 61.448 0.012 6.83 18.21 8.81
8/10/2022 11:15:00 PM 16.3 61.34 0.011 6.82 18.18 8.83
8/10/2022 11:30:00 PM 16.25 61.25 0.011 6.83 18.12 8.85
8/10/2022 11:45:00 PM 16.2 61.16 0.011 6.84 18.15 8.86
8/11/2022 12:00:00 AM 16.14 61.052 0.01 6.82 18.06 8.87
8/11/2022 12:15:00 AM 16.09 60.962 0.01 6.82 18.07 8.87
8/11/2022 12:30:00 AM 16.02 60.836 0.009 6.84 18.12 8.92
8/11/2022 12:45:00 AM 15.96 60.728 0.009 6.82 18.29 8.94
8/11/2022 1:00:00 AM 15.9 60.62 0.009 6.82 18.63 8.96
8/11/2022 1:15:00 AM 15.85 60.53 0.006 6.82 18.24 8.97
8/11/2022 1:30:00 AM 15.79 60.422 0.006 6.81 18.12 8.99
8/11/2022 1:45:00 AM 15.74 60.332 0.008 6.82 18.05 9
8/11/2022 2:00:00 AM 15.69 60.242 0.005 6.81 18.12 9.01
8/11/2022 2:15:00 AM 15.64 60.152 0.008 6.81 18.07 9.03
8/11/2022 2:30:00 AM 15.59 60.062 0.008 6.81 18.14 9.04
8/11/2022 2:45:00 AM 15.54 59.972 0.007 6.81 18.14 9.04
8/11/2022 3:00:00 AM 15.5 59.9 0.007 6.81 18.21 9.05
8/11/2022 3:15:00 AM 15.45 59.81 0.007 6.81 18.44 9.06
8/11/2022 3:30:00 AM 15.38 59.684 0.005 6.81 18.22 9.1
8/11/2022 3:45:00 AM 15.34 59.612 0.007 6.81 18.06 9.1
8/11/2022 4:00:00 AM 15.29 59.522 0.006 6.81 18.14 9.12
8/11/2022 4:15:00 AM 15.24 59.432 0.006 6.81 18.12 9.14
8/11/2022 4:30:00 AM 15.18 59.324 0.007 6.81 17.97 9.15
8/11/2022 4:45:00 AM 15.15 59.27 0.007 6.81 17.99 9.17
8/11/2022 5:00:00 AM 15.09 59.162 0.005 6.81 18 9.17
8/11/2022 5:15:00 AM 15.04 59.072 0.007 6.81 18.04 9.18
8/11/2022 5:30:00 AM 15.01 59.018 0.007 6.81 18.04 9.18
8/11/2022 5:45:00 AM 14.95 58.91 0.007 6.81 18.09 9.21
8/11/2022 6:00:00 AM 14.92 58.856 0.007 6.82 18.84 9.22
8/11/2022 6:15:00 AM 14.88 58.784 0.008 6.78 18.48 9.24
8/11/2022 6:30:00 AM 14.84 58.712 0.008 6.79 18.01 9.26
8/11/2022 6:45:00 AM 14.81 58.658 0.008 6.8 17.97 9.29
8/11/2022 7:00:00 AM 14.78 58.604 0.009 6.79 17.91 9.32
8/11/2022 7:15:00 AM 14.75 58.55 0.009 6.81 17.9 9.36
8/11/2022 7:30:00 AM 14.72 58.496 0.009 6.8 17.85 9.38
8/11/2022 7:45:00 AM 14.71 58.478 0.009 6.79 17.79 9.4
8/11/2022 8:00:00 AM 14.7 58.46 0.01 6.8 17.67 9.42
8/11/2022 8:15:00 AM 14.71 58.478 0.01 6.8 17.94 9.45
8/11/2022 8:30:00 AM 14.73 58.514 0.01 6.81 17.73 9.46
8/11/2022 8:45:00 AM 14.76 58.568 0.011 6.81 17.39 9.47
8/11/2022 9:00:00 AM 14.8 58.64 0.012 6.82 17.21 9.53
8/11/2022 9:15:00 AM 14.85 58.73 0.012 6.82 17.11 9.54
8/11/2022 9:30:00 AM 14.9 58.82 0.013 6.82 17 9.53
8/11/2022 9:45:00 AM 14.96 58.928 0.014 6.81 17.04 9.55
8/11/2022 10:00:00 AM 15.03 59.054 0.014 6.82 17.26 9.55
8/11/2022 10:15:00 AM 15.12 59.216 0.014 6.83 17.72 9.59
8/11/2022 10:30:00 AM 15.21 59.378 0.014 6.84 17.03 9.6
8/11/2022 10:45:00 AM 15.34 59.612 0.015 6.85 17.11 9.62
8/11/2022 11:00:00 AM 15.49 59.882 0.015 6.88 16.89 9.71
8/11/2022 11:15:00 AM 15.64 60.152 0.013 6.9 16.64 9.75
8/11/2022 11:30:00 AM 15.82 60.476 0.012 6.92 16.32 9.73
8/11/2022 11:45:00 AM 15.93 60.674 0.012 6.93 16.23 9.7
8/11/2022 12:00:00 PM 16.26 61.268 0.009 6.92 15.46 9.59
8/11/2022 12:15:00 PM 16.57 61.826 0.005 6.94 15.18 9.53
8/11/2022 12:30:00 PM 16.7 62.06 0.006 6.94 15.21 9.5
8/11/2022 12:45:00 PM 17.27 63.086 0.005 6.96 15.24 9.52
8/11/2022 1:00:00 PM 17.05 62.69 0.01 6.97 15.82 9.6
8/11/2022 1:15:00 PM 16.8 62.24 0.011 6.96 16.18 9.48
8/11/2022 1:30:00 PM 17.01 62.618 0.011 6.96 16.26 9.49
8/11/2022 1:45:00 PM 17.23 63.014 0.011 6.96 16.1 9.48
8/11/2022 2:00:00 PM 17.9 64.22 0.011 7.01 16.08 9.51
8/11/2022 2:15:00 PM 18.23 64.814 0.011 7 16.53 9.52
8/11/2022 2:30:00 PM 18.34 65.012 0.011 7.02 16.5 9.51
8/11/2022 2:45:00 PM 17.83 64.094 0.011 7 16.56 9.3
8/11/2022 3:00:00 PM 18.05 64.49 0.011 7.01 16.55 9.46
8/11/2022 3:15:00 PM 17.99 64.382 0.012 7 16.59 9.41
8/11/2022 3:30:00 PM 17.99 64.382 0.011 7 16.62 9.39
8/11/2022 3:45:00 PM 17.81 64.058 0.01 6.99 3.77 9.34
8/11/2022 4:00:00 PM 17.66 63.788 0.01 7 3.71 9.26
8/11/2022 4:15:00 PM 17.52 63.536 0.009 6.99 3.71 9.2
8/11/2022 4:30:00 PM 17.38 63.284 0.008 6.98 3.73 9.18
8/11/2022 4:45:00 PM 17.27 63.086 0.007 6.97 3.72 9.09
8/11/2022 5:00:00 PM 17.11 62.798 0.005 6.96 3.73 9.04
8/11/2022 5:15:00 PM 17.03 62.654 0.007 6.93 3.77 9
8/11/2022 5:30:00 PM 17 62.6 0.005 6.94 3.81 8.98
8/11/2022 5:45:00 PM 16.96 62.528 0.004 6.94 3.92 8.96
8/11/2022 6:00:00 PM 16.9 62.42 0.004 6.91 3.8 8.94
8/11/2022 6:15:00 PM 16.86 62.348 0.004 6.92 3.73 8.93
8/11/2022 6:30:00 PM 16.83 62.294 0.004 6.9 3.75 8.92
8/11/2022 6:45:00 PM 16.8 62.24 0.004 6.9 3.74 8.92
8/11/2022 7:00:00 PM 16.78 62.204 0.003 6.91 3.71 8.94
8/11/2022 7:15:00 PM 16.74 62.132 0.003 6.88 3.83 8.91
8/11/2022 7:30:00 PM 16.69 62.042 0.003 6.87 3.74 8.9
8/11/2022 7:45:00 PM 16.64 61.952 0.003 6.88 3.73 8.88
8/11/2022 8:00:00 PM 16.59 61.862 0.003 6.88 3.75 8.87
8/11/2022 8:15:00 PM 16.53 61.754 0.003 6.87 3.74 8.88
8/11/2022 8:30:00 PM 16.48 61.664 0.002 6.85 3.87 8.87
8/11/2022 8:45:00 PM 16.43 61.574 0.002 6.86 3.8 8.86
8/11/2022 9:00:00 PM 16.37 61.466 0.002 6.86 3.84 8.85
8/11/2022 9:15:00 PM 16.31 61.358 0.002 6.85 3.8 8.86
8/11/2022 9:30:00 PM 16.25 61.25 0.002 6.86 3.95 8.87
8/11/2022 9:45:00 PM 16.2 61.16 0.002 6.85 4.03 8.9
8/11/2022 10:00:00 PM 16.15 61.07 0.002 6.83 3.94 8.92
8/11/2022 10:15:00 PM 16.08 60.944 0.002 6.86 3.91 8.96
8/11/2022 10:30:00 PM 16.04 60.872 0.002 6.86 3.95 8.95
8/11/2022 10:45:00 PM 15.99 60.782 0.001 6.85 3.93 8.97
8/11/2022 11:00:00 PM 15.93 60.674 0.001 6.85 3.97 8.95
8/11/2022 11:15:00 PM 15.88 60.584 0.001 6.85 3.9 8.96
8/11/2022 11:30:00 PM 15.78 60.404 0.001 6.84 4.02 8.99
8/11/2022 11:45:00 PM 15.73 60.314 0.001 6.84 4.11 9.01
8/12/2022 12:00:00 AM 15.7 60.26 0.001 6.83 5.26 9.06
8/12/2022 12:15:00 AM 15.65 60.17 0.001 6.84 4.07 9.06
8/12/2022 12:30:00 AM 15.6 60.08 0.001 6.82 4.04 9.03
8/12/2022 12:45:00 AM 15.53 59.954 0.001 6.84 3.95 9.04
8/12/2022 1:00:00 AM 15.48 59.864 0.001 6.81 3.9 9.06
8/12/2022 1:15:00 AM 15.44 59.792 0.001 6.83 3.97 9.07
8/12/2022 1:30:00 AM 15.39 59.702 0.001 6.82 4.25 9.08
8/12/2022 1:45:00 AM 15.31 59.558 0.001 6.83 4.01 9.11
8/12/2022 2:00:00 AM 15.25 59.45 0.001 6.83 3.97 9.11
8/12/2022 2:15:00 AM 15.15 59.27 0.001 6.84 3.95 9.14
8/12/2022 2:30:00 AM 15.07 59.126 0.001 6.85 3.98 9.18
8/12/2022 2:45:00 AM 15.07 59.126 0.001 6.84 3.95 9.17
8/12/2022 3:00:00 AM 14.97 58.946 0 6.85 3.98 9.2
8/12/2022 3:15:00 AM 14.98 58.964 0 6.84 3.93 9.2
8/12/2022 3:30:00 AM 14.95 58.91 0 6.84 3.96 9.2
8/12/2022 3:45:00 AM 14.92 58.856 0 6.85 3.94 9.21
8/12/2022 4:00:00 AM 14.86 58.748 0 6.82 3.94 9.23
8/12/2022 4:15:00 AM 14.8 58.64 0 6.85 3.94 9.25
8/12/2022 4:30:00 AM 14.72 58.496 0 6.84 3.98 9.27
8/12/2022 4:45:00 AM 14.7 58.46 0 6.84 3.93 9.28
8/12/2022 5:00:00 AM 14.59 58.262 0 6.82 3.94 9.31
8/12/2022 5:15:00 AM 14.58 58.244 0 6.85 3.92 9.3
8/12/2022 5:30:00 AM 14.53 58.154 0.001 6.84 3.96 9.31
8/12/2022 5:45:00 AM 14.46 58.028 0.001 6.84 3.97 9.34
8/12/2022 6:00:00 AM 14.44 57.992 0.001 6.81 3.96 9.34
8/12/2022 6:15:00 AM 14.33 57.794 0.001 6.82 3.95 9.38
8/12/2022 6:30:00 AM 14.34 57.812 0.001 6.84 3.93 9.39
8/12/2022 6:45:00 AM 14.31 57.758 0.001 6.84 3.95 9.42
8/12/2022 7:00:00 AM 14.28 57.704 0.001 6.82 3.95 9.45
8/12/2022 7:15:00 AM 14.22 57.596 0.001 6.85 3.93 9.49
8/12/2022 7:30:00 AM 14.2 57.56 0.001 6.85 3.9 9.52
8/12/2022 7:45:00 AM 14.2 57.56 0.001 6.82 3.95 9.53
8/12/2022 8:00:00 AM 14.18 57.524 0.001 6.86 3.94 9.55
8/12/2022 8:15:00 AM 14.19 57.542 0.001 6.86 3.95 9.58
8/12/2022 8:30:00 AM 14.24 57.632 0.001 6.83 3.95 9.58
8/12/2022 8:45:00 AM 14.26 57.668 0.001 6.87 3.9 9.6
8/12/2022 9:00:00 AM 14.32 57.776 0.001 6.86 3.93 9.62
8/12/2022 9:15:00 AM 14.38 57.884 0.001 6.86 3.9 9.62
8/12/2022 9:30:00 AM 14.47 58.046 0.001 6.88 3.94 9.62
8/12/2022 9:45:00 AM 14.55 58.19 0.002 6.85 3.9 9.62
8/12/2022 10:00:00 AM 14.62 58.316 0.002 6.88 3.92 9.62
8/12/2022 10:15:00 AM 14.71 58.478 0.002 6.89 3.89 9.65
8/12/2022 10:30:00 AM 14.78 58.604 0.001 6.89 3.86 9.66
8/12/2022 10:45:00 AM 14.88 58.784 0.002 6.91 3.86 9.65
8/12/2022 11:00:00 AM 14.97 58.946 0.002 6.91 3.87 9.65
8/12/2022 11:15:00 AM 15.16 59.288 0.001 6.91 3.81 9.64
8/12/2022 11:30:00 AM 15.77 60.386 0.001 6.93 3.73 9.51
8/12/2022 11:45:00 AM 16.01 60.818 0 6.93 3.73 9.47
8/12/2022 12:00:00 PM 16.32 61.376 0 6.94 3.72 9.39
8/12/2022 12:15:00 PM 16.74 62.132 0 6.97 3.75 9.35
8/12/2022 12:30:00 PM 17.08 62.744 0 6.97 3.75 9.35
8/12/2022 12:45:00 PM 17.57 63.626 0 6.98 3.74 9.3
8/12/2022 1:00:00 PM 17.88 64.184 0 6.98 3.74 9.29
8/12/2022 1:15:00 PM 18.23 64.814 0 7 4.97 9.29
8/12/2022 1:30:00 PM 18.31 64.958 0 7.02 4.52 9.34
8/12/2022 1:45:00 PM 18.3 64.94 0 7.01 3.82 9.43
8/12/2022 2:00:00 PM 18.14 64.652 0.001 7.02 3.72 9.58
8/12/2022 2:15:00 PM 18.23 64.814 0.001 7.03 3.73 9.6
8/12/2022 2:30:00 PM 18.34 65.012 0.001 7.03 3.75 9.54
8/12/2022 2:45:00 PM 18.11 64.598 0.001 7.04 3.75 9.55
8/12/2022 3:00:00 PM 18.02 64.436 0.001 7.03 3.78 9.5
8/12/2022 3:15:00 PM 17.69 63.842 0.001 7.02 3.75 9.47
8/12/2022 3:30:00 PM 17.6 63.68 0.001 7.01 3.8 9.44
8/12/2022 3:45:00 PM 17.44 63.392 0.001 7 3.82 9.39
8/12/2022 4:00:00 PM 17.18 62.924 0.001 6.99 3.77 9.32
8/12/2022 4:15:00 PM 16.92 62.456 0.001 6.99 3.81 9.33
8/12/2022 4:30:00 PM 16.93 62.474 0.001 6.98 3.82 9.36
8/12/2022 4:45:00 PM 16.63 61.934 0.001 6.96 3.83 9.25
8/12/2022 5:00:00 PM 16.43 61.574 0.001 6.96 3.79 9.18
8/12/2022 5:15:00 PM 16.34 61.412 0.001 6.95 3.84 9.17
8/12/2022 5:30:00 PM 16.26 61.268 0.001 6.93 3.82 9.15
8/12/2022 5:45:00 PM 16.23 61.214 0.001 6.92 3.83 9.15
8/12/2022 6:00:00 PM 16.18 61.124 0.001 6.9 3.85 9.13
8/12/2022 6:15:00 PM 16.16 61.088 0 6.91 3.84 9.12
8/12/2022 6:30:00 PM 16.12 61.016 0 6.9 3.83 9.12
8/12/2022 6:45:00 PM 16.08 60.944 0 6.9 3.84 9.1
8/12/2022 7:00:00 PM 16.04 60.872 0 6.87 3.85 9.11
8/12/2022 7:15:00 PM 16 60.8 0 6.89 3.88 9.09
8/12/2022 7:30:00 PM 15.94 60.692 0 6.86 3.84 9.08
8/12/2022 7:45:00 PM 15.86 60.548 0 6.88 3.85 9.08
8/12/2022 8:00:00 PM 15.79 60.422 0 6.86 3.86 9.09
8/12/2022 8:15:00 PM 15.72 60.296 0 6.87 3.87 9.08
8/12/2022 8:30:00 PM 15.61 60.098 0 6.87 3.87 9.09
8/12/2022 8:45:00 PM 15.54 59.972 0 6.86 3.87 9.1
8/12/2022 9:00:00 PM 15.43 59.774 0 6.87 3.93 9.12
8/12/2022 9:15:00 PM 15.35 59.63 0 6.87 3.9 9.14
8/12/2022 9:30:00 PM 15.27 59.486 0 6.84 3.91 9.16
8/12/2022 9:45:00 PM 15.2 59.36 0 6.87 3.88 9.18
8/12/2022 10:00:00 PM 15.06 59.108 0 6.83 3.93 9.21
8/12/2022 10:15:00 PM 15.01 59.018 0 6.85 3.92 9.23
8/12/2022 10:30:00 PM 14.89 58.802 0 6.84 3.88 9.27
8/12/2022 10:45:00 PM 14.84 58.712 0 6.85 3.87 9.28
8/12/2022 11:00:00 PM 14.67 58.406 0 6.84 3.9 9.32
8/12/2022 11:15:00 PM 14.66 58.388 0 6.84 3.91 9.31
8/12/2022 11:30:00 PM 14.47 58.046 0 6.85 3.9 9.37
8/12/2022 11:45:00 PM 14.41 57.938 0 6.81 3.94 9.38
8/13/2022 12:00:00 AM 14.34 57.812 0 6.83 3.95 9.4
8/13/2022 12:15:00 AM 14.25 57.65 0 6.85 3.95 9.44
8/13/2022 12:30:00 AM 14.2 57.56 0 6.82 3.92 9.43
8/13/2022 12:45:00 AM 14.06 57.308 0 6.84 3.94 9.46
8/13/2022 1:00:00 AM 13.99 57.182 0 6.82 3.92 9.49
8/13/2022 1:15:00 AM 13.86 56.948 0 6.83 3.92 9.52
8/13/2022 1:30:00 AM 13.75 56.75 0 6.83 3.92 9.54
8/13/2022 1:45:00 AM 13.71 56.678 0 6.82 3.92 9.55
8/13/2022 2:00:00 AM 13.67 56.606 0 6.78 3.93 9.56
8/13/2022 2:15:00 AM 13.67 56.606 0 6.75 3.9 9.55
8/13/2022 2:30:00 AM 13.4 56.12 0 6.74 3.91 9.63
8/13/2022 2:45:00 AM 13.32 55.976 0 6.71 3.93 9.66
8/13/2022 3:00:00 AM 13.42 56.156 0 6.7 3.93 9.62
8/13/2022 3:15:00 AM 13.33 55.994 0 6.69 3.89 9.64
8/13/2022 3:30:00 AM 13.24 55.832 0 6.69 3.92 9.67
8/13/2022 3:45:00 AM 13.18 55.724 0 6.68 3.89 9.68
8/13/2022 4:00:00 AM 13.19 55.742 0 6.7 3.91 9.67
8/13/2022 4:15:00 AM 13.17 55.706 0 6.69 3.94 9.68
8/13/2022 4:30:00 AM 13.13 55.634 0 6.67 3.93 9.67
8/13/2022 4:45:00 AM 13.06 55.508 0 6.7 4.01 9.69
8/13/2022 5:00:00 AM 12.94 55.292 0 6.67 3.93 9.71
8/13/2022 5:15:00 AM 12.83 55.094 0 6.71 3.92 9.75
8/13/2022 5:30:00 AM 12.76 54.968 0 6.66 3.96 9.77
8/13/2022 5:45:00 AM 12.77 54.986 0 6.69 3.91 9.77
8/13/2022 6:00:00 AM 12.71 54.878 0 6.71 3.92 9.79
8/13/2022 6:15:00 AM 12.6 54.68 0 6.71 3.94 9.84
8/13/2022 6:30:00 AM 12.59 54.662 0 6.69 3.85 9.86
8/13/2022 6:45:00 AM 12.68 54.824 0 6.71 3.93 9.85
8/13/2022 7:00:00 AM 12.67 54.806 0 6.72 3.94 9.87
8/13/2022 7:15:00 AM 12.55 54.59 0 6.74 3.92 9.92
8/13/2022 7:30:00 AM 12.56 54.608 0 6.75 3.91 9.94
8/13/2022 7:45:00 AM 12.55 54.59 0 6.75 3.93 9.97
8/13/2022 8:00:00 AM 12.51 54.518 0 6.76 3.93 9.97
8/13/2022 8:15:00 AM 12.54 54.572 0 6.78 3.94 9.99
8/13/2022 8:30:00 AM 12.69 54.842 0 6.79 3.97 9.96
8/13/2022 8:45:00 AM 12.75 54.95 0 6.79 3.9 9.97
8/13/2022 9:00:00 AM 12.84 55.112 0 6.81 3.94 9.96
8/13/2022 9:15:00 AM 12.92 55.256 0 6.84 3.91 9.98
8/13/2022 9:30:00 AM 13 55.4 0 6.84 3.91 9.96
8/13/2022 9:45:00 AM 13.1 55.58 0 6.84 3.9 9.98
8/13/2022 10:00:00 AM 13.21 55.778 0 6.87 3.9 9.97
8/13/2022 10:15:00 AM 13.33 55.994 0 6.85 3.87 9.98
8/13/2022 10:30:00 AM 13.49 56.282 0 6.87 3.87 9.97
8/13/2022 10:45:00 AM 13.65 56.57 0 6.9 3.89 9.95
8/13/2022 11:00:00 AM 13.8 56.84 0.001 6.87 3.9 9.92
8/13/2022 11:15:00 AM 14 57.2 0 6.92 3.85 9.91
8/13/2022 11:30:00 AM 14.61 58.298 0 6.93 3.78 9.79
8/13/2022 11:45:00 AM 15.1 59.18 0 6.92 3.73 9.72
8/13/2022 12:00:00 PM 15.49 59.882 0 6.95 3.75 9.64
8/13/2022 12:15:00 PM 15.82 60.476 0 6.97 3.74 9.59
8/13/2022 12:30:00 PM 16.35 61.43 0 6.99 3.77 9.52
8/13/2022 12:45:00 PM 16.71 62.078 0 6.99 3.75 9.5
8/13/2022 1:00:00 PM 17.08 62.744 0 7 3.81 9.47
8/13/2022 1:15:00 PM 17.25 63.05 0 7.01 3.74 9.52
8/13/2022 1:30:00 PM 17.48 63.464 0 7 3.69 9.51
8/13/2022 1:45:00 PM 17.64 63.752 0 7.03 3.65 9.58
8/13/2022 2:00:00 PM 17.37 63.266 0 7.05 3.75 9.75
8/13/2022 2:15:00 PM 17.24 63.032 0 7.02 3.75 9.86
8/13/2022 2:30:00 PM 17.59 63.662 0 7.05 3.79 9.72
8/13/2022 2:45:00 PM 17.59 63.662 0 7.04 3.76 9.67
8/13/2022 3:00:00 PM 17.34 63.212 0 7.04 3.78 9.66
8/13/2022 3:15:00 PM 17.19 62.942 0 7.03 3.8 9.59
8/13/2022 3:30:00 PM 17.02 62.636 0 7.04 3.76 9.57
8/13/2022 3:45:00 PM 16.9 62.42 0 6.99 3.8 9.53
8/13/2022 4:00:00 PM 16.66 61.988 0 7.01 3.76 9.44
8/13/2022 4:15:00 PM 16.4 61.52 0 7.01 3.76 9.43
8/13/2022 4:30:00 PM 16.43 61.574 0 7 3.82 9.47
8/13/2022 4:45:00 PM 16.17 61.106 0 6.97 3.82 9.35
8/13/2022 5:00:00 PM 15.97 60.746 0 6.93 3.88 9.28
8/13/2022 5:15:00 PM 15.89 60.602 0 6.93 3.83 9.29
8/13/2022 5:30:00 PM 15.65 60.17 0 6.93 3.79 9.34
8/13/2022 5:45:00 PM 15.81 60.458 0 6.93 3.83 9.24
8/13/2022 6:00:00 PM 15.76 60.368 0 6.89 3.8 9.22
8/13/2022 6:15:00 PM 15.72 60.296 0 6.89 3.81 9.21
8/13/2022 6:30:00 PM 15.67 60.206 0 6.89 3.79 9.21
8/13/2022 6:45:00 PM 15.63 60.134 0 6.9 3.84 9.2
8/13/2022 7:00:00 PM 15.58 60.044 0 6.86 3.86 9.19
8/13/2022 7:15:00 PM 15.54 59.972 0 6.86 3.92 9.19
8/13/2022 7:30:00 PM 15.49 59.882 0 6.87 3.88 9.19
8/13/2022 7:45:00 PM 15.44 59.792 0 6.88 3.85 9.18
8/13/2022 8:00:00 PM 15.39 59.702 0 6.85 3.89 9.17
8/13/2022 8:15:00 PM 15.32 59.576 0 6.86 3.89 9.16
8/13/2022 8:30:00 PM 15.22 59.396 0 6.86 3.91 9.17
8/13/2022 8:45:00 PM 15.15 59.27 0 6.86 3.91 9.17
8/13/2022 9:00:00 PM 15.09 59.162 0 6.87 3.92 9.18
8/13/2022 9:15:00 PM 15.02 59.036 0 6.86 3.95 9.19
8/13/2022 9:30:00 PM 14.96 58.928 0 6.85 3.92 9.2
8/13/2022 9:45:00 PM 14.83 58.694 0 6.82 3.93 9.22
8/13/2022 10:00:00 PM 14.79 58.622 0 6.85 3.93 9.24
8/13/2022 10:15:00 PM 14.65 58.37 0 6.83 3.94 9.28
8/13/2022 10:30:00 PM 14.6 58.28 0 6.84 3.95 9.3
8/13/2022 10:45:00 PM 14.58 58.244 0 6.85 3.92 9.29
8/13/2022 11:00:00 PM 14.49 58.082 0 6.82 3.91 9.32
8/13/2022 11:15:00 PM 14.41 57.938 0 6.85 3.96 9.35
8/13/2022 11:30:00 PM 14.36 57.848 0 6.81 3.95 9.36
8/13/2022 11:45:00 PM 14.26 57.668 0 6.83 3.92 9.39
8/14/2022 12:00:00 AM 14.19 57.542 0 6.83 3.95 9.41
8/14/2022 12:15:00 AM 14.16 57.488 0 6.83 3.94 9.39
8/14/2022 12:30:00 AM 14.05 57.29 0 6.84 3.92 9.43
8/14/2022 12:45:00 AM 14.04 57.272 0 6.82 3.97 9.43
8/14/2022 1:00:00 AM 13.92 57.056 0 6.84 3.92 9.46
8/14/2022 1:15:00 AM 13.87 56.966 0 6.81 3.92 9.47
8/14/2022 1:30:00 AM 13.82 56.876 0 6.8 3.96 9.49
8/14/2022 1:45:00 AM 13.73 56.714 0 6.81 3.92 9.51
8/14/2022 2:00:00 AM 13.7 56.66 0 6.83 3.94 9.52
8/14/2022 2:15:00 AM 13.66 56.588 0 6.8 3.93 9.53
8/14/2022 2:30:00 AM 13.56 56.408 0 6.81 3.91 9.57
8/14/2022 2:45:00 AM 13.5 56.3 0 6.83 3.94 9.56
8/14/2022 3:00:00 AM 13.41 56.138 0 6.77 3.92 9.59
8/14/2022 3:15:00 AM 13.44 56.192 0 6.82 3.92 9.58
8/14/2022 3:30:00 AM 13.35 56.03 0 6.8 3.94 9.6
8/14/2022 3:45:00 AM 13.21 55.778 0 6.83 3.94 9.63
8/14/2022 4:00:00 AM 13.26 55.868 0 6.76 3.91 9.61
8/14/2022 4:15:00 AM 13.22 55.796 0 6.8 3.96 9.62
8/14/2022 4:30:00 AM 13.24 55.832 0 6.8 3.99 9.6
8/14/2022 4:45:00 AM 13.14 55.652 0 6.79 3.95 9.62
8/14/2022 5:00:00 AM 13.02 55.436 0 6.76 3.98 9.68
8/14/2022 5:15:00 AM 13.02 55.436 0 6.78 3.96 9.68
8/14/2022 5:30:00 AM 12.94 55.292 0 6.77 3.96 9.7
8/14/2022 5:45:00 AM 12.9 55.22 0 6.77 3.94 9.72
8/14/2022 6:00:00 AM 12.91 55.238 0 6.79 3.93 9.69
8/14/2022 6:15:00 AM 12.7 54.86 0 6.74 3.96 9.78
8/14/2022 6:30:00 AM 12.83 55.094 0 6.78 3.96 9.74
8/14/2022 6:45:00 AM 12.71 54.878 0 6.76 3.96 9.78
8/14/2022 7:00:00 AM 12.71 54.878 0 6.78 4 9.82
8/14/2022 7:15:00 AM 12.73 54.914 0 6.77 4.01 9.85
8/14/2022 7:30:00 AM 12.7 54.86 0 6.78 3.94 9.92
8/14/2022 7:45:00 AM 12.78 55.004 0 6.76 3.95 9.93
8/14/2022 8:00:00 AM 12.92 55.256 0 6.79 3.95 9.99
8/14/2022 8:15:00 AM 13.07 55.526 0 6.8 3.96 9.98
8/14/2022 8:30:00 AM 13.14 55.652 0 6.82 3.99 9.98
8/14/2022 8:45:00 AM 13.16 55.688 0 6.84 3.93 9.95
8/14/2022 9:00:00 AM 13.22 55.796 0 6.81 3.92 9.95
8/14/2022 9:15:00 AM 13.28 55.904 0 6.85 3.93 9.95
8/14/2022 9:30:00 AM 13.37 56.066 0 6.86 3.92 9.95
8/14/2022 9:45:00 AM 13.45 56.21 0 6.84 3.93 9.92
8/14/2022 10:00:00 AM 13.53 56.354 0 6.86 3.92 9.91
8/14/2022 10:15:00 AM 13.61 56.498 0 6.87 3.97 9.92
8/14/2022 10:30:00 AM 13.72 56.696 0 6.85 3.92 9.92
8/14/2022 10:45:00 AM 13.85 56.93 0 6.87 3.96 9.91
8/14/2022 11:00:00 AM 14.01 57.218 0 6.9 3.98 9.88
8/14/2022 11:15:00 AM 14.19 57.542 0 6.86 3.93 9.86
8/14/2022 11:30:00 AM 14.89 58.802 0 6.91 3.75 9.69
8/14/2022 11:45:00 AM 15.57 60.026 0 6.93 3.71 9.56
8/14/2022 12:00:00 PM 15.82 60.476 0 6.94 3.8 9.61
8/14/2022 12:15:00 PM 15.92 60.656 0 6.98 3.78 9.69
8/14/2022 12:30:00 PM 16.32 61.376 0 6.97 3.79 9.65
8/14/2022 12:45:00 PM 16.32 61.376 0 7.01 3.78 9.71
8/14/2022 1:00:00 PM 16.4 61.52 0 7.01 3.72 9.73
8/14/2022 1:15:00 PM 16.2 61.16 0 7 3.74 9.81
8/14/2022 1:30:00 PM 16.95 62.51 0 7.02 3.71 9.68
8/14/2022 1:45:00 PM 16.77 62.186 0 7.03 3.68 9.77
8/14/2022 2:00:00 PM 17.06 62.708 0 7.04 3.72 9.84
8/14/2022 2:15:00 PM 17.47 63.446 0 7.06 3.72 9.79
8/14/2022 2:30:00 PM 17.57 63.626 0 7.04 3.68 9.77
8/14/2022 2:45:00 PM 17.51 63.518 0 7.04 3.76 9.75
8/14/2022 3:00:00 PM 17.35 63.23 0 7.04 3.73 9.68
8/14/2022 3:15:00 PM 17.18 62.924 0 7.03 3.76 9.65
8/14/2022 3:30:00 PM 17.08 62.744 0 7.04 3.75 9.64
8/14/2022 3:45:00 PM 16.6 61.88 0 7.04 3.79 9.55
8/14/2022 4:00:00 PM 16.4 61.52 0 6.98 3.74 9.56
8/14/2022 4:15:00 PM 16.3 61.34 0 7 3.74 9.59
8/14/2022 4:30:00 PM 16.22 61.196 0 6.99 3.76 9.55
8/14/2022 4:45:00 PM 16.13 61.034 0 6.99 3.79 9.55
8/14/2022 5:00:00 PM 16.07 60.926 0 6.98 3.77 9.55
8/14/2022 5:15:00 PM 16.04 60.872 0 6.96 3.78 9.53
8/14/2022 5:30:00 PM 15.94 60.692 0 6.95 3.77 9.48
8/14/2022 5:45:00 PM 15.89 60.602 0 6.94 3.78 9.47
8/14/2022 6:00:00 PM 15.85 60.53 0 6.93 3.79 9.44
8/14/2022 6:15:00 PM 15.81 60.458 0 6.93 3.8 9.43
8/14/2022 6:30:00 PM 15.77 60.386 0 6.9 3.8 9.39
8/14/2022 6:45:00 PM 15.72 60.296 0 6.88 3.83 9.33
8/14/2022 7:00:00 PM 15.67 60.206 0 6.9 3.8 9.3
8/14/2022 7:15:00 PM 15.62 60.116 0 6.88 3.81 9.25
8/14/2022 7:30:00 PM 15.57 60.026 0 6.87 3.81 9.21
8/14/2022 7:45:00 PM 15.52 59.936 0 6.85 3.87 9.18
8/14/2022 8:00:00 PM 15.48 59.864 0 6.83 3.83 9.13
8/14/2022 8:15:00 PM 15.44 59.792 0 6.84 3.85 9.1
8/14/2022 8:30:00 PM 15.4 59.72 0 6.85 3.84 9.08
8/14/2022 8:45:00 PM 15.37 59.666 0 6.81 3.83 9.07
8/14/2022 9:00:00 PM 15.34 59.612 0 6.84 4.07 9.05
8/14/2022 9:15:00 PM 15.31 59.558 0 6.8 4.11 9.06
8/14/2022 9:30:00 PM 15.27 59.486 0 6.82 4.11 9.08
8/14/2022 9:45:00 PM 15.25 59.45 0 6.83 4.1 9.08
8/14/2022 10:00:00 PM 15.22 59.396 0 6.8 4.15 9.08
8/14/2022 10:15:00 PM 15.19 59.342 0 6.83 4.09 9.1
8/14/2022 10:30:00 PM 15.16 59.288 0 6.79 4.07 9.12
8/14/2022 10:45:00 PM 15.14 59.252 0 6.82 4.08 9.09
8/14/2022 11:00:00 PM 15.12 59.216 0 6.82 4.09 9.09
8/14/2022 11:15:00 PM 15.08 59.144 0 6.82 4.07 9.12
8/14/2022 11:30:00 PM 15.06 59.108 0 6.81 4.08 9.12
8/14/2022 11:45:00 PM 15.04 59.072 0 6.82 4.1 9.12
8/15/2022 12:00:00 AM 15.01 59.018 0 6.78 4.09 9.13
8/15/2022 12:15:00 AM 14.99 58.982 0 6.81 4.11 9.12
8/15/2022 12:30:00 AM 14.97 58.946 0 6.81 4.06 9.12
8/15/2022 12:45:00 AM 14.94 58.892 0 6.78 4.08 9.13
8/15/2022 1:00:00 AM 14.92 58.856 0 6.79 4.08 9.13
8/15/2022 1:15:00 AM 14.89 58.802 0 6.8 4.09 9.13
8/15/2022 1:30:00 AM 14.87 58.766 0 6.77 4.09 9.16
8/15/2022 1:45:00 AM 14.85 58.73 0 6.78 4.09 9.15
8/15/2022 2:00:00 AM 14.83 58.694 0 6.8 4.03 9.16
8/15/2022 2:15:00 AM 14.81 58.658 0 6.8 4.12 9.17
8/15/2022 2:30:00 AM 14.79 58.622 0 6.8 4.05 9.17
8/15/2022 2:45:00 AM 14.77 58.586 0 6.8 4.01 9.18
8/15/2022 3:00:00 AM 14.75 58.55 0 6.8 4.04 9.18
8/15/2022 3:15:00 AM 14.74 58.532 0 6.8 4.05 9.19
8/15/2022 3:30:00 AM 14.72 58.496 0 6.78 4.04 9.18
8/15/2022 3:45:00 AM 14.7 58.46 0 6.8 4.04 9.19
8/15/2022 4:00:00 AM 14.68 58.424 0 6.79 4.06 9.21
8/15/2022 4:15:00 AM 14.66 58.388 0 6.8 4.07 9.2
8/15/2022 4:30:00 AM 14.65 58.37 0 6.8 4.07 9.21
8/15/2022 4:45:00 AM 14.63 58.334 0 6.77 4.06 9.21
8/15/2022 5:00:00 AM 14.62 58.316 0 6.78 4.1 9.22
8/15/2022 5:15:00 AM 14.6 58.28 0 6.8 4.09 9.22
8/15/2022 5:30:00 AM 14.58 58.244 0 6.76 4.08 9.23
8/15/2022 5:45:00 AM 14.57 58.226 0 6.8 4.04 9.23
8/15/2022 6:00:00 AM 14.56 58.208 0 6.8 4.05 9.24
8/15/2022 6:15:00 AM 14.55 58.19 0 6.8 4.08 9.25
8/15/2022 6:30:00 AM 14.53 58.154 0 6.77 4.08 9.26
8/15/2022 6:45:00 AM 14.53 58.154 0 6.78 4.09 9.29
8/15/2022 7:00:00 AM 14.51 58.118 0 6.81 4.08 9.33
8/15/2022 7:15:00 AM 14.49 58.082 0 6.78 4.04 9.36
8/15/2022 7:30:00 AM 14.47 58.046 0 6.79 4.03 9.39
8/15/2022 7:45:00 AM 14.45 58.01 0 6.81 4.04 9.4
8/15/2022 8:00:00 AM 14.44 57.992 0 6.82 4.03 9.43
8/15/2022 8:15:00 AM 14.46 58.028 0 6.83 4.05 9.46
8/15/2022 8:30:00 AM 14.46 58.028 0 6.84 4.05 9.47
8/15/2022 8:45:00 AM 14.48 58.064 0 6.8 3.99 9.51
8/15/2022 9:00:00 AM 14.53 58.154 0 6.83 4.06 9.53
8/15/2022 9:15:00 AM 14.59 58.262 0 6.83 4.03 9.53
8/15/2022 9:30:00 AM 14.66 58.388 0 6.85 4.01 9.58
8/15/2022 9:45:00 AM 14.8 58.64 0 6.86 3.99 9.67
8/15/2022 10:00:00 AM 14.91 58.838 0 6.89 4.03 9.76
8/15/2022 10:15:00 AM 14.98 58.964 0 6.9 4.06 9.75
8/15/2022 10:30:00 AM 15.09 59.162 0 6.9 4.02 9.85
8/15/2022 10:45:00 AM 15.3 59.54 0 6.92 4.01 9.84
8/15/2022 11:00:00 AM 15.38 59.684 0 6.93 3.95 9.83
8/15/2022 11:15:00 AM 15.59 60.062 0 6.96 3.93 9.84
8/15/2022 11:30:00 AM 15.8 60.44 0 6.96 3.9 9.78
8/15/2022 11:45:00 AM 15.92 60.656 0 6.98 3.92 9.8
8/15/2022 12:00:00 PM 16.06 60.908 0 7 3.91 9.8
8/15/2022 12:15:00 PM 16.17 61.106 0 7.02 3.96 9.81
8/15/2022 12:30:00 PM 16.2 61.16 0 7.01 3.89 9.82
8/15/2022 12:45:00 PM 16.35 61.43 0 7.03 3.91 9.81
8/15/2022 1:00:00 PM 16.43 61.574 0 7.04 3.89 9.82
8/15/2022 1:15:00 PM 16.51 61.718 0 7.04 4.02 9.81
8/15/2022 1:30:00 PM 17.03 62.654 0 7.04 3.97 9.72
8/15/2022 1:45:00 PM 16.86 62.348 0 7.04 3.96 9.77
8/15/2022 2:00:00 PM 17.48 63.464 0 7.05 3.95 9.8
8/15/2022 2:15:00 PM 17.6 63.68 0 7.06 3.91 9.76
8/15/2022 2:30:00 PM 17.67 63.806 0 7.07 3.93 9.76
8/15/2022 2:45:00 PM 17.38 63.284 0 7.04 3.97 9.64
8/15/2022 3:00:00 PM 17.48 63.464 0 7.07 3.89 9.72
8/15/2022 3:15:00 PM 17.21 62.978 0 7.07 3.8 9.67
8/15/2022 3:30:00 PM 17.04 62.672 0 7.04 3.95 9.72
8/15/2022 3:45:00 PM 16.71 62.078 0 7.05 3.78 9.62
8/15/2022 4:00:00 PM 16.58 61.844 0 7.03 3.81 9.59
8/15/2022 4:15:00 PM 16.46 61.628 0 7.02 3.84 9.55
8/15/2022 4:30:00 PM 16.38 61.484 0 7 3.85 9.52
8/15/2022 4:45:00 PM 16.3 61.34 0 7 3.88 9.51
8/15/2022 5:00:00 PM 16.24 61.232 0 6.99 3.86 9.52
8/15/2022 5:15:00 PM 16.18 61.124 0 6.97 3.87 9.5
8/15/2022 5:30:00 PM 16.16 61.088 0 6.98 3.87 9.51
8/15/2022 5:45:00 PM 16.09 60.962 0 6.96 3.87 9.46
8/15/2022 6:00:00 PM 16.07 60.926 0 6.98 3.86 9.49
8/15/2022 6:15:00 PM 16.04 60.872 0 6.97 3.88 9.47
8/15/2022 6:30:00 PM 15.96 60.728 0 6.95 3.89 9.38
8/15/2022 6:45:00 PM 15.86 60.548 0 6.91 3.88 9.31
8/15/2022 7:00:00 PM 15.79 60.422 0 6.91 3.88 9.29
8/15/2022 7:15:00 PM 15.74 60.332 0 6.9 3.89 9.24
8/15/2022 7:30:00 PM 15.68 60.224 0 6.89 3.92 9.19
8/15/2022 7:45:00 PM 15.62 60.116 0 6.89 3.89 9.15
8/15/2022 8:00:00 PM 15.56 60.008 0 6.84 3.92 9.12
8/15/2022 8:15:00 PM 15.5 59.9 0 6.85 3.98 9.08
8/15/2022 8:30:00 PM 15.43 59.774 0 6.87 3.92 9.07
8/15/2022 8:45:00 PM 15.38 59.684 0 6.81 3.96 9.06
8/15/2022 9:00:00 PM 15.34 59.612 0 6.84 3.97 9.08
8/15/2022 9:15:00 PM 15.3 59.54 0 6.83 3.99 9.06
8/15/2022 9:30:00 PM 15.27 59.486 0 6.84 3.96 9.07
8/15/2022 9:45:00 PM 15.24 59.432 0 6.85 3.91 9.09
8/15/2022 10:00:00 PM 15.21 59.378 0 6.85 3.95 9.09
8/15/2022 10:15:00 PM 15.19 59.342 0 6.84 3.99 9.1
8/15/2022 10:30:00 PM 15.16 59.288 0 6.84 3.96 9.1
8/15/2022 10:45:00 PM 15.13 59.234 0 6.83 3.98 9.11
8/15/2022 11:00:00 PM 15.11 59.198 0 6.83 4 9.11
8/15/2022 11:15:00 PM 15.06 59.108 0 6.83 3.97 9.11
8/15/2022 11:30:00 PM 15.02 59.036 0 6.82 3.96 9.12
8/15/2022 11:45:00 PM 14.98 58.964 0 6.83 4 9.12
8/16/2022 12:00:00 AM 14.96 58.928 0 6.83 3.98 9.13
8/16/2022 12:15:00 AM 14.94 58.892 0 6.79 3.99 9.13
8/16/2022 12:30:00 AM 14.91 58.838 0 6.79 3.99 9.13
8/16/2022 12:45:00 AM 14.9 58.82 0 6.83 4.01 9.14
8/16/2022 1:00:00 AM 14.88 58.784 0 6.81 3.93 9.14
8/16/2022 1:15:00 AM 14.86 58.748 0 6.8 3.92 9.15
8/16/2022 1:30:00 AM 14.84 58.712 0 6.8 3.92 9.15
8/16/2022 1:45:00 AM 14.82 58.676 0 6.79 3.93 9.17
8/16/2022 2:00:00 AM 14.79 58.622 0 6.81 3.91 9.18
8/16/2022 2:15:00 AM 14.76 58.568 0 6.8 3.98 9.18
8/16/2022 2:30:00 AM 14.73 58.514 0 6.78 3.97 9.18
8/16/2022 2:45:00 AM 14.71 58.478 0 6.79 3.99 9.2
8/16/2022 3:00:00 AM 14.68 58.424 0 6.8 3.97 9.2
8/16/2022 3:15:00 AM 14.66 58.388 0 6.8 4 9.21
8/16/2022 3:30:00 AM 14.65 58.37 0 6.79 4 9.21
8/16/2022 3:45:00 AM 14.63 58.334 0 6.79 3.93 9.22
8/16/2022 4:00:00 AM 14.62 58.316 0 6.79 3.96 9.22
8/16/2022 4:15:00 AM 14.61 58.298 0 6.79 3.99 9.22
8/16/2022 4:30:00 AM 14.59 58.262 0 6.8 3.95 9.23
8/16/2022 4:45:00 AM 14.58 58.244 0 6.79 3.97 9.22
8/16/2022 5:00:00 AM 14.57 58.226 0 6.79 3.94 9.23
8/16/2022 5:15:00 AM 14.55 58.19 0 6.78 3.9 9.23
8/16/2022 5:30:00 AM 14.53 58.154 0 6.81 3.95 9.23
8/16/2022 5:45:00 AM 14.52 58.136 0 6.78 3.95 9.24
8/16/2022 6:00:00 AM 14.51 58.118 0 6.79 3.94 9.24
8/16/2022 6:15:00 AM 14.49 58.082 0 6.78 3.93 9.26
8/16/2022 6:30:00 AM 14.48 58.064 0 6.79 3.9 9.27
8/16/2022 6:45:00 AM 14.47 58.046 0 6.79 3.92 9.3
8/16/2022 7:00:00 AM 14.47 58.046 0 6.8 4.02 9.34
8/16/2022 7:15:00 AM 14.48 58.064 0 6.82 3.94 9.36
8/16/2022 7:30:00 AM 14.48 58.064 0 6.77 3.89 9.4
8/16/2022 7:45:00 AM 14.5 58.1 0 6.8 3.93 9.47
8/16/2022 8:00:00 AM 14.55 58.19 0 6.83 3.96 9.56
8/16/2022 8:15:00 AM 14.59 58.262 0 6.84 3.97 9.62
8/16/2022 8:30:00 AM 14.65 58.37 0 6.84 3.93 9.67
8/16/2022 8:45:00 AM 14.69 58.442 0 6.85 3.98 9.7
8/16/2022 9:00:00 AM 14.72 58.496 0 6.87 3.95 9.71
8/16/2022 9:15:00 AM 14.77 58.586 0 6.88 3.97 9.76
8/16/2022 9:30:00 AM 14.85 58.73 0 6.85 3.9 9.77
8/16/2022 9:45:00 AM 14.91 58.838 0 6.87 3.86 9.79
8/16/2022 10:00:00 AM 15 59 0 6.91 3.94 9.84
8/16/2022 10:15:00 AM 15.12 59.216 0 6.91 3.83 9.85
8/16/2022 10:30:00 AM 15.13 59.234 0 6.92 3.94 9.78
8/16/2022 10:45:00 AM 15.2 59.36 0 6.91 3.91 9.84
8/16/2022 11:00:00 AM 15.22 59.396 0 6.93 3.87 9.82
8/16/2022 11:15:00 AM 15.32 59.576 0 6.93 3.9 9.85
8/16/2022 11:30:00 AM 15.37 59.666 0 6.92 3.98 9.83
8/16/2022 11:45:00 AM 15.76 60.368 0 6.98 3.85 9.84
8/16/2022 12:00:00 PM 16.46 61.628 0 6.98 3.82 9.67
8/16/2022 12:15:00 PM 16.65 61.97 0 6.97 3.83 9.55
8/16/2022 12:30:00 PM 17.18 62.924 0 6.99 3.79 9.44
8/16/2022 12:45:00 PM 17.87 64.166 0 6.98 3.77 9.38
8/16/2022 1:00:00 PM 17.75 63.95 0 7 3.73 9.39
8/16/2022 1:15:00 PM 17.66 63.788 0 7.02 3.71 9.5
8/16/2022 1:30:00 PM 18.5 65.3 0 7.04 3.63 9.44
8/16/2022 1:45:00 PM 17.28 63.104 0 6.99 3.82 9.47
8/16/2022 2:00:00 PM 16.64 61.952 0 6.96 4.86 9.41
8/16/2022 2:15:00 PM 16.21 61.178 0 6.97 3.87 9.39
8/16/2022 2:30:00 PM 16.03 60.854 0 6.93 3.95 9.39
8/16/2022 2:45:00 PM 15.99 60.782 0 6.95 3.85 9.46
8/16/2022 3:00:00 PM 15.98 60.764 0 6.98 3.91 9.56
8/16/2022 3:15:00 PM 16.03 60.854 0 6.95 3.89 9.65
8/16/2022 3:30:00 PM 15.99 60.782 0 6.97 3.85 9.59
8/16/2022 3:45:00 PM 15.86 60.548 0 6.98 3.83 9.62
8/16/2022 4:00:00 PM 15.83 60.494 0 6.98 3.87 9.59
8/16/2022 4:15:00 PM 15.79 60.422 0 6.93 3.81 9.55
8/16/2022 4:30:00 PM 15.86 60.548 0 6.99 3.8 9.68
8/16/2022 4:45:00 PM 15.88 60.584 0 6.94 3.8 9.59
8/16/2022 5:00:00 PM 15.9 60.62 0 6.99 3.81 9.63
8/16/2022 5:15:00 PM 15.9 60.62 0 6.96 3.81 9.6
8/16/2022 5:30:00 PM 15.85 60.53 0 6.95 3.8 9.56
8/16/2022 5:45:00 PM 15.75 60.35 0 6.95 3.82 9.45
8/16/2022 6:00:00 PM 15.69 60.242 0 6.95 3.83 9.43
8/16/2022 6:15:00 PM 15.65 60.17 0 6.88 3.89 9.44
8/16/2022 6:30:00 PM 15.61 60.098 0 6.91 4.19 9.32
8/16/2022 6:45:00 PM 15.59 60.062 0 6.9 3.94 9.27
8/16/2022 7:00:00 PM 15.57 60.026 0 6.89 3.93 9.22
8/16/2022 7:15:00 PM 15.57 60.026 0 6.87 3.94 9.23
8/16/2022 7:30:00 PM 15.54 59.972 0 6.89 3.97 9.2
8/16/2022 7:45:00 PM 15.52 59.936 0 6.88 3.96 9.15
8/16/2022 8:00:00 PM 15.44 59.792 0 6.88 3.99 9.12
8/16/2022 8:15:00 PM 15.39 59.702 0 6.87 3.95 9.1
8/16/2022 8:30:00 PM 15.37 59.666 0 6.85 4.01 9.08
8/16/2022 8:45:00 PM 15.35 59.63 0 6.85 3.98 9.06
8/16/2022 9:00:00 PM 15.32 59.576 0 6.79 4.01 9.06
8/16/2022 9:15:00 PM 15.28 59.504 0 6.82 3.96 9.07
8/16/2022 9:30:00 PM 15.26 59.468 0 6.82 3.98 9.08
8/16/2022 9:45:00 PM 15.22 59.396 0 6.82 3.99 9.09
8/16/2022 10:00:00 PM 15.17 59.306 0 6.81 4.01 9.1
8/16/2022 10:15:00 PM 15.12 59.216 0 6.81 4 9.11
8/16/2022 10:30:00 PM 15.08 59.144 0 6.81 4 9.12
8/16/2022 10:45:00 PM 15.07 59.126 0 6.83 4.05 9.13
8/16/2022 11:00:00 PM 15.04 59.072 0.001 6.83 3.97 9.13
8/16/2022 11:15:00 PM 15 59 0.001 6.82 4.03 9.15
8/16/2022 11:30:00 PM 14.96 58.928 0.002 6.84 3.99 9.16
8/16/2022 11:45:00 PM 14.94 58.892 0.002 6.84 4.01 9.17
8/17/2022 12:00:00 AM 14.92 58.856 0.003 6.84 3.99 9.19
8/17/2022 12:15:00 AM 14.9 58.82 0.006 6.86 4.01 9.21
8/17/2022 12:30:00 AM 14.87 58.766 0.007 6.79 4.02 9.22
8/17/2022 12:45:00 AM 14.84 58.712 0.008 6.85 4.03 9.24
8/17/2022 1:00:00 AM 14.82 58.676 0.007 6.86 4.01 9.25
8/17/2022 1:15:00 AM 14.78 58.604 0.007 6.8 4.01 9.27
8/17/2022 1:30:00 AM 14.74 58.532 0.007 6.87 4.06 9.28
8/17/2022 1:45:00 AM 14.7 58.46 0.006 6.86 4.02 9.3
8/17/2022 2:00:00 AM 14.67 58.406 0.005 6.85 4.06 9.3
8/17/2022 2:15:00 AM 14.64 58.352 0.005 6.81 4.07 9.31
8/17/2022 2:30:00 AM 14.62 58.316 0.005 6.84 4.05 9.32
8/17/2022 2:45:00 AM 14.58 58.244 0.004 6.86 4.02 9.33
8/17/2022 3:00:00 AM 14.55 58.19 0.004 6.84 4.04 9.33
8/17/2022 3:15:00 AM 14.52 58.136 0.004 6.84 4.03 9.33
8/17/2022 3:30:00 AM 14.49 58.082 0.004 6.85 4.04 9.34
8/17/2022 3:45:00 AM 14.44 57.992 0.002 6.85 4.07 9.36
8/17/2022 4:00:00 AM 14.43 57.974 0.003 6.83 4.04 9.36
8/17/2022 4:15:00 AM 14.41 57.938 0.002 6.84 4.04 9.37
8/17/2022 4:30:00 AM 14.38 57.884 0.003 6.79 4.05 9.37
8/17/2022 4:45:00 AM 14.35 57.83 0.002 6.81 4.03 9.38
8/17/2022 5:00:00 AM 14.31 57.758 0.002 6.83 4.08 9.39
8/17/2022 5:15:00 AM 14.27 57.686 0.002 6.84 4.04 9.4
8/17/2022 5:30:00 AM 14.23 57.614 0.002 6.84 4.1 9.41
8/17/2022 5:45:00 AM 14.2 57.56 0.002 6.82 4.08 9.41
8/17/2022 6:00:00 AM 14.18 57.524 0.001 6.83 4.04 9.42
8/17/2022 6:15:00 AM 14.18 57.524 0.002 6.81 4.06 9.42
8/17/2022 6:30:00 AM 14.15 57.47 0.001 6.84 4.05 9.45
8/17/2022 6:45:00 AM 14.13 57.434 0.001 6.79 3.91 9.5
8/17/2022 7:00:00 AM 14.13 57.434 0.001 6.82 3.89 9.54
8/17/2022 7:15:00 AM 14.12 57.416 0.002 6.85 3.94 9.56
8/17/2022 7:30:00 AM 14.13 57.434 0.001 6.8 3.91 9.59
8/17/2022 7:45:00 AM 14.13 57.434 0.001 6.86 3.89 9.61
8/17/2022 8:00:00 AM 14.15 57.47 0.001 6.87 3.93 9.66
8/17/2022 8:15:00 AM 14.2 57.56 0.001 6.87 3.87 9.74
8/17/2022 8:30:00 AM 14.27 57.686 0.002 6.89 3.91 9.83
8/17/2022 8:45:00 AM 14.37 57.866 0.001 6.86 3.86 9.88
8/17/2022 9:00:00 AM 14.43 57.974 0.001 6.91 3.88 9.91
8/17/2022 9:15:00 AM 14.51 58.118 0.001 6.92 3.89 9.93
8/17/2022 9:30:00 AM 14.56 58.208 0.001 6.92 3.84 9.94
8/17/2022 9:45:00 AM 14.57 58.226 0.002 6.94 3.82 9.96
8/17/2022 10:00:00 AM 14.65 58.37 0.001 6.87 3.85 9.99
8/17/2022 10:15:00 AM 14.75 58.55 0.002 6.92 3.84 10.02
8/17/2022 10:30:00 AM 14.91 58.838 0.002 6.96 3.84 10.02
8/17/2022 10:45:00 AM 14.91 58.838 0.002 6.95 3.83 9.99
8/17/2022 11:00:00 AM 14.95 58.91 0.002 6.93 3.82 9.99
8/17/2022 11:15:00 AM 14.89 58.802 0.002 6.92 3.92 9.84
8/17/2022 11:30:00 AM 14.85 58.73 0.002 6.93 3.84 9.88
8/17/2022 11:45:00 AM 14.85 58.73 0.002 6.91 3.88 9.83
8/17/2022 12:00:00 PM 14.84 58.712 0.002 6.93 3.87 9.82
8/17/2022 12:15:00 PM 14.81 58.658 0.002 6.86 3.87 9.73
8/17/2022 12:30:00 PM 14.81 58.658 0.002 6.92 3.87 9.72
8/17/2022 12:45:00 PM 14.8 58.64 0.003 6.9 3.88 9.71
8/17/2022 1:00:00 PM 14.81 58.658 0.003 6.88 4.6 9.74
8/17/2022 1:15:00 PM 14.9 58.82 0.002 6.92 4.01 9.85
8/17/2022 1:30:00 PM 15.03 59.054 0.002 6.96 3.76 9.92
8/17/2022 1:45:00 PM 15.05 59.09 0.002 6.97 3.79 9.93
8/17/2022 2:00:00 PM 15.2 59.36 0.002 6.95 3.77 9.97
8/17/2022 2:15:00 PM 15.37 59.666 0.003 6.98 3.78 10.03
8/17/2022 2:30:00 PM 15.54 59.972 0.003 7 3.76 9.98
8/17/2022 2:45:00 PM 16.03 60.854 0.002 7.02 4.04 9.94
8/17/2022 3:00:00 PM 16.04 60.872 0.004 6.97 4.07 9.86
8/17/2022 3:15:00 PM 15.94 60.692 0.002 7.02 4.08 9.9
8/17/2022 3:30:00 PM 16.14 61.052 0.004 6.97 4.1 9.86
8/17/2022 3:45:00 PM 15.99 60.782 0.002 7 4.12 9.8
8/17/2022 4:00:00 PM 15.92 60.656 0.003 7.01 4.01 9.79
8/17/2022 4:15:00 PM 15.85 60.53 0.003 6.99 3.85 9.78
8/17/2022 4:30:00 PM 15.87 60.566 0.002 7.02 3.83 9.8
8/17/2022 4:45:00 PM 15.69 60.242 0.003 6.98 4.09 9.54
8/17/2022 5:00:00 PM 15.7 60.26 0.005 6.96 4.19 9.52
8/17/2022 5:15:00 PM 15.53 59.954 0.016 6.96 4.47 9.52
8/17/2022 5:30:00 PM 15.46 59.828 0.021 6.95 4.05 9.4
8/17/2022 5:45:00 PM 15.44 59.792 0.023 6.86 4.03 9.42
8/17/2022 6:00:00 PM 15.44 59.792 0.03 6.92 4.05 9.48
8/17/2022 6:15:00 PM 15.41 59.738 0.035 6.94 4.12 9.43
8/17/2022 6:30:00 PM 15.38 59.684 0.036 6.87 4.15 9.38
8/17/2022 6:45:00 PM 15.35 59.63 0.036 6.91 4 9.33
8/17/2022 7:00:00 PM 15.33 59.594 0.036 6.92 3.95 9.32
8/17/2022 7:15:00 PM 15.31 59.558 0.036 6.91 3.98 9.31
8/17/2022 7:30:00 PM 15.28 59.504 0.035 6.88 4 9.31
8/17/2022 7:45:00 PM 15.24 59.432 0.033 6.91 3.95 9.28
8/17/2022 8:00:00 PM 15.2 59.36 0.028 6.85 3.98 9.25
8/17/2022 8:15:00 PM 15.16 59.288 0.024 6.87 3.92 9.23
8/17/2022 8:30:00 PM 15.12 59.216 0.022 6.86 3.88 9.21
8/17/2022 8:45:00 PM 15.07 59.126 0.019 6.88 3.97 9.2
8/17/2022 9:00:00 PM 15.02 59.036 0.018 6.81 3.94 9.2
8/17/2022 9:15:00 PM 14.98 58.964 0.016 6.88 4.03 9.2
8/17/2022 9:30:00 PM 14.93 58.874 0.015 6.87 3.97 9.21
8/17/2022 9:45:00 PM 14.89 58.802 0.014 6.8 3.95 9.22
8/17/2022 10:00:00 PM 14.85 58.73 0.014 6.87 3.98 9.22
8/17/2022 10:15:00 PM 14.82 58.676 0.013 6.86 3.98 9.23
8/17/2022 10:30:00 PM 14.78 58.604 0.013 6.81 3.97 9.24
8/17/2022 10:45:00 PM 14.75 58.55 0.013 6.85 3.96 9.25
8/17/2022 11:00:00 PM 14.71 58.478 0.012 6.87 3.97 9.27
8/17/2022 11:15:00 PM 14.69 58.442 0.011 6.85 3.94 9.27
8/17/2022 11:30:00 PM 14.67 58.406 0.01 6.8 3.96 9.27
8/17/2022 11:45:00 PM 14.64 58.352 0.009 6.85 3.94 9.28
8/18/2022 12:00:00 AM 14.59 58.262 0.008 6.87 3.98 9.3
8/18/2022 12:15:00 AM 14.54 58.172 0.007 6.81 3.96 9.3
8/18/2022 12:30:00 AM 14.5 58.1 0.006 6.86 3.92 9.31
8/18/2022 12:45:00 AM 14.46 58.028 0.006 6.84 3.94 9.31
8/18/2022 1:00:00 AM 14.43 57.974 0.006 6.83 3.92 9.33
8/18/2022 1:15:00 AM 14.39 57.902 0.006 6.86 4.05 9.33
8/18/2022 1:30:00 AM 14.34 57.812 0.005 6.78 3.96 9.34
8/18/2022 1:45:00 AM 14.3 57.74 0.005 6.83 3.98 9.36
8/18/2022 2:00:00 AM 14.25 57.65 0.005 6.84 3.98 9.36
8/18/2022 2:15:00 AM 14.2 57.56 0.005 6.84 3.93 9.38
8/18/2022 2:30:00 AM 14.16 57.488 0.005 6.78 3.94 9.38
8/18/2022 2:45:00 AM 14.1 57.38 0.005 6.83 4.01 9.4
8/18/2022 3:00:00 AM 14.07 57.326 0.005 6.84 3.99 9.41
8/18/2022 3:15:00 AM 14.03 57.254 0.005 6.83 3.94 9.41
8/18/2022 3:30:00 AM 14.01 57.218 0.005 6.84 3.99 9.42
8/18/2022 3:45:00 AM 13.98 57.164 0.005 6.84 3.97 9.43
8/18/2022 4:00:00 AM 13.94 57.092 0.004 6.77 3.98 9.44
8/18/2022 4:15:00 AM 13.9 57.02 0.003 6.84 3.99 9.45
8/18/2022 4:30:00 AM 13.86 56.948 0.003 6.81 3.95 9.46
8/18/2022 4:45:00 AM 13.82 56.876 0.004 6.83 3.98 9.47
8/18/2022 5:00:00 AM 13.76 56.768 0.004 6.82 3.96 9.49
8/18/2022 5:15:00 AM 13.73 56.714 0.003 6.8 3.95 9.5
8/18/2022 5:30:00 AM 13.69 56.642 0.003 6.83 3.95 9.51
8/18/2022 5:45:00 AM 13.66 56.588 0.004 6.82 3.99 9.51
8/18/2022 6:00:00 AM 13.62 56.516 0.004 6.82 4 9.53
8/18/2022 6:15:00 AM 13.57 56.426 0.005 6.81 3.91 9.54
8/18/2022 6:30:00 AM 13.54 56.372 0.003 6.82 3.91 9.57
8/18/2022 6:45:00 AM 13.53 56.354 0.005 6.81 3.92 9.59
8/18/2022 7:00:00 AM 13.52 56.336 0.005 6.81 4.04 9.63
8/18/2022 7:15:00 AM 13.5 56.3 0.003 6.82 3.94 9.65
8/18/2022 7:30:00 AM 13.49 56.282 0.003 6.84 4.34 9.68
8/18/2022 7:45:00 AM 13.49 56.282 0.005 6.85 3.91 9.71
8/18/2022 8:00:00 AM 13.45 56.21 0.005 6.81 3.92 9.74
8/18/2022 8:15:00 AM 13.48 56.264 0.005 6.82 3.96 9.77
8/18/2022 8:30:00 AM 13.5 56.3 0.005 6.84 3.94 9.79
8/18/2022 8:45:00 AM 13.53 56.354 0.005 6.87 3.93 9.82
8/18/2022 9:00:00 AM 13.57 56.426 0.004 6.87 4.38 9.83
8/18/2022 9:15:00 AM 13.61 56.498 0.005 6.88 3.87 9.84
8/18/2022 9:30:00 AM 13.66 56.588 0.006 6.87 3.88 9.85
8/18/2022 9:45:00 AM 13.71 56.678 0.005 6.89 3.89 9.86
8/18/2022 10:00:00 AM 13.77 56.786 0.006 6.87 3.86 9.87
8/18/2022 10:15:00 AM 13.85 56.93 0.006 6.88 3.88 9.88
8/18/2022 10:30:00 AM 13.94 57.092 0.006 6.91 3.86 9.9
8/18/2022 10:45:00 AM 14.07 57.326 0.006 6.91 3.84 9.9
8/18/2022 11:00:00 AM 14.21 57.578 0.006 6.92 3.89 9.89
8/18/2022 11:15:00 AM 14.45 58.01 0.005 6.88 3.86 9.88
8/18/2022 11:30:00 AM 15.12 59.216 0.003 6.96 3.95 9.82
8/18/2022 11:45:00 AM 15.35 59.63 0.002 6.92 3.82 9.71
8/18/2022 12:00:00 PM 15.86 60.548 0.002 6.96 3.76 9.68
8/18/2022 12:15:00 PM 16.2 61.16 0.002 6.99 4.14 9.7
8/18/2022 12:30:00 PM 16.04 60.872 0.003 7 3.73 9.79
8/18/2022 12:45:00 PM 16.51 61.718 0.003 7 3.74 9.65
8/18/2022 1:00:00 PM 15.71 60.278 0.003 6.95 3.95 9.71
8/18/2022 1:15:00 PM 15.49 59.882 0.005 6.98 3.98 9.65
8/18/2022 1:30:00 PM 15.85 60.53 0.004 7 3.91 9.8
8/18/2022 1:45:00 PM 16.19 61.142 0.005 6.98 3.95 9.79
8/18/2022 2:00:00 PM 16.22 61.196 0.005 7.02 3.9 9.85
8/18/2022 2:15:00 PM 16.57 61.826 0.005 7 3.93 9.91
8/18/2022 2:30:00 PM 16.58 61.844 0.003 7.01 3.94 9.85
8/18/2022 2:45:00 PM 16.45 61.61 0.005 7.03 3.9 9.73
8/18/2022 3:00:00 PM 15.98 60.764 0.004 7 3.95 9.59
8/18/2022 3:15:00 PM 15.8 60.44 0.003 7 4.01 9.62
8/18/2022 3:30:00 PM 15.67 60.206 0.003 6.97 4 9.48
8/18/2022 3:45:00 PM 15.68 60.224 0.032 7.02 4.01 9.7
8/18/2022 4:00:00 PM 15.59 60.062 0.035 6.91 4.07 9.53
8/18/2022 4:15:00 PM 15.56 60.008 0.034 6.94 4.34 9.39
8/18/2022 4:30:00 PM 15.59 60.062 0.034 6.94 4.4 9.43
8/18/2022 4:45:00 PM 15.65 60.17 0.032 6.78 5.34 9.4
8/18/2022 5:00:00 PM 15.64 60.152 0.032 6.84 5.45 9.37
8/18/2022 5:15:00 PM 15.65 60.17 0.032 6.83 5.71 9.34
8/18/2022 5:30:00 PM 15.71 60.278 0.032 6.88 5.87 9.45
8/18/2022 5:45:00 PM 15.67 60.206 0.033 6.85 9.42 9.47
8/18/2022 6:00:00 PM 15.61 60.098 0.033 6.79 7.63 9.49
8/18/2022 6:15:00 PM 15.53 59.954 0.033 6.82 6.12 9.5
8/18/2022 6:30:00 PM 15.46 59.828 0.034 6.85 7.42 9.47
8/18/2022 6:45:00 PM 15.39 59.702 0.035 6.88 9.69 9.44
8/18/2022 7:00:00 PM 15.36 59.648 0.035 6.82 10.35 9.4
8/18/2022 7:15:00 PM 15.32 59.576 0.035 6.88 10.3 9.4
8/18/2022 7:30:00 PM 15.29 59.522 0.035 6.87 9.61 9.38
8/18/2022 7:45:00 PM 15.26 59.468 0.035 6.83 8.74 9.36
8/18/2022 8:00:00 PM 15.21 59.378 0.035 6.86 7.93 9.35
8/18/2022 8:15:00 PM 15.17 59.306 0.035 6.85 7.36 9.36
8/18/2022 8:30:00 PM 15.12 59.216 0.035 6.84 6.94 9.37
8/18/2022 8:45:00 PM 15.08 59.144 0.036 6.85 6.56 9.39
8/18/2022 9:00:00 PM 15.03 59.054 0.036 6.85 6.39 9.41
8/18/2022 9:15:00 PM 14.98 58.964 0.036 6.82 6.22 9.42
8/18/2022 9:30:00 PM 14.94 58.892 0.036 6.85 6.13 9.43
8/18/2022 9:45:00 PM 14.9 58.82 0.037 6.88 6.06 9.44
8/18/2022 10:00:00 PM 14.86 58.748 0.037 6.88 5.99 9.45
8/18/2022 10:15:00 PM 14.84 58.712 0.037 6.81 6.03 9.47
8/18/2022 10:30:00 PM 14.83 58.694 0.038 6.89 5.9 9.52
8/18/2022 10:45:00 PM 14.82 58.676 0.038 6.89 5.85 9.55
8/18/2022 11:00:00 PM 14.79 58.622 0.038 6.92 5.58 9.57
8/18/2022 11:15:00 PM 14.75 58.55 0.038 6.91 5.5 9.59
8/18/2022 11:30:00 PM 14.71 58.478 0.038 6.9 5.43 9.6
8/18/2022 11:45:00 PM 14.66 58.388 0.037 6.9 5.29 9.62
8/19/2022 12:00:00 AM 14.62 58.316 0.037 6.9 5.26 9.63
8/19/2022 12:15:00 AM 14.58 58.244 0.037 6.84 5.17 9.63
8/19/2022 12:30:00 AM 14.54 58.172 0.037 6.9 5.08 9.63
8/19/2022 12:45:00 AM 14.51 58.118 0.037 6.88 5.04 9.64
8/19/2022 1:00:00 AM 14.48 58.064 0.036 6.83 5.06 9.64
8/19/2022 1:15:00 AM 14.46 58.028 0.036 6.9 5.04 9.64
8/19/2022 1:30:00 AM 14.44 57.992 0.036 6.86 5.01 9.65
8/19/2022 1:45:00 AM 14.42 57.956 0.037 6.89 4.97 9.65
8/19/2022 2:00:00 AM 14.41 57.938 0.037 6.88 4.94 9.65
8/19/2022 2:15:00 AM 14.39 57.902 0.037 6.89 4.96 9.64
8/19/2022 2:30:00 AM 14.38 57.884 0.037 6.9 4.9 9.64
8/19/2022 2:45:00 AM 14.36 57.848 0.037 6.84 4.96 9.64
8/19/2022 3:00:00 AM 14.35 57.83 0.037 6.89 4.92 9.65
8/19/2022 3:15:00 AM 14.34 57.812 0.037 6.9 4.89 9.65
8/19/2022 3:30:00 AM 14.33 57.794 0.037 6.87 4.89 9.65
8/19/2022 3:45:00 AM 14.31 57.758 0.037 6.88 4.91 9.65
8/19/2022 4:00:00 AM 14.3 57.74 0.037 6.9 4.89 9.65
8/19/2022 4:15:00 AM 14.29 57.722 0.037 6.83 4.87 9.65
8/19/2022 4:30:00 AM 14.28 57.704 0.037 6.87 4.81 9.65
8/19/2022 4:45:00 AM 14.26 57.668 0.037 6.86 4.8 9.65
8/19/2022 5:00:00 AM 14.23 57.614 0.037 6.87 4.79 9.65
8/19/2022 5:15:00 AM 14.22 57.596 0.037 6.88 4.82 9.65
8/19/2022 5:30:00 AM 14.21 57.578 0.037 6.85 4.78 9.65
8/19/2022 5:45:00 AM 14.19 57.542 0.037 6.86 4.77 9.65
8/19/2022 6:00:00 AM 14.17 57.506 0.037 6.85 4.78 9.66
8/19/2022 6:15:00 AM 14.16 57.488 0.037 6.85 4.82 9.66
8/19/2022 6:30:00 AM 14.14 57.452 0.037 6.87 4.77 9.67
8/19/2022 6:45:00 AM 14.11 57.398 0.037 6.85 4.81 9.69
8/19/2022 7:00:00 AM 14.09 57.362 0.037 6.87 4.8 9.72
8/19/2022 7:15:00 AM 14.07 57.326 0.037 6.87 4.74 9.74
8/19/2022 7:30:00 AM 14.06 57.308 0.037 6.88 4.68 9.75
8/19/2022 7:45:00 AM 14.03 57.254 0.037 6.85 4.68 9.78
8/19/2022 8:00:00 AM 14.02 57.236 0.037 6.88 4.67 9.79
8/19/2022 8:15:00 AM 14.01 57.218 0.037 6.9 4.75 9.81
8/19/2022 8:30:00 AM 14.01 57.218 0.037 6.92 4.72 9.83
8/19/2022 8:45:00 AM 14.01 57.218 0.037 6.91 4.71 9.86
8/19/2022 9:00:00 AM 14.03 57.254 0.037 6.93 4.71 9.88
8/19/2022 9:15:00 AM 14.05 57.29 0.037 6.89 4.68 9.88
8/19/2022 9:30:00 AM 14.08 57.344 0.037 6.94 4.65 9.89
8/19/2022 9:45:00 AM 14.12 57.416 0.037 6.9 4.58 9.89
8/19/2022 10:00:00 AM 14.16 57.488 0.037 6.95 4.61 9.9
8/19/2022 10:15:00 AM 14.22 57.596 0.037 6.95 4.59 9.91
8/19/2022 10:30:00 AM 14.29 57.722 0.037 6.96 4.58 9.93
8/19/2022 10:45:00 AM 14.37 57.866 0.037 6.95 4.51 9.93
8/19/2022 11:00:00 AM 14.47 58.046 0.037 6.97 4.52 9.93
8/19/2022 11:15:00 AM 14.59 58.262 0.037 6.97 4.46 9.94
8/19/2022 11:30:00 AM 14.79 58.622 0.037 6.98 4.47 9.94
8/19/2022 11:45:00 AM 14.99 58.982 0.037 6.99 4.49 9.94
8/19/2022 12:00:00 PM 15.18 59.324 0.037 6.98 4.38 9.93
8/19/2022 12:15:00 PM 15.4 59.72 0.037 7 4.37 9.93
8/19/2022 12:30:00 PM 15.64 60.152 0.037 7.01 4.4 9.92
8/19/2022 12:45:00 PM 15.84 60.512 0.037 7.02 4.34 9.91
8/19/2022 1:00:00 PM 16.08 60.944 0.037 7.01 4.37 9.91
8/19/2022 1:15:00 PM 16.3 61.34 0.037 7.03 4.31 9.89
8/19/2022 1:30:00 PM 16.37 61.466 0.037 7.05 4.31 9.85
8/19/2022 1:45:00 PM 16.32 61.376 0.037 7.02 4.31 9.81
8/19/2022 2:00:00 PM 16.86 62.348 0.037 7.05 4.32 9.83
8/19/2022 2:15:00 PM 16.67 62.006 0.037 7.03 4.32 9.73
8/19/2022 2:30:00 PM 16.24 61.232 0.037 7.01 4.37 9.65
8/19/2022 2:45:00 PM 16.1 60.98 0.037 7 4.35 9.62
8/19/2022 3:00:00 PM 16.27 61.286 0.037 7 4.51 9.7
8/19/2022 3:15:00 PM 16.48 61.664 0.037 7.01 4.32 9.69
8/19/2022 3:30:00 PM 16.07 60.926 0.037 6.99 4.34 9.62
8/19/2022 3:45:00 PM 16.02 60.836 0.037 6.98 4.31 9.6
8/19/2022 4:00:00 PM 16.11 60.998 0.037 7 4.34 9.69
8/19/2022 4:15:00 PM 16.07 60.926 0.037 6.96 4.32 9.62
8/19/2022 4:30:00 PM 16.17 61.106 0.037 6.99 4.35 9.65
8/19/2022 4:45:00 PM 16.04 60.872 0.037 6.99 4.33 9.55
8/19/2022 5:00:00 PM 16.03 60.854 0.037 6.97 4.38 9.52
8/19/2022 5:15:00 PM 16.03 60.854 0.037 6.97 4.37 9.52
8/19/2022 5:30:00 PM 16.01 60.818 0.037 6.95 4.48 9.49
8/19/2022 5:45:00 PM 15.98 60.764 0.037 6.95 4.34 9.45
8/19/2022 6:00:00 PM 15.95 60.71 0.037 6.93 4.32 9.42
8/19/2022 6:15:00 PM 15.94 60.692 0.037 6.91 4.33 9.44
8/19/2022 6:30:00 PM 15.89 60.602 0.037 6.91 4.35 9.36
8/19/2022 6:45:00 PM 15.85 60.53 0.037 6.91 4.34 9.34
8/19/2022 7:00:00 PM 15.81 60.458 0.037 6.84 4.34 9.32
8/19/2022 7:15:00 PM 15.77 60.386 0.037 6.87 4.37 9.29
8/19/2022 7:30:00 PM 15.73 60.314 0.037 6.85 4.4 9.27
8/19/2022 7:45:00 PM 15.69 60.242 0.038 6.86 4.38 9.25
8/19/2022 8:00:00 PM 15.65 60.17 0.038 6.87 4.33 9.24
8/19/2022 8:15:00 PM 15.61 60.098 0.038 6.87 4.35 9.22
8/19/2022 8:30:00 PM 15.57 60.026 0.038 6.87 4.39 9.22
8/19/2022 8:45:00 PM 15.53 59.954 0.038 6.84 4.39 9.22
8/19/2022 9:00:00 PM 15.49 59.882 0.038 6.88 4.42 9.23
8/19/2022 9:15:00 PM 15.45 59.81 0.038 6.85 4.38 9.23
8/19/2022 9:30:00 PM 15.42 59.756 0.038 6.87 4.47 9.24
8/19/2022 9:45:00 PM 15.38 59.684 0.038 6.87 4.4 9.25
8/19/2022 10:00:00 PM 15.36 59.648 0.038 6.86 4.39 9.24
8/19/2022 10:15:00 PM 15.32 59.576 0.038 6.87 4.41 9.24
8/19/2022 10:30:00 PM 15.28 59.504 0.038 6.87 4.42 9.26
8/19/2022 10:45:00 PM 15.24 59.432 0.038 6.88 4.41 9.26
8/19/2022 11:00:00 PM 15.21 59.378 0.038 6.87 4.41 9.28
8/19/2022 11:15:00 PM 15.18 59.324 0.038 6.87 4.4 9.27
8/19/2022 11:30:00 PM 15.14 59.252 0.038 6.88 4.41 9.29
8/19/2022 11:45:00 PM 15.11 59.198 0.037 6.84 4.38 9.29
8/20/2022 12:00:00 AM 15.09 59.162 0.037 6.88 4.46 9.29
8/20/2022 12:15:00 AM 15.04 59.072 0.037 6.86 4.55 9.3
8/20/2022 12:30:00 AM 15.02 59.036 0.037 6.87 4.49 9.3
8/20/2022 12:45:00 AM 14.98 58.964 0.037 6.87 4.44 9.31
8/20/2022 1:00:00 AM 14.95 58.91 0.037 6.85 4.41 9.32
8/20/2022 1:15:00 AM 14.92 58.856 0.037 6.88 4.43 9.33
8/20/2022 1:30:00 AM 14.88 58.784 0.038 6.88 4.42 9.34
8/20/2022 1:45:00 AM 14.84 58.712 0.037 6.88 4.35 9.35
8/20/2022 2:00:00 AM 14.81 58.658 0.037 6.82 4.42 9.36
8/20/2022 2:15:00 AM 14.78 58.604 0.037 6.87 4.43 9.36
8/20/2022 2:30:00 AM 14.75 58.55 0.037 6.88 4.38 9.38
8/20/2022 2:45:00 AM 14.72 58.496 0.037 6.84 4.38 9.38
8/20/2022 3:00:00 AM 14.69 58.442 0.037 6.86 4.44 9.38
8/20/2022 3:15:00 AM 14.67 58.406 0.037 6.86 4.4 9.39
8/20/2022 3:30:00 AM 14.65 58.37 0.037 6.87 4.4 9.39
8/20/2022 3:45:00 AM 14.63 58.334 0.037 6.84 4.39 9.4
8/20/2022 4:00:00 AM 14.62 58.316 0.037 6.83 4.42 9.41
8/20/2022 4:15:00 AM 14.59 58.262 0.037 6.87 4.43 9.41
8/20/2022 4:30:00 AM 14.57 58.226 0.037 6.87 4.42 9.42
8/20/2022 4:45:00 AM 14.55 58.19 0.037 6.84 4.4 9.42
8/20/2022 5:00:00 AM 14.52 58.136 0.037 6.87 4.37 9.43
8/20/2022 5:15:00 AM 14.5 58.1 0.037 6.84 4.45 9.43
8/20/2022 5:30:00 AM 14.48 58.064 0.037 6.81 4.46 9.43
8/20/2022 5:45:00 AM 14.45 58.01 0.037 6.86 4.42 9.44
8/20/2022 6:00:00 AM 14.43 57.974 0.037 6.86 4.45 9.45
8/20/2022 6:15:00 AM 14.41 57.938 0.037 6.85 4.46 9.46
8/20/2022 6:30:00 AM 14.38 57.884 0.037 6.83 4.84 9.48
8/20/2022 6:45:00 AM 14.36 57.848 0.037 6.86 4.48 9.5
8/20/2022 7:00:00 AM 14.35 57.83 0.037 6.84 4.53 9.53
8/20/2022 7:15:00 AM 14.33 57.794 0.037 6.86 4.48 9.55
8/20/2022 7:30:00 AM 14.32 57.776 0.037 6.84 5.54 9.58
8/20/2022 7:45:00 AM 14.31 57.758 0.037 6.86 4.46 9.61
8/20/2022 8:00:00 AM 14.32 57.776 0.037 6.88 4.56 9.67
8/20/2022 8:15:00 AM 14.32 57.776 0.037 6.87 4.48 9.66
8/20/2022 8:30:00 AM 14.33 57.794 0.037 6.87 4.48 9.68
8/20/2022 8:45:00 AM 14.35 57.83 0.037 6.88 4.52 9.7
8/20/2022 9:00:00 AM 14.37 57.866 0.037 6.86 4.4 9.72
8/20/2022 9:15:00 AM 14.4 57.92 0.037 6.86 4.38 9.73
8/20/2022 9:30:00 AM 14.43 57.974 0.037 6.88 4.39 9.75
8/20/2022 9:45:00 AM 14.48 58.064 0.037 6.88 4.36 9.77
8/20/2022 10:00:00 AM 14.53 58.154 0.036 6.84 4.36 9.78
8/20/2022 10:15:00 AM 14.59 58.262 0.037 6.88 4.41 9.8
8/20/2022 10:30:00 AM 14.69 58.442 0.037 6.88 4.37 9.82
8/20/2022 10:45:00 AM 14.8 58.64 0.037 6.92 4.32 9.84
8/20/2022 11:00:00 AM 14.92 58.856 0.037 6.93 4.5 9.84
8/20/2022 11:15:00 AM 15.09 59.162 0.036 6.94 4.3 9.85
8/20/2022 11:30:00 AM 15.32 59.576 0.035 6.92 4.17 9.84
8/20/2022 11:45:00 AM 15.52 59.936 0.035 6.97 4.24 9.86
8/20/2022 12:00:00 PM 15.78 60.404 0.035 6.99 4.22 9.89
8/20/2022 12:15:00 PM 15.99 60.782 0.035 6.97 4.3 9.88
8/20/2022 12:30:00 PM 16.24 61.232 0.034 7.02 4.21 9.88
8/20/2022 12:45:00 PM 16.08 60.944 0.036 6.99 4.35 9.83
8/20/2022 1:00:00 PM 16.34 61.412 0.035 7.02 4.23 9.85
8/20/2022 1:15:00 PM 16.06 60.908 0.036 6.98 4.24 9.73
8/20/2022 1:30:00 PM 15.91 60.638 0.036 6.98 4.27 9.69
8/20/2022 1:45:00 PM 15.84 60.512 0.036 6.98 4.66 9.7
8/20/2022 2:00:00 PM 16.42 61.556 0.036 7 4.29 9.83
8/20/2022 2:15:00 PM 16.8 62.24 0.036 7 4.31 9.83
8/20/2022 2:30:00 PM 16.93 62.474 0.036 7.02 4.31 9.82
8/20/2022 2:45:00 PM 16.94 62.492 0.036 7 4.25 9.78
8/20/2022 3:00:00 PM 16.78 62.204 0.036 7.02 4.25 9.73
8/20/2022 3:15:00 PM 16.68 62.024 0.036 6.99 4.25 9.73
8/20/2022 3:30:00 PM 16.41 61.538 0.036 7.01 4.51 9.62
8/20/2022 3:45:00 PM 16.4 61.52 0.036 7 4.29 9.59
8/20/2022 4:00:00 PM 16.48 61.664 0.036 7.01 4.31 9.66
8/20/2022 4:15:00 PM 16.43 61.574 0.036 7 4.31 9.63
8/20/2022 4:30:00 PM 16.46 61.628 0.036 6.98 4.31 9.64
8/20/2022 4:45:00 PM 16.35 61.43 0.036 7 4.32 9.51
8/20/2022 5:00:00 PM 16.29 61.322 0.035 6.92 4.28 9.44
8/20/2022 5:15:00 PM 16.26 61.268 0.035 6.96 4.3 9.39
8/20/2022 5:30:00 PM 16.24 61.232 0.035 6.92 4.3 9.34
8/20/2022 5:45:00 PM 16.21 61.178 0.035 6.92 4.32 9.3
8/20/2022 6:00:00 PM 16.2 61.16 0.035 6.91 4.28 9.27
8/20/2022 6:15:00 PM 16.17 61.106 0.035 6.9 4.29 9.24
8/20/2022 6:30:00 PM 16.15 61.07 0.034 6.91 4.41 9.24
8/20/2022 6:45:00 PM 16.13 61.034 0.034 6.88 4.32 9.23
8/20/2022 7:00:00 PM 16.11 60.998 0.034 6.89 4.33 9.21
8/20/2022 7:15:00 PM 16.07 60.926 0.034 6.9 4.34 9.17
8/20/2022 7:30:00 PM 16.04 60.872 0.033 6.86 4.3 9.15
8/20/2022 7:45:00 PM 16 60.8 0.032 6.85 4.33 9.13
8/20/2022 8:00:00 PM 15.97 60.746 0.032 6.86 4.36 9.1
8/20/2022 8:15:00 PM 15.94 60.692 0.031 6.85 4.38 9.09
8/20/2022 8:30:00 PM 15.9 60.62 0.031 6.87 4.35 9.09
8/20/2022 8:45:00 PM 15.86 60.548 0.03 6.84 4.33 9.09
8/20/2022 9:00:00 PM 15.82 60.476 0.03 6.87 4.38 9.1
8/20/2022 9:15:00 PM 15.79 60.422 0.03 6.83 4.32 9.1
8/20/2022 9:30:00 PM 15.74 60.332 0.029 6.87 4.33 9.11
8/20/2022 9:45:00 PM 15.7 60.26 0.028 6.88 4.37 9.12
8/20/2022 10:00:00 PM 15.66 60.188 0.028 6.84 4.35 9.13
8/20/2022 10:15:00 PM 15.62 60.116 0.028 6.84 4.33 9.14
8/20/2022 10:30:00 PM 15.58 60.044 0.027 6.85 4.36 9.15
8/20/2022 10:45:00 PM 15.55 59.99 0.027 6.84 4.32 9.16
8/20/2022 11:00:00 PM 15.51 59.918 0.026 6.85 4.31 9.17
8/20/2022 11:15:00 PM 15.47 59.846 0.026 6.87 4.32 9.17
8/20/2022 11:30:00 PM 15.43 59.774 0.025 6.85 4.34 9.18
8/20/2022 11:45:00 PM 15.4 59.72 0.025 6.87 4.37 9.19
8/21/2022 12:00:00 AM 15.37 59.666 0.024 6.86 4.38 9.19
8/21/2022 12:15:00 AM 15.33 59.594 0.024 6.85 4.35 9.19
8/21/2022 12:30:00 AM 15.3 59.54 0.023 6.83 4.34 9.21
8/21/2022 12:45:00 AM 15.27 59.486 0.023 6.86 4.33 9.21
8/21/2022 1:00:00 AM 15.24 59.432 0.022 6.86 4.36 9.22
8/21/2022 1:15:00 AM 15.21 59.378 0.022 6.83 4.4 9.22
8/21/2022 1:30:00 AM 15.18 59.324 0.022 6.83 4.37 9.23
8/21/2022 1:45:00 AM 15.15 59.27 0.022 6.86 4.35 9.23
8/21/2022 2:00:00 AM 15.13 59.234 0.021 6.83 4.31 9.24
8/21/2022 2:15:00 AM 15.1 59.18 0.021 6.85 4.34 9.24
8/21/2022 2:30:00 AM 15.08 59.144 0.021 6.85 4.33 9.25
8/21/2022 2:45:00 AM 15.06 59.108 0.021 6.86 4.32 9.25
8/21/2022 3:00:00 AM 15.04 59.072 0.02 6.8 4.3 9.26
8/21/2022 3:15:00 AM 15.02 59.036 0.02 6.84 4.33 9.26
8/21/2022 3:30:00 AM 15 59 0.019 6.85 4.35 9.27
8/21/2022 3:45:00 AM 14.98 58.964 0.019 6.79 4.3 9.27
8/21/2022 4:00:00 AM 14.96 58.928 0.019 6.85 4.35 9.27
8/21/2022 4:30:00 AM 14.93 58.874 0.019 6.79 4.37 9.28
8/21/2022 4:45:00 AM 14.92 58.856 0.019 6.81 4.38 9.28
8/21/2022 5:00:00 AM 14.91 58.838 0.019 6.84 4.33 9.28
8/21/2022 5:15:00 AM 14.89 58.802 0.019 6.82 4.37 9.29
8/21/2022 5:30:00 AM 14.88 58.784 0.019 6.81 4.38 9.29
8/21/2022 5:45:00 AM 14.87 58.766 0.019 6.83 4.31 9.3
8/21/2022 6:00:00 AM 14.86 58.748 0.019 6.84 4.34 9.3
8/21/2022 6:15:00 AM 14.85 58.73 0.019 6.83 4.36 9.3
8/21/2022 6:30:00 AM 14.85 58.73 0.02 6.82 4.37 9.31
8/21/2022 6:45:00 AM 14.84 58.712 0.02 6.84 4.34 9.34
8/21/2022 7:00:00 AM 14.85 58.73 0.02 6.83 4.36 9.37
8/21/2022 7:15:00 AM 14.85 58.73 0.02 6.8 4.35 9.4
8/21/2022 7:30:00 AM 14.86 58.748 0.021 6.82 4.29 9.43
8/21/2022 7:45:00 AM 14.86 58.748 0.021 6.85 4.33 9.44
8/21/2022 8:00:00 AM 14.86 58.748 0.021 6.85 4.34 9.44
8/21/2022 8:15:00 AM 14.89 58.802 0.021 6.85 4.33 9.53
8/21/2022 8:30:00 AM 14.92 58.856 0.021 6.84 4.3 9.56
8/21/2022 8:45:00 AM 14.95 58.91 0.021 6.84 4.27 9.58
8/21/2022 9:00:00 AM 15.03 59.054 0.021 6.89 4.31 9.67
8/21/2022 9:15:00 AM 15.07 59.126 0.022 6.89 4.27 9.6
8/21/2022 9:30:00 AM 15.08 59.144 0.022 6.88 4.27 9.54
8/21/2022 9:45:00 AM 15.08 59.144 0.023 6.87 4.25 9.5
8/21/2022 10:00:00 AM 15.15 59.27 0.023 6.9 4.3 9.63
8/21/2022 10:15:00 AM 15.23 59.414 0.023 6.91 4.24 9.72
8/21/2022 10:30:00 AM 15.31 59.558 0.023 6.9 4.25 9.79
8/21/2022 10:45:00 AM 15.38 59.684 0.023 6.92 4.27 9.76
8/21/2022 11:00:00 AM 15.47 59.846 0.023 6.95 4.21 9.8
8/21/2022 11:15:00 AM 15.58 60.044 0.022 6.98 4.28 9.85
8/21/2022 11:30:00 AM 15.51 59.918 0.025 6.95 4.32 9.65
8/21/2022 11:45:00 AM 15.52 59.936 0.026 6.95 4.32 9.64
8/21/2022 12:00:00 PM 15.51 59.918 0.027 6.92 4.38 9.65
8/21/2022 12:15:00 PM 15.56 60.008 0.028 6.96 4.3 9.69
8/21/2022 12:30:00 PM 15.56 60.008 0.028 6.94 4.39 9.64
8/21/2022 12:45:00 PM 15.61 60.098 0.029 6.95 4.36 9.72
8/21/2022 1:00:00 PM 15.91 60.638 0.029 6.95 4.33 9.83
8/21/2022 1:15:00 PM 16 60.8 0.029 7 4.29 9.84
8/21/2022 1:30:00 PM 16.1 60.98 0.03 7.01 4.3 9.89
8/21/2022 1:45:00 PM 15.88 60.584 0.032 6.94 4.31 9.57
8/21/2022 2:00:00 PM 15.78 60.404 0.032 6.95 4.34 9.43
8/21/2022 2:15:00 PM 15.72 60.296 0.033 6.93 4.34 9.39
8/21/2022 2:30:00 PM 15.76 60.368 0.036 6.92 4.97 9.3
8/21/2022 2:45:00 PM 15.75 60.35 0.036 6.93 4.9 9.32
8/21/2022 3:00:00 PM 15.67 60.206 0.037 6.9 4.61 9.24
8/21/2022 3:15:00 PM 15.64 60.152 0.036 6.84 4.65 9.19
8/21/2022 3:30:00 PM 15.62 60.116 0.036 6.88 4.64 9.18
8/21/2022 3:45:00 PM 15.61 60.098 0.036 6.9 4.62 9.22
8/21/2022 4:00:00 PM 15.61 60.098 0.036 6.89 4.62 9.25
8/21/2022 4:15:00 PM 15.61 60.098 0.036 6.8 4.76 9.28
8/21/2022 4:30:00 PM 15.65 60.17 0.036 6.92 4.83 9.45
8/21/2022 4:45:00 PM 15.7 60.26 0.036 6.92 4.73 9.55
8/21/2022 5:00:00 PM 15.75 60.35 0.036 6.97 4.81 9.62
8/21/2022 5:15:00 PM 15.77 60.386 0.036 6.95 4.86 9.66
8/21/2022 5:30:00 PM 15.71 60.278 0.036 6.97 4.87 9.57
8/21/2022 5:45:00 PM 15.65 60.17 0.036 6.97 4.84 9.53
8/21/2022 6:00:00 PM 15.62 60.116 0.036 6.97 4.82 9.55
8/21/2022 6:15:00 PM 15.59 60.062 0.036 6.96 4.85 9.56
8/21/2022 6:30:00 PM 15.56 60.008 0.036 6.92 4.92 9.58
8/21/2022 6:45:00 PM 15.51 59.918 0.036 6.9 6.74 9.54
8/21/2022 7:00:00 PM 15.48 59.864 0.037 6.84 8.75 9.56
8/21/2022 7:15:00 PM 15.45 59.81 0.036 6.84 8.62 9.58
8/21/2022 7:30:00 PM 15.4 59.72 0.036 6.82 9.16 9.58
8/21/2022 7:45:00 PM 15.38 59.684 0.035 6.8 8.61 9.58
8/21/2022 8:00:00 PM 15.41 59.738 0.035 6.79 8.57 9.55
8/21/2022 8:15:00 PM 15.53 59.954 0.035 6.78 9.6 9.53
8/21/2022 8:30:00 PM 15.71 60.278 0.035 6.73 9.21 9.49
8/21/2022 8:45:00 PM 15.85 60.53 0.035 6.79 8.69 9.46
8/21/2022 9:00:00 PM 15.99 60.782 0.035 6.77 7.69 9.43
8/21/2022 9:15:00 PM 16.1 60.98 0.036 6.78 7.72 9.4
8/21/2022 9:30:00 PM 16.2 61.16 0.036 6.79 7.28 9.38
8/21/2022 9:45:00 PM 16.27 61.286 0.036 6.8 6.59 9.36
8/21/2022 10:00:00 PM 16.32 61.376 0.036 6.8 6.79 9.34
8/21/2022 10:15:00 PM 16.36 61.448 0.036 6.7 7.22 9.33
8/21/2022 10:30:00 PM 16.39 61.502 0.036 6.8 6.39 9.32
8/21/2022 10:45:00 PM 16.4 61.52 0.036 6.81 6.37 9.31
8/21/2022 11:00:00 PM 16.41 61.538 0.036 6.8 6.22 9.3
8/21/2022 11:15:00 PM 16.42 61.556 0.036 6.83 6.02 9.3
8/21/2022 11:30:00 PM 16.41 61.538 0.036 6.76 6.03 9.29
8/21/2022 11:45:00 PM 16.41 61.538 0.037 6.81 5.88 9.29
8/22/2022 12:00:00 AM 16.4 61.52 0.037 6.75 6.05 9.29
8/22/2022 12:15:00 AM 16.38 61.484 0.037 6.79 6.46 9.3
8/22/2022 12:30:00 AM 16.36 61.448 0.037 6.8 6.05 9.29
8/22/2022 12:45:00 AM 16.34 61.412 0.037 6.82 6.14 9.29
8/22/2022 1:00:00 AM 16.33 61.394 0.037 6.8 5.64 9.29
8/22/2022 1:15:00 AM 16.31 61.358 0.037 6.82 6 9.3
8/22/2022 1:30:00 AM 16.29 61.322 0.037 6.79 5.9 9.3
8/22/2022 1:45:00 AM 16.27 61.286 0.037 6.8 5.92 9.29
8/22/2022 2:00:00 AM 16.25 61.25 0.037 6.79 6.01 9.3
8/22/2022 2:15:00 AM 16.23 61.214 0.037 6.79 5.87 9.3
8/22/2022 2:30:00 AM 16.21 61.178 0.037 6.73 5.81 9.3
8/22/2022 2:45:00 AM 16.19 61.142 0.037 6.78 5.78 9.3
8/22/2022 3:00:00 AM 16.17 61.106 0.037 6.78 5.74 9.3
8/22/2022 3:15:00 AM 16.14 61.052 0.037 6.7 5.75 9.3
8/22/2022 3:30:00 AM 16.13 61.034 0.037 6.79 6.99 9.31
8/22/2022 3:45:00 AM 16.13 61.034 0.037 6.75 5.87 9.29
8/22/2022 4:00:00 AM 16.1 60.98 0.037 6.75 5.78 9.28
8/22/2022 4:15:00 AM 16.09 60.962 0.037 6.78 5.82 9.28
8/22/2022 4:30:00 AM 16.09 60.962 0.037 6.71 5.8 9.29
8/22/2022 4:45:00 AM 16.07 60.926 0.037 6.74 5.79 9.28
8/22/2022 5:00:00 AM 16.05 60.89 0.037 6.73 6.03 9.27
8/22/2022 5:15:00 AM 16.03 60.854 0.037 6.78 6.5 9.28
8/22/2022 5:30:00 AM 16.01 60.818 0.037 6.78 6.48 9.28
8/22/2022 5:45:00 AM 15.99 60.782 0.037 6.73 8.26 9.29
8/22/2022 6:00:00 AM 15.97 60.746 0.037 6.77 6.24 9.3
8/22/2022 6:15:00 AM 15.96 60.728 0.037 6.77 6.48 9.3
8/22/2022 6:30:00 AM 15.94 60.692 0.037 6.7 6.94 9.31
8/22/2022 6:45:00 AM 15.92 60.656 0.037 6.76 5.98 9.32
8/22/2022 7:00:00 AM 15.9 60.62 0.037 6.77 6.47 9.33
8/22/2022 7:15:00 AM 15.89 60.602 0.037 6.75 6.28 9.34
8/22/2022 7:30:00 AM 15.88 60.584 0.037 6.76 6.4 9.38
8/22/2022 7:45:00 AM 15.88 60.584 0.037 6.71 6.37 9.43
8/22/2022 8:00:00 AM 15.87 60.566 0.037 6.77 6.44 9.45
8/22/2022 8:15:00 AM 15.87 60.566 0.037 6.77 6.53 9.49
8/22/2022 8:30:00 AM 15.89 60.602 0.037 6.77 6.53 9.54
8/22/2022 8:45:00 AM 15.89 60.602 0.037 6.79 6.5 9.54
8/22/2022 9:00:00 AM 15.87 60.566 0.037 6.81 6.31 9.5
8/22/2022 9:15:00 AM 15.89 60.602 0.037 6.8 6.37 9.54
8/22/2022 9:30:00 AM 15.91 60.638 0.037 6.81 6.39 9.59
8/22/2022 9:45:00 AM 15.9 60.62 0.037 6.8 6.25 9.55
8/22/2022 10:00:00 AM 15.9 60.62 0.037 6.78 6.39 9.55
8/22/2022 10:15:00 AM 15.91 60.638 0.037 6.79 6.34 9.57
8/22/2022 10:30:00 AM 15.94 60.692 0.037 6.83 6.09 9.63
8/22/2022 10:45:00 AM 16.02 60.836 0.037 6.83 5.89 9.7
8/22/2022 11:00:00 AM 16.06 60.908 0.037 6.85 5.97 9.73
8/22/2022 11:15:00 AM 16.1 60.98 0.037 6.91 5.94 9.73
8/22/2022 11:30:00 AM 16.16 61.088 0.037 6.91 5.92 9.75
8/22/2022 11:45:00 AM 16.15 61.07 0.037 6.93 5.92 9.67
8/22/2022 12:00:00 PM 16.2 61.16 0.037 6.96 6.19 9.71
8/22/2022 12:15:00 PM 16.2 61.16 0.037 6.95 5.91 9.67
8/22/2022 12:30:00 PM 16.26 61.268 0.037 6.96 5.9 9.73
8/22/2022 12:45:00 PM 16.27 61.286 0.037 6.93 6.04 9.7
8/22/2022 1:00:00 PM 16.23 61.214 0.037 6.93 5.93 9.61
8/22/2022 1:15:00 PM 16.67 62.006 0.037 6.94 5.9 9.7
8/22/2022 1:30:00 PM 17.11 62.798 0.037 6.98 5.78 9.69
8/22/2022 1:45:00 PM 17.22 62.996 0.037 6.99 5.71 9.65
8/22/2022 2:00:00 PM 16.93 62.474 0.037 6.99 5.79 9.63
8/22/2022 2:15:00 PM 17.43 63.374 0.037 7.03 6.18 9.64
8/22/2022 2:30:00 PM 16.92 62.456 0.037 7.02 6.2 9.54
8/22/2022 2:45:00 PM 16.88 62.384 0.056 7.55 3.03 9.34
8/22/2022 3:00:00 PM 16.75 62.15 0.035 6.76 2.14 9.37
8/22/2022 3:15:00 PM 17.01 62.618 0.035 6.73 2.24 9.44
8/22/2022 3:30:00 PM 16.8 62.24 0.035 6.7 1.89 9.42
8/22/2022 3:45:00 PM 16.76 62.168 0.034 6.67 1.85 9.39
8/22/2022 4:00:00 PM 16.76 62.168 0.577 6.67 1.81 9.37
8/22/2022 4:15:00 PM 16.77 62.186 0.796 6.64 1.83 9.37
8/22/2022 4:30:00 PM 16.84 62.312 1.169 6.6 1.77 9.38
8/22/2022 4:45:00 PM 16.86 62.348 1.256 6.6 1.8 9.39
8/22/2022 5:00:00 PM 16.89 62.402 1.239 6.6 1.78 9.39
8/22/2022 5:15:00 PM 16.81 62.258 1.251 6.58 1.94 9.32
8/22/2022 5:30:00 PM 16.83 62.294 1.243 6.58 1.76 9.35
8/22/2022 5:45:00 PM 16.83 62.294 1.268 6.58 1.84 9.32
8/22/2022 6:00:00 PM 16.78 62.204 1.255 6.57 1.8 9.24
8/22/2022 6:15:00 PM 16.73 62.114 1.243 6.55 1.79 9.19
8/22/2022 6:30:00 PM 16.7 62.06 1.256 6.55 1.82 9.18
8/22/2022 6:45:00 PM 16.65 61.97 1.253 6.53 1.8 9.17
8/22/2022 7:00:00 PM 16.64 61.952 1.246 6.52 1.73 9.16
8/22/2022 7:15:00 PM 16.6 61.88 1.266 6.5 1.78 9.15
8/22/2022 7:30:00 PM 16.57 61.826 1.251 6.49 1.79 9.12
8/22/2022 7:45:00 PM 16.53 61.754 1.255 6.47 1.8 9.11
8/22/2022 8:00:00 PM 16.5 61.7 1.25 6.45 1.83 9.09
8/22/2022 8:15:00 PM 16.48 61.664 1.258 6.45 1.98 9.1
8/22/2022 8:30:00 PM 16.45 61.61 1.258 6.46 1.78 9.11
8/22/2022 8:45:00 PM 16.42 61.556 1.242 6.46 1.89 9.12
8/22/2022 9:00:00 PM 16.38 61.484 0.329 6.47 1.85 9.16
8/22/2022 9:15:00 PM 16.34 61.412 1.322 6.46 1.84 9.14
8/22/2022 9:30:00 PM 16.31 61.358 1.304 6.46 1.85 9.15
8/22/2022 9:45:00 PM 16.28 61.304 1.298 6.47 1.77 9.15
8/22/2022 10:00:00 PM 16.25 61.25 1.309 6.47 1.85 9.16
8/22/2022 10:15:00 PM 16.24 61.232 1.287 6.48 1.78 9.17
8/22/2022 10:30:00 PM 16.23 61.214 1.287 6.49 1.78 9.17
8/22/2022 10:45:00 PM 16.23 61.214 1.264 6.5 1.79 9.17
8/22/2022 11:00:00 PM 16.2 61.16 1.238 6.49 1.78 9.16
8/22/2022 11:15:00 PM 16.18 61.124 1.247 6.48 1.76 9.16
8/22/2022 11:30:00 PM 16.17 61.106 1.247 6.48 1.8 9.16
8/22/2022 11:45:00 PM 16.16 61.088 1.258 6.49 1.91 9.17
8/23/2022 12:00:00 AM 16.14 61.052 1.227 6.5 1.79 9.17
8/23/2022 12:15:00 AM 16.12 61.016 1.247 6.51 1.77 9.16
8/23/2022 12:30:00 AM 16.1 60.98 1.258 6.51 1.82 9.17
8/23/2022 12:45:00 AM 16.08 60.944 1.26 6.52 1.74 9.17
8/23/2022 1:00:00 AM 16.06 60.908 1.255 6.52 1.83 9.18
8/23/2022 1:15:00 AM 16.05 60.89 1.242 6.52 1.74 9.18
8/23/2022 1:30:00 AM 16.03 60.854 1.288 6.52 1.69 9.18
8/23/2022 1:45:00 AM 16 60.8 1.284 6.52 1.77 9.18
8/23/2022 2:00:00 AM 15.96 60.728 1.277 6.51 1.72 9.18
8/23/2022 2:15:00 AM 15.94 60.692 1.272 6.52 1.72 9.19
8/23/2022 2:30:00 AM 15.93 60.674 1.278 6.52 1.77 9.19
8/23/2022 2:45:00 AM 15.91 60.638 1.271 6.52 1.72 9.19
8/23/2022 3:00:00 AM 15.89 60.602 1.252 6.52 1.71 9.2
8/23/2022 3:15:00 AM 15.88 60.584 1.234 6.53 1.7 9.2
8/23/2022 3:30:00 AM 15.85 60.53 1.201 6.52 1.75 9.2
8/23/2022 3:45:00 AM 15.83 60.494 1.232 6.52 1.66 9.21
8/23/2022 4:00:00 AM 15.81 60.458 1.228 6.52 1.82 9.21
8/23/2022 4:15:00 AM 15.8 60.44 1.211 6.52 1.72 9.21
8/23/2022 4:30:00 AM 15.78 60.404 1.234 6.52 1.66 9.22
8/23/2022 4:45:00 AM 15.77 60.386 1.223 6.52 1.68 9.22
8/23/2022 5:00:00 AM 15.75 60.35 1.21 6.53 1.83 9.23
8/23/2022 5:15:00 AM 15.73 60.314 1.2 6.52 1.61 9.23
8/23/2022 5:30:00 AM 15.72 60.296 1.214 6.52 1.7 9.23
8/23/2022 5:45:00 AM 15.7 60.26 1.207 6.51 1.67 9.24
8/23/2022 6:00:00 AM 15.67 60.206 1.264 6.51 1.68 9.24
8/23/2022 6:15:00 AM 15.64 60.152 1.218 6.51 1.83 9.25
8/23/2022 6:30:00 AM 15.62 60.116 1.235 6.51 1.73 9.25
8/23/2022 6:45:00 AM 15.6 60.08 1.276 6.51 1.75 9.27
8/23/2022 7:00:00 AM 15.6 60.08 1.242 6.52 1.76 9.28
8/23/2022 7:15:00 AM 15.59 60.062 1.235 6.53 1.71 9.32
8/23/2022 7:30:00 AM 15.58 60.044 1.239 6.53 1.72 9.36
8/23/2022 7:45:00 AM 15.59 60.062 1.259 6.54 1.69 9.38
8/23/2022 8:00:00 AM 15.6 60.08 1.248 6.54 1.64 9.43
8/23/2022 8:15:00 AM 15.6 60.08 1.256 6.55 1.63 9.43
8/23/2022 8:30:00 AM 15.59 60.062 1.258 6.55 1.63 9.43
8/23/2022 8:45:00 AM 15.59 60.062 1.239 6.55 1.68 9.43
8/23/2022 9:00:00 AM 15.6 60.08 1.256 6.56 1.75 9.45
8/23/2022 9:15:00 AM 15.63 60.134 1.277 6.57 1.67 9.51
8/23/2022 9:30:00 AM 15.71 60.278 1.279 6.59 1.65 9.57
8/23/2022 9:45:00 AM 15.79 60.422 1.281 6.62 1.62 9.63
8/23/2022 10:00:00 AM 15.8 60.44 1.231 6.62 1.63 9.57
8/23/2022 10:15:00 AM 15.86 60.548 1.247 6.64 1.69 9.64
8/23/2022 10:30:00 AM 15.86 60.548 1.248 6.64 1.62 9.61
8/23/2022 10:45:00 AM 15.93 60.674 1.246 6.64 1.63 9.62
8/23/2022 11:00:00 AM 15.92 60.656 1.272 6.64 1.67 9.61
8/23/2022 11:15:00 AM 15.98 60.764 1.259 6.65 1.58 9.62
8/23/2022 11:30:00 AM 16.06 60.908 1.281 6.65 1.65 9.6
8/23/2022 11:45:00 AM 16.13 61.034 1.27 6.66 1.66 9.62
8/23/2022 12:00:00 PM 16.26 61.268 1.269 6.67 1.66 9.6
8/23/2022 12:15:00 PM 16.32 61.376 1.26 6.67 1.7 9.6
8/23/2022 12:30:00 PM 16.39 61.502 1.258 6.67 1.75 9.57
8/23/2022 12:45:00 PM 16.67 62.006 1.242 6.67 1.64 9.56
8/23/2022 1:00:00 PM 16.73 62.114 1.21 6.68 1.6 9.53
8/23/2022 1:15:00 PM 16.76 62.168 1.188 6.69 1.68 9.57
8/23/2022 1:30:00 PM 16.68 62.024 1.258 6.67 1.61 9.53
8/23/2022 1:45:00 PM 16.6 61.88 1.241 6.65 1.76 9.42
8/23/2022 2:00:00 PM 16.72 62.096 1.242 6.66 1.66 9.43
8/23/2022 2:15:00 PM 16.62 61.916 1.233 6.66 1.82 9.44
8/23/2022 2:30:00 PM 16.63 61.934 1.209 6.67 1.66 9.51
8/23/2022 2:45:00 PM 16.62 61.916 1.223 6.66 1.7 9.5
8/23/2022 3:00:00 PM 16.56 61.808 1.221 6.65 1.67 9.46
8/23/2022 3:15:00 PM 16.54 61.772 1.212 6.65 1.63 9.47
8/23/2022 3:30:00 PM 16.63 61.934 1.229 6.65 1.76 9.51
8/23/2022 3:45:00 PM 16.89 62.402 1.207 6.66 1.71 9.52
8/23/2022 4:00:00 PM 16.74 62.132 1.198 6.64 1.64 9.47
8/23/2022 4:15:00 PM 16.55 61.79 1.226 6.61 1.64 9.31
8/23/2022 4:30:00 PM 16.49 61.682 1.212 6.59 1.74 9.25
8/23/2022 4:45:00 PM 16.49 61.682 1.201 6.58 1.7 9.23
8/23/2022 5:00:00 PM 16.49 61.682 1.204 6.58 1.64 9.24
8/23/2022 5:15:00 PM 16.45 61.61 1.209 6.56 1.77 9.19
8/23/2022 5:30:00 PM 16.44 61.592 1.235 6.56 1.62 9.2
8/23/2022 5:45:00 PM 16.44 61.592 1.195 6.57 1.67 9.26
8/23/2022 6:00:00 PM 16.5 61.7 1.19 6.6 1.74 9.35
8/23/2022 6:15:00 PM 16.48 61.664 1.158 6.6 1.62 9.34
8/23/2022 6:30:00 PM 16.45 61.61 1.16 6.6 1.65 9.29
8/23/2022 6:45:00 PM 16.42 61.556 1.203 6.58 1.67 9.27
8/23/2022 7:00:00 PM 16.38 61.484 1.179 6.56 1.91 9.21
8/23/2022 7:15:00 PM 16.33 61.394 1.193 6.55 1.65 9.18
8/23/2022 7:30:00 PM 16.3 61.34 1.186 6.54 1.64 9.17
8/23/2022 7:45:00 PM 16.25 61.25 1.166 6.53 1.72 9.16
8/23/2022 8:00:00 PM 16.2 61.16 1.205 6.53 1.7 9.15
8/23/2022 8:15:00 PM 16.15 61.07 1.183 6.52 1.69 9.14
8/23/2022 8:30:00 PM 16.11 60.998 1.176 6.51 1.86 9.14
8/23/2022 8:45:00 PM 16.07 60.926 1.182 6.52 1.71 9.16
8/23/2022 9:00:00 PM 16.03 60.854 1.175 6.51 1.7 9.16
8/23/2022 9:15:00 PM 15.99 60.782 1.177 6.5 1.69 9.17
8/23/2022 9:30:00 PM 15.98 60.764 1.179 6.51 1.67 9.16
8/23/2022 9:45:00 PM 15.93 60.674 1.179 6.51 1.7 9.18
8/23/2022 10:00:00 PM 15.89 60.602 1.172 6.51 1.66 9.19
8/23/2022 10:15:00 PM 15.86 60.548 1.147 6.51 1.69 9.19
8/23/2022 10:30:00 PM 15.83 60.494 1.167 6.51 1.63 9.19
8/23/2022 10:45:00 PM 15.8 60.44 1.15 6.52 1.76 9.2
8/23/2022 11:00:00 PM 15.77 60.386 1.155 6.51 1.74 9.21
8/23/2022 11:15:00 PM 15.73 60.314 1.148 6.51 1.65 9.21
8/23/2022 11:30:00 PM 15.7 60.26 1.16 6.51 1.68 9.21
8/23/2022 11:45:00 PM 15.66 60.188 1.159 6.51 1.74 9.22
8/24/2022 12:00:00 AM 15.63 60.134 1.142 6.5 6751.15 9.22
8/24/2022 12:15:00 AM 15.6 60.08 1.159 6.5 1.77 9.23
8/24/2022 12:30:00 AM 15.56 60.008 1.16 6.49 1.71 9.23
8/24/2022 12:45:00 AM 15.53 59.954 1.152 6.49 1.7 9.23
8/24/2022 1:00:00 AM 15.5 59.9 1.151 6.49 1.71 9.24
8/24/2022 1:15:00 AM 15.47 59.846 1.162 6.49 1.72 9.25
8/24/2022 1:30:00 AM 15.44 59.792 1.156 6.49 1.74 9.25
8/24/2022 1:45:00 AM 15.41 59.738 1.141 6.49 1.68 9.26
8/24/2022 2:00:00 AM 15.37 59.666 1.151 6.49 1.66 9.27
8/24/2022 2:15:00 AM 15.34 59.612 1.118 6.49 1.73 9.27
8/24/2022 2:30:00 AM 15.31 59.558 1.149 6.49 1.68 9.28
8/24/2022 2:45:00 AM 15.28 59.504 1.149 6.49 1.73 9.29
8/24/2022 3:00:00 AM 15.25 59.45 1.142 6.49 1.67 9.29
8/24/2022 3:15:00 AM 15.22 59.396 1.15 6.49 1.71 9.3
8/24/2022 3:30:00 AM 15.19 59.342 1.158 6.5 1.7 9.31
8/24/2022 3:45:00 AM 15.15 59.27 1.14 6.5 1.7 9.32
8/24/2022 4:00:00 AM 15.12 59.216 1.151 6.49 1.71 9.33
8/24/2022 4:15:00 AM 15.08 59.144 1.125 6.5 1.69 9.34
8/24/2022 4:30:00 AM 15.05 59.09 1.139 6.5 1.67 9.34
8/24/2022 4:45:00 AM 15.01 59.018 1.136 6.5 1.75 9.36
8/24/2022 5:00:00 AM 14.98 58.964 1.143 6.5 1.68 9.36
8/24/2022 5:15:00 AM 14.95 58.91 1.133 6.5 1.69 9.37
8/24/2022 5:30:00 AM 14.92 58.856 1.143 6.5 1.73 9.37
8/24/2022 5:45:00 AM 14.89 58.802 1.129 6.5 1.79 9.38
8/24/2022 6:00:00 AM 14.86 58.748 1.121 6.5 1.67 9.38
8/24/2022 6:15:00 AM 14.84 58.712 1.136 6.51 1.7 9.39
8/24/2022 6:30:00 AM 14.81 58.658 1.142 6.51 1.67 9.41
8/24/2022 6:45:00 AM 14.79 58.622 1.146 6.51 1.74 9.43
8/24/2022 7:00:00 AM 14.76 58.568 1.129 6.51 1.7 9.45
8/24/2022 7:15:00 AM 14.74 58.532 1.127 6.52 1.69 9.48
8/24/2022 7:30:00 AM 14.71 58.478 1.126 6.52 1.69 9.5
8/24/2022 7:45:00 AM 14.68 58.424 1.134 6.53 1.72 9.52
8/24/2022 8:00:00 AM 14.66 58.388 1.151 6.53 1.66 9.55
8/24/2022 8:15:00 AM 14.66 58.388 1.149 6.54 1.71 9.58
8/24/2022 8:30:00 AM 14.69 58.442 1.143 6.56 1.72 9.65
8/24/2022 8:45:00 AM 14.71 58.478 1.142 6.57 1.65 9.69
8/24/2022 9:00:00 AM 14.73 58.514 1.121 6.58 1.67 9.7
8/24/2022 9:15:00 AM 14.74 58.532 1.136 6.58 1.7 9.7
8/24/2022 9:30:00 AM 14.76 58.568 1.133 6.58 1.64 9.68
8/24/2022 9:45:00 AM 14.79 58.622 1.134 6.58 1.78 9.69
8/24/2022 10:00:00 AM 14.83 58.694 1.137 6.58 1.68 9.69
8/24/2022 10:15:00 AM 14.88 58.784 1.133 6.58 1.68 9.7
8/24/2022 10:30:00 AM 14.95 58.91 1.124 6.6 1.65 9.72
8/24/2022 10:45:00 AM 15.03 59.054 1.12 6.6 1.61 9.72
8/24/2022 11:00:00 AM 15.14 59.252 1.142 6.61 1.64 9.73
8/24/2022 11:15:00 AM 15.29 59.522 1.125 6.63 1.69 9.73
8/24/2022 11:30:00 AM 15.46 59.828 1.128 6.65 1.66 9.76
8/24/2022 11:45:00 AM 15.63 60.134 1.11 6.66 1.69 9.74
8/24/2022 12:00:00 PM 15.85 60.53 1.13 6.68 1.68 9.76
8/24/2022 12:15:00 PM 15.87 60.566 1.11 6.68 1.59 9.73
8/24/2022 12:30:00 PM 16.2 61.16 1.112 6.7 1.62 9.75
8/24/2022 12:45:00 PM 16.39 61.502 1.116 6.7 1.62 9.71
8/24/2022 1:00:00 PM 16.64 61.952 1.104 6.71 1.56 9.72
8/24/2022 1:15:00 PM 16.88 62.384 1.113 6.72 1.59 9.7
8/24/2022 1:30:00 PM 17.13 62.834 1.108 6.72 1.57 9.66
8/24/2022 1:45:00 PM 16.81 62.258 1.11 6.69 1.6 9.51
8/24/2022 2:00:00 PM 17.14 62.852 1.106 6.69 1.61 9.58
8/24/2022 2:15:00 PM 17.56 63.608 1.109 6.7 1.54 9.58
8/24/2022 2:30:00 PM 17.62 63.716 1.119 6.71 1.63 9.55
8/24/2022 2:45:00 PM 17.48 63.464 1.107 6.71 1.68 9.54
8/24/2022 3:00:00 PM 17.4 63.32 1.1 6.7 1.59 9.52
8/24/2022 3:15:00 PM 17.3 63.14 1.097 6.7 1.64 9.49
8/24/2022 3:30:00 PM 17.27 63.086 1.064 6.7 1.61 9.48
8/24/2022 3:45:00 PM 17.41 63.338 1.064 6.7 1.61 9.47
8/24/2022 4:00:00 PM 17.25 63.05 1.089 6.69 1.61 9.42
8/24/2022 4:15:00 PM 17.16 62.888 1.083 6.68 1.59 9.39
8/24/2022 4:30:00 PM 17.27 63.086 1.093 6.68 1.63 9.42
8/24/2022 4:45:00 PM 17.21 62.978 1.087 6.67 1.63 9.36
8/24/2022 5:00:00 PM 17.11 62.798 1.092 6.64 1.59 9.28
8/24/2022 5:15:00 PM 17.1 62.78 1.097 6.63 1.58 9.26
8/24/2022 5:30:00 PM 17.09 62.762 1.084 6.62 1.7 9.24
8/24/2022 5:45:00 PM 17.05 62.69 1.1 6.61 1.67 9.2
8/24/2022 6:00:00 PM 16.99 62.582 1.065 6.6 1.7 9.16
8/24/2022 6:15:00 PM 16.93 62.474 1.087 6.59 1.65 9.11
8/24/2022 6:30:00 PM 16.86 62.348 1.093 6.57 1.69 9.09
8/24/2022 6:45:00 PM 16.79 62.222 1.076 6.56 1.63 9.07
8/24/2022 7:00:00 PM 16.72 62.096 1.087 6.55 1.65 9.06
8/24/2022 7:15:00 PM 16.65 61.97 1.07 6.54 1.63 9.05
8/24/2022 7:30:00 PM 16.59 61.862 1.067 6.54 1.87 9.05
8/24/2022 7:45:00 PM 16.53 61.754 1.078 6.54 1.66 9.04
8/24/2022 8:00:00 PM 16.46 61.628 1.083 6.54 1.73 9.03
8/24/2022 8:15:00 PM 16.39 61.502 1.068 6.54 1.68 9.03
8/24/2022 8:30:00 PM 16.31 61.358 1.074 6.54 1.68 9.03
8/24/2022 8:45:00 PM 16.24 61.232 1.076 6.54 1.73 9.05
8/24/2022 9:00:00 PM 16.16 61.088 1.058 6.54 1.69 9.06
8/24/2022 9:15:00 PM 16.08 60.944 1.075 6.53 1.71 9.08
8/24/2022 9:30:00 PM 16.01 60.818 1.072 6.54 1.7 9.09
8/24/2022 9:45:00 PM 15.94 60.692 1.073 6.53 1.8 9.11
8/24/2022 10:00:00 PM 15.87 60.566 1.084 6.53 1.68 9.12
8/24/2022 10:15:00 PM 15.8 60.44 1.081 6.53 1.69 9.14
8/24/2022 10:30:00 PM 15.73 60.314 1.081 6.51 1.74 9.16
8/24/2022 10:45:00 PM 15.67 60.206 1.078 6.52 1.75 9.17
8/24/2022 11:00:00 PM 15.61 60.098 1.085 6.51 1.68 9.19
8/24/2022 11:15:00 PM 15.54 59.972 1.081 6.49 1.68 9.2
8/24/2022 11:30:00 PM 15.48 59.864 1.071 6.49 1.68 9.21
8/24/2022 11:45:00 PM 15.42 59.756 1.079 6.48 1.67 9.23
8/25/2022 12:00:00 AM 15.36 59.648 1.065 6.48 1.81 9.23
8/25/2022 12:15:00 AM 15.3 59.54 1.079 6.48 1.71 9.25
8/25/2022 12:30:00 AM 15.24 59.432 1.087 6.46 1.73 9.26
8/25/2022 12:45:00 AM 15.19 59.342 1.088 6.47 1.68 9.27
8/25/2022 1:00:00 AM 15.13 59.234 1.094 6.46 1.78 9.29
8/25/2022 1:15:00 AM 15.08 59.144 1.064 6.47 1.7 9.3
8/25/2022 1:30:00 AM 15.03 59.054 1.07 6.46 1.71 9.31
8/25/2022 1:45:00 AM 14.98 58.964 1.07 6.46 1.72 9.32
8/25/2022 2:00:00 AM 14.93 58.874 1.062 6.46 1.7 9.34
8/25/2022 2:15:00 AM 14.88 58.784 1.076 6.46 1.65 9.34
8/25/2022 2:30:00 AM 14.84 58.712 1.087 6.45 1.7 9.35
8/25/2022 2:45:00 AM 14.79 58.622 1.076 6.46 1.73 9.36
8/25/2022 3:00:00 AM 14.74 58.532 1.092 6.46 1.81 9.38
8/25/2022 3:15:00 AM 14.7 58.46 1.083 6.46 1.72 9.39
8/25/2022 3:30:00 AM 14.65 58.37 1.083 6.47 1.65 9.39
8/25/2022 3:45:00 AM 14.61 58.298 1.08 6.47 1.68 9.41
8/25/2022 4:00:00 AM 14.57 58.226 1.079 6.47 1.66 9.41
8/25/2022 4:15:00 AM 14.53 58.154 1.076 6.46 1.73 9.42
8/25/2022 4:30:00 AM 14.49 58.082 1.082 6.47 1.7 9.43
8/25/2022 4:45:00 AM 14.45 58.01 1.08 6.47 1.8 9.44
8/25/2022 5:00:00 AM 14.41 57.938 1.081 6.47 1.66 9.45
8/25/2022 5:15:00 AM 14.37 57.866 1.083 6.48 1.71 9.45
8/25/2022 5:30:00 AM 14.33 57.794 1.083 6.47 1.77 9.46
8/25/2022 5:45:00 AM 14.3 57.74 1.085 6.47 1.74 9.48
8/25/2022 6:00:00 AM 14.26 57.668 1.085 6.47 1.73 9.49
8/25/2022 6:15:00 AM 14.23 57.614 1.086 6.48 1.8 9.49
8/25/2022 6:30:00 AM 14.2 57.56 1.09 6.48 1.7 9.51
8/25/2022 6:45:00 AM 14.17 57.506 1.087 6.48 1.76 9.53
8/25/2022 7:00:00 AM 14.14 57.452 1.079 6.49 1.67 9.56
8/25/2022 7:15:00 AM 14.12 57.416 1.074 6.5 1.7 9.59
8/25/2022 7:30:00 AM 14.1 57.38 1.067 6.51 1.67 9.62
8/25/2022 7:45:00 AM 14.08 57.344 1.074 6.51 1.67 9.64
8/25/2022 8:00:00 AM 14.07 57.326 1.065 6.51 1.64 9.66
8/25/2022 8:15:00 AM 14.06 57.308 1.058 6.53 1.73 9.68
8/25/2022 8:30:00 AM 14.06 57.308 1.07 6.53 1.71 9.7
8/25/2022 8:45:00 AM 14.08 57.344 1.056 6.54 1.67 9.73
8/25/2022 9:00:00 AM 14.1 57.38 1.067 6.55 1.72 9.74
8/25/2022 9:15:00 AM 14.13 57.434 1.081 6.55 1.68 9.76
8/25/2022 9:30:00 AM 14.17 57.506 1.074 6.55 1.65 9.78
8/25/2022 9:45:00 AM 14.22 57.596 1.067 6.55 1.66 9.78
8/25/2022 10:00:00 AM 14.27 57.686 1.065 6.55 1.68 9.79
8/25/2022 10:15:00 AM 14.33 57.794 1.065 6.57 1.72 9.81
8/25/2022 10:30:00 AM 14.41 57.938 1.062 6.58 1.74 9.82
8/25/2022 10:45:00 AM 14.52 58.136 1.071 6.59 1.62 9.83
8/25/2022 11:00:00 AM 14.64 58.352 1.064 6.59 1.65 9.84
8/25/2022 11:15:00 AM 14.79 58.622 1.064 6.6 1.62 9.84
8/25/2022 11:30:00 AM 14.96 58.928 1.049 6.62 1.64 9.84
8/25/2022 11:45:00 AM 15.15 59.27 1.05 6.64 1.66 9.84
8/25/2022 12:00:00 PM 15.38 59.684 1.041 6.65 1.64 9.83
8/25/2022 12:15:00 PM 15.61 60.098 1.039